<?xml version="1.0" encoding="UTF-8" standalone="no" ?>
<gpx xmlns="http://www.topografix.com/GPX/1/1" xmlns:xsi="http://www.w3.org/2001/XMLSchema-instance" xsi:schemaLocation="http://www.topografix.com/GPX/1/1 http://www.topografix.com/GPX/1/1/gpx.xsd" version="1.1" creator="VisuGPX - https://www.visugpx.com">
  <metadata>
    <name>Peyre Martine</name>
    <desc><![CDATA[Peyre Martine depuis Saint jean de Buèges avec l'ANR 34 le 27 avril 2017.]]></desc>
  </metadata>
  <wpt lat="43.82844" lon="3.61595">
    <ele>169</ele>
    <name><![CDATA[0000283]]></name>
    <desc><![CDATA[]]></desc>
    <type><![CDATA[Point de départ]]></type>
  </wpt>
  <wpt lat="43.81281" lon="3.5907">
    <ele>180</ele>
    <name><![CDATA[0000284]]></name>
    <desc><![CDATA[<br /><h3>Nom: Segment 1</h3><br /><p>Temps de départ: 04/27/2017 08:57</p><p>Temps d'arrivée: 04/27/2017 12:42</p><p>Distance: 8,7km (03:45)</p><p>Temps déplacement: 02:21</p><p>Vitesse moyenne: 2,3km/h</p><p>Vitesse moyenne: 3,7km/h</p><p>Vitess Max.: 7km/h</p><p>Altitude minimale: 159m</p><p>Altitude maximale: 778m</p><p>Vitesse d'élévation: 318,4m/h</p><p>Vitesse de descente: -438,6m/h</p><p>Gain Altitude: 672m</p><p>Perte Altitude: -662m</p><p>Temps d'élévation: 02:06</p><p>Temps de descente: 01:30</p>]]></desc>
    <type><![CDATA[Point d'arrivée]]></type>
  </wpt>
  <wpt lat="43.82845" lon="3.61595">
    <ele>169</ele>
    <name><![CDATA[0000285]]></name>
    <desc><![CDATA[<br /><h3>Nom: Segment 1</h3><br /><p>Temps de départ: 04/27/2017 08:57</p><p>Temps d'arrivée: 04/27/2017 16:12</p><p>Distance: 16,1km (07:15)</p><p>Temps déplacement: 05:15</p><p>Vitesse moyenne: 2,2km/h</p><p>Vitesse moyenne: 3,1km/h</p><p>Vitess Max.: 7,9km/h</p><p>Altitude minimale: 152m</p><p>Altitude maximale: 778m</p><p>Vitesse d'élévation: 295,3m/h</p><p>Vitesse de descente: -406,4m/h</p><p>Gain Altitude: 997m</p><p>Perte Altitude: -1013m</p><p>Temps d'élévation: 03:22</p><p>Temps de descente: 02:29</p>]]></desc>
    <type><![CDATA[Point d'arrivée]]></type>
  </wpt>
  <trk>
    <name><![CDATA[2017-04-27 08:57]]></name>
    <desc><![CDATA[<h1>OruxMaps</h1><br /><hr align="center" width="480" style="height: 2px; width: 517px"/><h2>Nom: 2017-04-27 08:57</h2><br /><p>Temps de départ: 04/27/2017 08:57</p><p>Temps d'arrivée: 04/27/2017 16:12</p><p>Distance: 16,1km (07:15)</p><p>Temps déplacement: 05:16</p><p>Vitesse moyenne: 2,2km/h</p><p>Vitesse moyenne: 3,1km/h</p><p>Vitess Max.: 7,9km/h</p><p>Altitude minimale: 152m</p><p>Altitude maximale: 778m</p><p>Vitesse d'élévation: 295,3m/h</p><p>Vitesse de descente: -406,4m/h</p><p>Gain Altitude: 997m</p><p>Perte Altitude: -1013m</p><p>Temps d'élévation: 03:22</p><p>Temps de descente: 02:29</p><hr align="center" width="480" style="height: 2px; width: 517px"/>]]></desc>
    <trkseg>
      <trkpt lat="43.82844" lon="3.61595">
        <ele>169</ele>
        <time>2017-04-27T06:57:10Z</time>
      </trkpt>
      <trkpt lat="43.82842" lon="3.61613">
        <ele>169</ele>
        <time>2017-04-27T06:57:22Z</time>
      </trkpt>
      <trkpt lat="43.82841" lon="3.61629">
        <ele>169</ele>
        <time>2017-04-27T06:57:30Z</time>
      </trkpt>
      <trkpt lat="43.82839" lon="3.61643">
        <ele>169</ele>
        <time>2017-04-27T06:57:38Z</time>
      </trkpt>
      <trkpt lat="43.82828" lon="3.61643">
        <ele>167</ele>
        <time>2017-04-27T06:57:54Z</time>
      </trkpt>
      <trkpt lat="43.82817" lon="3.6164">
        <ele>167</ele>
        <time>2017-04-27T06:58:02Z</time>
      </trkpt>
      <trkpt lat="43.82807" lon="3.61637">
        <ele>167</ele>
        <time>2017-04-27T06:58:10Z</time>
      </trkpt>
      <trkpt lat="43.82798" lon="3.61633">
        <ele>167</ele>
        <time>2017-04-27T06:58:18Z</time>
      </trkpt>
      <trkpt lat="43.82787" lon="3.61632">
        <ele>167</ele>
        <time>2017-04-27T06:58:28Z</time>
      </trkpt>
      <trkpt lat="43.82778" lon="3.61636">
        <ele>167</ele>
        <time>2017-04-27T06:58:42Z</time>
      </trkpt>
      <trkpt lat="43.82773" lon="3.61623">
        <ele>167</ele>
        <time>2017-04-27T06:58:52Z</time>
      </trkpt>
      <trkpt lat="43.82775" lon="3.61609">
        <ele>167</ele>
        <time>2017-04-27T06:59:00Z</time>
      </trkpt>
      <trkpt lat="43.82778" lon="3.61597">
        <ele>167</ele>
        <time>2017-04-27T06:59:08Z</time>
      </trkpt>
      <trkpt lat="43.82778" lon="3.61581">
        <ele>170</ele>
        <time>2017-04-27T06:59:16Z</time>
      </trkpt>
      <trkpt lat="43.8278" lon="3.61567">
        <ele>171</ele>
        <time>2017-04-27T06:59:26Z</time>
      </trkpt>
      <trkpt lat="43.82769" lon="3.61568">
        <ele>170</ele>
        <time>2017-04-27T06:59:36Z</time>
      </trkpt>
      <trkpt lat="43.82758" lon="3.61567">
        <ele>170</ele>
        <time>2017-04-27T06:59:44Z</time>
      </trkpt>
      <trkpt lat="43.82747" lon="3.61567">
        <ele>169</ele>
        <time>2017-04-27T06:59:50Z</time>
      </trkpt>
      <trkpt lat="43.82742" lon="3.61557">
        <ele>169</ele>
        <time>2017-04-27T06:59:58Z</time>
      </trkpt>
      <trkpt lat="43.82735" lon="3.61548">
        <ele>169</ele>
        <time>2017-04-27T07:00:08Z</time>
      </trkpt>
      <trkpt lat="43.82727" lon="3.61542">
        <ele>169</ele>
        <time>2017-04-27T07:00:16Z</time>
      </trkpt>
      <trkpt lat="43.8272" lon="3.61531">
        <ele>170</ele>
        <time>2017-04-27T07:00:26Z</time>
      </trkpt>
      <trkpt lat="43.82711" lon="3.61527">
        <ele>170</ele>
        <time>2017-04-27T07:00:32Z</time>
      </trkpt>
      <trkpt lat="43.82704" lon="3.61516">
        <ele>170</ele>
        <time>2017-04-27T07:00:40Z</time>
      </trkpt>
      <trkpt lat="43.82695" lon="3.61515">
        <ele>170</ele>
        <time>2017-04-27T07:00:48Z</time>
      </trkpt>
      <trkpt lat="43.82687" lon="3.61509">
        <ele>170</ele>
        <time>2017-04-27T07:00:56Z</time>
      </trkpt>
      <trkpt lat="43.82687" lon="3.61496">
        <ele>174</ele>
        <time>2017-04-27T07:01:02Z</time>
      </trkpt>
      <trkpt lat="43.82683" lon="3.61482">
        <ele>175</ele>
        <time>2017-04-27T07:01:10Z</time>
      </trkpt>
      <trkpt lat="43.82678" lon="3.61471">
        <ele>176</ele>
        <time>2017-04-27T07:01:18Z</time>
      </trkpt>
      <trkpt lat="43.82675" lon="3.61459">
        <ele>177</ele>
        <time>2017-04-27T07:01:30Z</time>
      </trkpt>
      <trkpt lat="43.8267" lon="3.61447">
        <ele>177</ele>
        <time>2017-04-27T07:01:40Z</time>
      </trkpt>
      <trkpt lat="43.82669" lon="3.61434">
        <ele>178</ele>
        <time>2017-04-27T07:01:48Z</time>
      </trkpt>
      <trkpt lat="43.82665" lon="3.61422">
        <ele>179</ele>
        <time>2017-04-27T07:01:56Z</time>
      </trkpt>
      <trkpt lat="43.82661" lon="3.61409">
        <ele>180</ele>
        <time>2017-04-27T07:02:04Z</time>
      </trkpt>
      <trkpt lat="43.82654" lon="3.61396">
        <ele>181</ele>
        <time>2017-04-27T07:02:12Z</time>
      </trkpt>
      <trkpt lat="43.82647" lon="3.61386">
        <ele>181</ele>
        <time>2017-04-27T07:02:20Z</time>
      </trkpt>
      <trkpt lat="43.82638" lon="3.61378">
        <ele>181</ele>
        <time>2017-04-27T07:02:30Z</time>
      </trkpt>
      <trkpt lat="43.82632" lon="3.61366">
        <ele>181</ele>
        <time>2017-04-27T07:02:40Z</time>
      </trkpt>
      <trkpt lat="43.82632" lon="3.61352">
        <ele>182</ele>
        <time>2017-04-27T07:02:50Z</time>
      </trkpt>
      <trkpt lat="43.82635" lon="3.61339">
        <ele>182</ele>
        <time>2017-04-27T07:02:58Z</time>
      </trkpt>
      <trkpt lat="43.82636" lon="3.61325">
        <ele>187</ele>
        <time>2017-04-27T07:03:06Z</time>
      </trkpt>
      <trkpt lat="43.82638" lon="3.61312">
        <ele>187</ele>
        <time>2017-04-27T07:03:14Z</time>
      </trkpt>
      <trkpt lat="43.82643" lon="3.61301">
        <ele>188</ele>
        <time>2017-04-27T07:03:28Z</time>
      </trkpt>
      <trkpt lat="43.82646" lon="3.61289">
        <ele>188</ele>
        <time>2017-04-27T07:03:36Z</time>
      </trkpt>
      <trkpt lat="43.82648" lon="3.61274">
        <ele>189</ele>
        <time>2017-04-27T07:03:46Z</time>
      </trkpt>
      <trkpt lat="43.82649" lon="3.61261">
        <ele>190</ele>
        <time>2017-04-27T07:03:54Z</time>
      </trkpt>
      <trkpt lat="43.82649" lon="3.61248">
        <ele>193</ele>
        <time>2017-04-27T07:04:02Z</time>
      </trkpt>
      <trkpt lat="43.82653" lon="3.61236">
        <ele>194</ele>
        <time>2017-04-27T07:04:14Z</time>
      </trkpt>
      <trkpt lat="43.8266" lon="3.61228">
        <ele>194</ele>
        <time>2017-04-27T07:04:22Z</time>
      </trkpt>
      <trkpt lat="43.82664" lon="3.61217">
        <ele>194</ele>
        <time>2017-04-27T07:04:30Z</time>
      </trkpt>
      <trkpt lat="43.82662" lon="3.61204">
        <ele>195</ele>
        <time>2017-04-27T07:04:38Z</time>
      </trkpt>
      <trkpt lat="43.82659" lon="3.61191">
        <ele>195</ele>
        <time>2017-04-27T07:04:46Z</time>
      </trkpt>
      <trkpt lat="43.82658" lon="3.61178">
        <ele>197</ele>
        <time>2017-04-27T07:04:54Z</time>
      </trkpt>
      <trkpt lat="43.82659" lon="3.61164">
        <ele>199</ele>
        <time>2017-04-27T07:05:02Z</time>
      </trkpt>
      <trkpt lat="43.82653" lon="3.61153">
        <ele>199</ele>
        <time>2017-04-27T07:05:12Z</time>
      </trkpt>
      <trkpt lat="43.82647" lon="3.61142">
        <ele>200</ele>
        <time>2017-04-27T07:05:20Z</time>
      </trkpt>
      <trkpt lat="43.8264" lon="3.61132">
        <ele>200</ele>
        <time>2017-04-27T07:05:34Z</time>
      </trkpt>
      <trkpt lat="43.82635" lon="3.61118">
        <ele>200</ele>
        <time>2017-04-27T07:05:44Z</time>
      </trkpt>
      <trkpt lat="43.82635" lon="3.61106">
        <ele>201</ele>
        <time>2017-04-27T07:05:52Z</time>
      </trkpt>
      <trkpt lat="43.82634" lon="3.61093">
        <ele>202</ele>
        <time>2017-04-27T07:06:02Z</time>
      </trkpt>
      <trkpt lat="43.82637" lon="3.61079">
        <ele>207</ele>
        <time>2017-04-27T07:06:14Z</time>
      </trkpt>
      <trkpt lat="43.82644" lon="3.6107">
        <ele>207</ele>
        <time>2017-04-27T07:06:24Z</time>
      </trkpt>
      <trkpt lat="43.82651" lon="3.61059">
        <ele>208</ele>
        <time>2017-04-27T07:06:34Z</time>
      </trkpt>
      <trkpt lat="43.82656" lon="3.61046">
        <ele>208</ele>
        <time>2017-04-27T07:06:48Z</time>
      </trkpt>
      <trkpt lat="43.82661" lon="3.61035">
        <ele>209</ele>
        <time>2017-04-27T07:07:02Z</time>
      </trkpt>
      <trkpt lat="43.82664" lon="3.61021">
        <ele>211</ele>
        <time>2017-04-27T07:07:16Z</time>
      </trkpt>
      <trkpt lat="43.82665" lon="3.61007">
        <ele>213</ele>
        <time>2017-04-27T07:07:28Z</time>
      </trkpt>
      <trkpt lat="43.82668" lon="3.60995">
        <ele>218</ele>
        <time>2017-04-27T07:07:42Z</time>
      </trkpt>
      <trkpt lat="43.82674" lon="3.60985">
        <ele>222</ele>
        <time>2017-04-27T07:07:56Z</time>
      </trkpt>
      <trkpt lat="43.82678" lon="3.60973">
        <ele>225</ele>
        <time>2017-04-27T07:08:10Z</time>
      </trkpt>
      <trkpt lat="43.82681" lon="3.60961">
        <ele>227</ele>
        <time>2017-04-27T07:08:32Z</time>
      </trkpt>
      <trkpt lat="43.82681" lon="3.60947">
        <ele>229</ele>
        <time>2017-04-27T07:08:52Z</time>
      </trkpt>
      <trkpt lat="43.82678" lon="3.60933">
        <ele>230</ele>
        <time>2017-04-27T07:09:04Z</time>
      </trkpt>
      <trkpt lat="43.82676" lon="3.60921">
        <ele>231</ele>
        <time>2017-04-27T07:09:22Z</time>
      </trkpt>
      <trkpt lat="43.82674" lon="3.60908">
        <ele>237</ele>
        <time>2017-04-27T07:09:36Z</time>
      </trkpt>
      <trkpt lat="43.8267" lon="3.60897">
        <ele>239</ele>
        <time>2017-04-27T07:09:50Z</time>
      </trkpt>
      <trkpt lat="43.82666" lon="3.60885">
        <ele>236</ele>
        <time>2017-04-27T07:10:02Z</time>
      </trkpt>
      <trkpt lat="43.82661" lon="3.60873">
        <ele>237</ele>
        <time>2017-04-27T07:10:22Z</time>
      </trkpt>
      <trkpt lat="43.82654" lon="3.60862">
        <ele>238</ele>
        <time>2017-04-27T07:10:36Z</time>
      </trkpt>
      <trkpt lat="43.82651" lon="3.60849">
        <ele>241</ele>
        <time>2017-04-27T07:10:50Z</time>
      </trkpt>
      <trkpt lat="43.82646" lon="3.60837">
        <ele>241</ele>
        <time>2017-04-27T07:11:02Z</time>
      </trkpt>
      <trkpt lat="43.82644" lon="3.60824">
        <ele>249</ele>
        <time>2017-04-27T07:11:26Z</time>
      </trkpt>
      <trkpt lat="43.82647" lon="3.60811">
        <ele>250</ele>
        <time>2017-04-27T07:11:38Z</time>
      </trkpt>
      <trkpt lat="43.82647" lon="3.60797">
        <ele>251</ele>
        <time>2017-04-27T07:11:52Z</time>
      </trkpt>
      <trkpt lat="43.82652" lon="3.60786">
        <ele>253</ele>
        <time>2017-04-27T07:12:08Z</time>
      </trkpt>
      <trkpt lat="43.8266" lon="3.60779">
        <ele>254</ele>
        <time>2017-04-27T07:12:28Z</time>
      </trkpt>
      <trkpt lat="43.82666" lon="3.6077">
        <ele>257</ele>
        <time>2017-04-27T07:12:38Z</time>
      </trkpt>
      <trkpt lat="43.82675" lon="3.60765">
        <ele>262</ele>
        <time>2017-04-27T07:13:02Z</time>
      </trkpt>
      <trkpt lat="43.82685" lon="3.60764">
        <ele>262</ele>
        <time>2017-04-27T07:13:14Z</time>
      </trkpt>
      <trkpt lat="43.82691" lon="3.60755">
        <ele>263</ele>
        <time>2017-04-27T07:13:30Z</time>
      </trkpt>
      <trkpt lat="43.82685" lon="3.60745">
        <ele>270</ele>
        <time>2017-04-27T07:13:50Z</time>
      </trkpt>
      <trkpt lat="43.82686" lon="3.60732">
        <ele>271</ele>
        <time>2017-04-27T07:14:12Z</time>
      </trkpt>
      <trkpt lat="43.82682" lon="3.60719">
        <ele>273</ele>
        <time>2017-04-27T07:15:28Z</time>
      </trkpt>
      <trkpt lat="43.82682" lon="3.60705">
        <ele>275</ele>
        <time>2017-04-27T07:15:42Z</time>
      </trkpt>
      <trkpt lat="43.82678" lon="3.60695">
        <ele>276</ele>
        <time>2017-04-27T07:16:04Z</time>
      </trkpt>
      <trkpt lat="43.82676" lon="3.60682">
        <ele>278</ele>
        <time>2017-04-27T07:16:16Z</time>
      </trkpt>
      <trkpt lat="43.82674" lon="3.60667">
        <ele>279</ele>
        <time>2017-04-27T07:16:28Z</time>
      </trkpt>
      <trkpt lat="43.82671" lon="3.60654">
        <ele>284</ele>
        <time>2017-04-27T07:16:40Z</time>
      </trkpt>
      <trkpt lat="43.8267" lon="3.60641">
        <ele>286</ele>
        <time>2017-04-27T07:16:52Z</time>
      </trkpt>
      <trkpt lat="43.82665" lon="3.60629">
        <ele>284</ele>
        <time>2017-04-27T07:17:12Z</time>
      </trkpt>
      <trkpt lat="43.82661" lon="3.60618">
        <ele>285</ele>
        <time>2017-04-27T07:17:32Z</time>
      </trkpt>
      <trkpt lat="43.8266" lon="3.60602">
        <ele>288</ele>
        <time>2017-04-27T07:17:42Z</time>
      </trkpt>
      <trkpt lat="43.8266" lon="3.60588">
        <ele>291</ele>
        <time>2017-04-27T07:17:52Z</time>
      </trkpt>
      <trkpt lat="43.82656" lon="3.60576">
        <ele>297</ele>
        <time>2017-04-27T07:18:04Z</time>
      </trkpt>
      <trkpt lat="43.82654" lon="3.60561">
        <ele>299</ele>
        <time>2017-04-27T07:18:32Z</time>
      </trkpt>
      <trkpt lat="43.82652" lon="3.60549">
        <ele>300</ele>
        <time>2017-04-27T07:18:46Z</time>
      </trkpt>
      <trkpt lat="43.82648" lon="3.60536">
        <ele>302</ele>
        <time>2017-04-27T07:19:14Z</time>
      </trkpt>
      <trkpt lat="43.82645" lon="3.60522">
        <ele>304</ele>
        <time>2017-04-27T07:19:40Z</time>
      </trkpt>
      <trkpt lat="43.82642" lon="3.6051">
        <ele>305</ele>
        <time>2017-04-27T07:19:56Z</time>
      </trkpt>
      <trkpt lat="43.82636" lon="3.60501">
        <ele>305</ele>
        <time>2017-04-27T07:20:10Z</time>
      </trkpt>
      <trkpt lat="43.82632" lon="3.60489">
        <ele>318</ele>
        <time>2017-04-27T07:20:32Z</time>
      </trkpt>
      <trkpt lat="43.82625" lon="3.60479">
        <ele>319</ele>
        <time>2017-04-27T07:21:00Z</time>
      </trkpt>
      <trkpt lat="43.82617" lon="3.6047">
        <ele>320</ele>
        <time>2017-04-27T07:21:10Z</time>
      </trkpt>
      <trkpt lat="43.8261" lon="3.6046">
        <ele>321</ele>
        <time>2017-04-27T07:21:18Z</time>
      </trkpt>
      <trkpt lat="43.82606" lon="3.60447">
        <ele>323</ele>
        <time>2017-04-27T07:21:42Z</time>
      </trkpt>
      <trkpt lat="43.82603" lon="3.60433">
        <ele>325</ele>
        <time>2017-04-27T07:22:10Z</time>
      </trkpt>
      <trkpt lat="43.826" lon="3.6042">
        <ele>327</ele>
        <time>2017-04-27T07:22:18Z</time>
      </trkpt>
      <trkpt lat="43.82596" lon="3.60408">
        <ele>335</ele>
        <time>2017-04-27T07:22:28Z</time>
      </trkpt>
      <trkpt lat="43.82595" lon="3.60395">
        <ele>337</ele>
        <time>2017-04-27T07:22:50Z</time>
      </trkpt>
      <trkpt lat="43.82596" lon="3.60382">
        <ele>338</ele>
        <time>2017-04-27T07:23:00Z</time>
      </trkpt>
      <trkpt lat="43.82598" lon="3.60368">
        <ele>340</ele>
        <time>2017-04-27T07:23:10Z</time>
      </trkpt>
      <trkpt lat="43.82603" lon="3.60355">
        <ele>340</ele>
        <time>2017-04-27T07:23:18Z</time>
      </trkpt>
      <trkpt lat="43.82604" lon="3.60341">
        <ele>341</ele>
        <time>2017-04-27T07:23:24Z</time>
      </trkpt>
      <trkpt lat="43.82605" lon="3.60327">
        <ele>348</ele>
        <time>2017-04-27T07:23:34Z</time>
      </trkpt>
      <trkpt lat="43.82607" lon="3.60315">
        <ele>350</ele>
        <time>2017-04-27T07:23:42Z</time>
      </trkpt>
      <trkpt lat="43.82613" lon="3.60304">
        <ele>351</ele>
        <time>2017-04-27T07:23:52Z</time>
      </trkpt>
      <trkpt lat="43.82617" lon="3.60291">
        <ele>353</ele>
        <time>2017-04-27T07:24:00Z</time>
      </trkpt>
      <trkpt lat="43.82617" lon="3.60278">
        <ele>353</ele>
        <time>2017-04-27T07:24:06Z</time>
      </trkpt>
      <trkpt lat="43.82616" lon="3.60262">
        <ele>353</ele>
        <time>2017-04-27T07:24:14Z</time>
      </trkpt>
      <trkpt lat="43.82616" lon="3.60248">
        <ele>359</ele>
        <time>2017-04-27T07:24:22Z</time>
      </trkpt>
      <trkpt lat="43.82617" lon="3.60235">
        <ele>360</ele>
        <time>2017-04-27T07:24:30Z</time>
      </trkpt>
      <trkpt lat="43.82615" lon="3.60222">
        <ele>361</ele>
        <time>2017-04-27T07:24:40Z</time>
      </trkpt>
      <trkpt lat="43.82616" lon="3.60208">
        <ele>362</ele>
        <time>2017-04-27T07:24:56Z</time>
      </trkpt>
      <trkpt lat="43.82617" lon="3.60195">
        <ele>363</ele>
        <time>2017-04-27T07:25:08Z</time>
      </trkpt>
      <trkpt lat="43.82619" lon="3.60181">
        <ele>364</ele>
        <time>2017-04-27T07:25:18Z</time>
      </trkpt>
      <trkpt lat="43.82621" lon="3.60169">
        <ele>365</ele>
        <time>2017-04-27T07:25:28Z</time>
      </trkpt>
      <trkpt lat="43.8262" lon="3.60155">
        <ele>369</ele>
        <time>2017-04-27T07:25:38Z</time>
      </trkpt>
      <trkpt lat="43.82621" lon="3.60142">
        <ele>370</ele>
        <time>2017-04-27T07:25:50Z</time>
      </trkpt>
      <trkpt lat="43.82622" lon="3.60129">
        <ele>370</ele>
        <time>2017-04-27T07:26:00Z</time>
      </trkpt>
      <trkpt lat="43.82627" lon="3.60116">
        <ele>372</ele>
        <time>2017-04-27T07:26:10Z</time>
      </trkpt>
      <trkpt lat="43.82636" lon="3.60119">
        <ele>374</ele>
        <time>2017-04-27T07:26:36Z</time>
      </trkpt>
      <trkpt lat="43.82645" lon="3.60127">
        <ele>375</ele>
        <time>2017-04-27T07:26:46Z</time>
      </trkpt>
      <trkpt lat="43.8265" lon="3.60138">
        <ele>376</ele>
        <time>2017-04-27T07:26:54Z</time>
      </trkpt>
      <trkpt lat="43.82655" lon="3.60151">
        <ele>378</ele>
        <time>2017-04-27T07:27:02Z</time>
      </trkpt>
      <trkpt lat="43.82659" lon="3.60165">
        <ele>382</ele>
        <time>2017-04-27T07:27:14Z</time>
      </trkpt>
      <trkpt lat="43.82666" lon="3.60156">
        <ele>382</ele>
        <time>2017-04-27T07:27:42Z</time>
      </trkpt>
      <trkpt lat="43.82669" lon="3.60142">
        <ele>399</ele>
        <time>2017-04-27T07:27:56Z</time>
      </trkpt>
      <trkpt lat="43.8267" lon="3.60128">
        <ele>401</ele>
        <time>2017-04-27T07:28:10Z</time>
      </trkpt>
      <trkpt lat="43.8268" lon="3.60125">
        <ele>402</ele>
        <time>2017-04-27T07:28:48Z</time>
      </trkpt>
      <trkpt lat="43.82688" lon="3.60131">
        <ele>403</ele>
        <time>2017-04-27T07:29:08Z</time>
      </trkpt>
      <trkpt lat="43.82694" lon="3.60144">
        <ele>403</ele>
        <time>2017-04-27T07:29:20Z</time>
      </trkpt>
      <trkpt lat="43.82704" lon="3.60151">
        <ele>405</ele>
        <time>2017-04-27T07:29:32Z</time>
      </trkpt>
      <trkpt lat="43.82712" lon="3.60159">
        <ele>407</ele>
        <time>2017-04-27T07:29:46Z</time>
      </trkpt>
      <trkpt lat="43.82717" lon="3.6017">
        <ele>400</ele>
        <time>2017-04-27T07:30:02Z</time>
      </trkpt>
      <trkpt lat="43.82725" lon="3.60178">
        <ele>402</ele>
        <time>2017-04-27T07:30:22Z</time>
      </trkpt>
      <trkpt lat="43.82734" lon="3.60184">
        <ele>403</ele>
        <time>2017-04-27T07:30:36Z</time>
      </trkpt>
      <trkpt lat="43.82743" lon="3.60186">
        <ele>405</ele>
        <time>2017-04-27T07:30:54Z</time>
      </trkpt>
      <trkpt lat="43.82752" lon="3.60193">
        <ele>420</ele>
        <time>2017-04-27T07:31:10Z</time>
      </trkpt>
      <trkpt lat="43.8276" lon="3.60199">
        <ele>420</ele>
        <time>2017-04-27T07:31:22Z</time>
      </trkpt>
      <trkpt lat="43.82768" lon="3.60207">
        <ele>420</ele>
        <time>2017-04-27T07:31:38Z</time>
      </trkpt>
      <trkpt lat="43.82777" lon="3.60209">
        <ele>421</ele>
        <time>2017-04-27T07:31:48Z</time>
      </trkpt>
      <trkpt lat="43.82788" lon="3.60216">
        <ele>421</ele>
        <time>2017-04-27T07:31:58Z</time>
      </trkpt>
      <trkpt lat="43.82796" lon="3.6022">
        <ele>422</ele>
        <time>2017-04-27T07:32:08Z</time>
      </trkpt>
      <trkpt lat="43.82793" lon="3.60206">
        <ele>424</ele>
        <time>2017-04-27T07:32:30Z</time>
      </trkpt>
      <trkpt lat="43.82785" lon="3.60199">
        <ele>424</ele>
        <time>2017-04-27T07:32:44Z</time>
      </trkpt>
      <trkpt lat="43.82781" lon="3.60187">
        <ele>424</ele>
        <time>2017-04-27T07:33:00Z</time>
      </trkpt>
      <trkpt lat="43.82778" lon="3.60174">
        <ele>424</ele>
        <time>2017-04-27T07:33:18Z</time>
      </trkpt>
      <trkpt lat="43.82772" lon="3.60164">
        <ele>435</ele>
        <time>2017-04-27T07:33:32Z</time>
      </trkpt>
      <trkpt lat="43.82767" lon="3.60153">
        <ele>434</ele>
        <time>2017-04-27T07:33:42Z</time>
      </trkpt>
      <trkpt lat="43.82767" lon="3.6014">
        <ele>438</ele>
        <time>2017-04-27T07:33:52Z</time>
      </trkpt>
      <trkpt lat="43.82769" lon="3.60126">
        <ele>441</ele>
        <time>2017-04-27T07:34:06Z</time>
      </trkpt>
      <trkpt lat="43.82769" lon="3.60113">
        <ele>442</ele>
        <time>2017-04-27T07:34:20Z</time>
      </trkpt>
      <trkpt lat="43.82771" lon="3.601">
        <ele>442</ele>
        <time>2017-04-27T07:34:34Z</time>
      </trkpt>
      <trkpt lat="43.82777" lon="3.6011">
        <ele>444</ele>
        <time>2017-04-27T07:34:56Z</time>
      </trkpt>
      <trkpt lat="43.82783" lon="3.6012">
        <ele>444</ele>
        <time>2017-04-27T07:35:08Z</time>
      </trkpt>
      <trkpt lat="43.82792" lon="3.60127">
        <ele>446</ele>
        <time>2017-04-27T07:35:30Z</time>
      </trkpt>
      <trkpt lat="43.828" lon="3.60135">
        <ele>447</ele>
        <time>2017-04-27T07:35:44Z</time>
      </trkpt>
      <trkpt lat="43.82807" lon="3.60146">
        <ele>447</ele>
        <time>2017-04-27T07:35:58Z</time>
      </trkpt>
      <trkpt lat="43.82808" lon="3.60133">
        <ele>448</ele>
        <time>2017-04-27T07:36:38Z</time>
      </trkpt>
      <trkpt lat="43.82814" lon="3.60123">
        <ele>451</ele>
        <time>2017-04-27T07:37:30Z</time>
      </trkpt>
      <trkpt lat="43.82815" lon="3.6011">
        <ele>454</ele>
        <time>2017-04-27T07:37:56Z</time>
      </trkpt>
      <trkpt lat="43.82818" lon="3.60096">
        <ele>459</ele>
        <time>2017-04-27T07:38:16Z</time>
      </trkpt>
      <trkpt lat="43.8282" lon="3.60083">
        <ele>468</ele>
        <time>2017-04-27T07:38:28Z</time>
      </trkpt>
      <trkpt lat="43.82821" lon="3.60069">
        <ele>466</ele>
        <time>2017-04-27T07:38:40Z</time>
      </trkpt>
      <trkpt lat="43.82831" lon="3.60071">
        <ele>469</ele>
        <time>2017-04-27T07:39:46Z</time>
      </trkpt>
      <trkpt lat="43.82838" lon="3.6008">
        <ele>482</ele>
        <time>2017-04-27T07:39:58Z</time>
      </trkpt>
      <trkpt lat="43.82845" lon="3.60072">
        <ele>491</ele>
        <time>2017-04-27T07:40:20Z</time>
      </trkpt>
      <trkpt lat="43.8285" lon="3.60061">
        <ele>497</ele>
        <time>2017-04-27T07:40:34Z</time>
      </trkpt>
      <trkpt lat="43.82855" lon="3.60047">
        <ele>501</ele>
        <time>2017-04-27T07:41:32Z</time>
      </trkpt>
      <trkpt lat="43.82863" lon="3.6005">
        <ele>503</ele>
        <time>2017-04-27T07:42:02Z</time>
      </trkpt>
      <trkpt lat="43.82867" lon="3.60064">
        <ele>503</ele>
        <time>2017-04-27T07:42:12Z</time>
      </trkpt>
      <trkpt lat="43.82874" lon="3.60076">
        <ele>505</ele>
        <time>2017-04-27T07:42:20Z</time>
      </trkpt>
      <trkpt lat="43.82881" lon="3.60085">
        <ele>493</ele>
        <time>2017-04-27T07:42:32Z</time>
      </trkpt>
      <trkpt lat="43.82889" lon="3.60093">
        <ele>496</ele>
        <time>2017-04-27T07:42:48Z</time>
      </trkpt>
      <trkpt lat="43.82894" lon="3.60079">
        <ele>514</ele>
        <time>2017-04-27T07:44:14Z</time>
      </trkpt>
      <trkpt lat="43.82894" lon="3.60066">
        <ele>513</ele>
        <time>2017-04-27T07:44:26Z</time>
      </trkpt>
      <trkpt lat="43.82896" lon="3.60052">
        <ele>514</ele>
        <time>2017-04-27T07:44:40Z</time>
      </trkpt>
      <trkpt lat="43.82896" lon="3.60039">
        <ele>515</ele>
        <time>2017-04-27T07:44:50Z</time>
      </trkpt>
      <trkpt lat="43.82894" lon="3.60027">
        <ele>517</ele>
        <time>2017-04-27T07:45:02Z</time>
      </trkpt>
      <trkpt lat="43.82902" lon="3.60033">
        <ele>518</ele>
        <time>2017-04-27T07:45:36Z</time>
      </trkpt>
      <trkpt lat="43.82908" lon="3.60043">
        <ele>517</ele>
        <time>2017-04-27T07:45:52Z</time>
      </trkpt>
      <trkpt lat="43.82915" lon="3.60054">
        <ele>517</ele>
        <time>2017-04-27T07:46:06Z</time>
      </trkpt>
      <trkpt lat="43.8292" lon="3.60065">
        <ele>542</ele>
        <time>2017-04-27T07:46:20Z</time>
      </trkpt>
      <trkpt lat="43.82927" lon="3.60076">
        <ele>538</ele>
        <time>2017-04-27T07:46:34Z</time>
      </trkpt>
      <trkpt lat="43.82936" lon="3.60081">
        <ele>543</ele>
        <time>2017-04-27T07:47:52Z</time>
      </trkpt>
      <trkpt lat="43.82939" lon="3.60069">
        <ele>547</ele>
        <time>2017-04-27T07:48:20Z</time>
      </trkpt>
      <trkpt lat="43.82937" lon="3.60053">
        <ele>550</ele>
        <time>2017-04-27T07:48:46Z</time>
      </trkpt>
      <trkpt lat="43.82939" lon="3.60038">
        <ele>553</ele>
        <time>2017-04-27T07:49:00Z</time>
      </trkpt>
      <trkpt lat="43.82939" lon="3.60025">
        <ele>555</ele>
        <time>2017-04-27T07:49:12Z</time>
      </trkpt>
      <trkpt lat="43.82938" lon="3.60009">
        <ele>555</ele>
        <time>2017-04-27T07:49:28Z</time>
      </trkpt>
      <trkpt lat="43.82937" lon="3.59997">
        <ele>562</ele>
        <time>2017-04-27T07:49:34Z</time>
      </trkpt>
      <trkpt lat="43.82932" lon="3.59985">
        <ele>561</ele>
        <time>2017-04-27T07:49:42Z</time>
      </trkpt>
      <trkpt lat="43.82928" lon="3.59972">
        <ele>564</ele>
        <time>2017-04-27T07:49:54Z</time>
      </trkpt>
      <trkpt lat="43.82922" lon="3.59962">
        <ele>564</ele>
        <time>2017-04-27T07:50:28Z</time>
      </trkpt>
      <trkpt lat="43.82922" lon="3.59949">
        <ele>564</ele>
        <time>2017-04-27T07:50:48Z</time>
      </trkpt>
      <trkpt lat="43.82916" lon="3.59939">
        <ele>534</ele>
        <time>2017-04-27T07:51:12Z</time>
      </trkpt>
      <trkpt lat="43.82916" lon="3.59925">
        <ele>542</ele>
        <time>2017-04-27T07:51:20Z</time>
      </trkpt>
      <trkpt lat="43.82916" lon="3.59911">
        <ele>546</ele>
        <time>2017-04-27T07:51:28Z</time>
      </trkpt>
      <trkpt lat="43.82914" lon="3.59897">
        <ele>539</ele>
        <time>2017-04-27T07:51:36Z</time>
      </trkpt>
      <trkpt lat="43.82915" lon="3.59884">
        <ele>536</ele>
        <time>2017-04-27T07:51:44Z</time>
      </trkpt>
      <trkpt lat="43.82915" lon="3.59869">
        <ele>537</ele>
        <time>2017-04-27T07:51:54Z</time>
      </trkpt>
      <trkpt lat="43.82918" lon="3.59857">
        <ele>571</ele>
        <time>2017-04-27T07:52:08Z</time>
      </trkpt>
      <trkpt lat="43.82919" lon="3.59844">
        <ele>568</ele>
        <time>2017-04-27T07:52:18Z</time>
      </trkpt>
      <trkpt lat="43.82919" lon="3.59828">
        <ele>568</ele>
        <time>2017-04-27T07:52:27Z</time>
      </trkpt>
      <trkpt lat="43.8292" lon="3.5981">
        <ele>580</ele>
        <time>2017-04-27T07:52:38Z</time>
      </trkpt>
      <trkpt lat="43.82917" lon="3.59794">
        <ele>585</ele>
        <time>2017-04-27T07:53:02Z</time>
      </trkpt>
      <trkpt lat="43.82909" lon="3.59783">
        <ele>557</ele>
        <time>2017-04-27T07:53:08Z</time>
      </trkpt>
      <trkpt lat="43.82904" lon="3.59772">
        <ele>560</ele>
        <time>2017-04-27T07:53:14Z</time>
      </trkpt>
      <trkpt lat="43.829" lon="3.59759">
        <ele>563</ele>
        <time>2017-04-27T07:53:26Z</time>
      </trkpt>
      <trkpt lat="43.82893" lon="3.59751">
        <ele>560</ele>
        <time>2017-04-27T07:53:34Z</time>
      </trkpt>
      <trkpt lat="43.82884" lon="3.59747">
        <ele>572</ele>
        <time>2017-04-27T07:53:44Z</time>
      </trkpt>
      <trkpt lat="43.82877" lon="3.59737">
        <ele>570</ele>
        <time>2017-04-27T07:53:54Z</time>
      </trkpt>
      <trkpt lat="43.8287" lon="3.59727">
        <ele>569</ele>
        <time>2017-04-27T07:54:06Z</time>
      </trkpt>
      <trkpt lat="43.82868" lon="3.59714">
        <ele>570</ele>
        <time>2017-04-27T07:54:18Z</time>
      </trkpt>
      <trkpt lat="43.82859" lon="3.59704">
        <ele>570</ele>
        <time>2017-04-27T07:54:30Z</time>
      </trkpt>
      <trkpt lat="43.8285" lon="3.597">
        <ele>569</ele>
        <time>2017-04-27T07:54:44Z</time>
      </trkpt>
      <trkpt lat="43.82842" lon="3.59691">
        <ele>569</ele>
        <time>2017-04-27T07:54:58Z</time>
      </trkpt>
      <trkpt lat="43.82832" lon="3.59685">
        <ele>542</ele>
        <time>2017-04-27T07:55:12Z</time>
      </trkpt>
      <trkpt lat="43.82826" lon="3.59676">
        <ele>548</ele>
        <time>2017-04-27T07:55:24Z</time>
      </trkpt>
      <trkpt lat="43.82826" lon="3.59663">
        <ele>558</ele>
        <time>2017-04-27T07:55:38Z</time>
      </trkpt>
      <trkpt lat="43.82835" lon="3.59661">
        <ele>572</ele>
        <time>2017-04-27T07:56:00Z</time>
      </trkpt>
      <trkpt lat="43.8284" lon="3.59649">
        <ele>578</ele>
        <time>2017-04-27T07:56:32Z</time>
      </trkpt>
      <trkpt lat="43.82848" lon="3.59642">
        <ele>581</ele>
        <time>2017-04-27T07:57:20Z</time>
      </trkpt>
      <trkpt lat="43.82858" lon="3.59638">
        <ele>584</ele>
        <time>2017-04-27T08:15:32Z</time>
      </trkpt>
      <trkpt lat="43.82866" lon="3.59644">
        <ele>585</ele>
        <time>2017-04-27T08:15:42Z</time>
      </trkpt>
      <trkpt lat="43.82876" lon="3.59651">
        <ele>588</ele>
        <time>2017-04-27T08:15:54Z</time>
      </trkpt>
      <trkpt lat="43.82873" lon="3.59639">
        <ele>588</ele>
        <time>2017-04-27T08:16:20Z</time>
      </trkpt>
      <trkpt lat="43.82876" lon="3.59626">
        <ele>589</ele>
        <time>2017-04-27T08:16:34Z</time>
      </trkpt>
      <trkpt lat="43.82881" lon="3.59615">
        <ele>590</ele>
        <time>2017-04-27T08:16:44Z</time>
      </trkpt>
      <trkpt lat="43.82888" lon="3.59608">
        <ele>593</ele>
        <time>2017-04-27T08:17:12Z</time>
      </trkpt>
      <trkpt lat="43.82897" lon="3.596">
        <ele>597</ele>
        <time>2017-04-27T08:17:24Z</time>
      </trkpt>
      <trkpt lat="43.82903" lon="3.5959">
        <ele>601</ele>
        <time>2017-04-27T08:17:36Z</time>
      </trkpt>
      <trkpt lat="43.82909" lon="3.59581">
        <ele>608</ele>
        <time>2017-04-27T08:17:52Z</time>
      </trkpt>
      <trkpt lat="43.82914" lon="3.59568">
        <ele>605</ele>
        <time>2017-04-27T08:18:06Z</time>
      </trkpt>
      <trkpt lat="43.82919" lon="3.59556">
        <ele>630</ele>
        <time>2017-04-27T08:18:20Z</time>
      </trkpt>
      <trkpt lat="43.82925" lon="3.59545">
        <ele>633</ele>
        <time>2017-04-27T08:18:40Z</time>
      </trkpt>
      <trkpt lat="43.82924" lon="3.59533">
        <ele>633</ele>
        <time>2017-04-27T08:18:58Z</time>
      </trkpt>
      <trkpt lat="43.82931" lon="3.59523">
        <ele>634</ele>
        <time>2017-04-27T08:19:40Z</time>
      </trkpt>
      <trkpt lat="43.82939" lon="3.59519">
        <ele>636</ele>
        <time>2017-04-27T08:19:56Z</time>
      </trkpt>
      <trkpt lat="43.82944" lon="3.59507">
        <ele>637</ele>
        <time>2017-04-27T08:20:08Z</time>
      </trkpt>
      <trkpt lat="43.82947" lon="3.5952">
        <ele>638</ele>
        <time>2017-04-27T08:20:42Z</time>
      </trkpt>
      <trkpt lat="43.82947" lon="3.59533">
        <ele>638</ele>
        <time>2017-04-27T08:20:58Z</time>
      </trkpt>
      <trkpt lat="43.82952" lon="3.59545">
        <ele>639</ele>
        <time>2017-04-27T08:21:14Z</time>
      </trkpt>
      <trkpt lat="43.82953" lon="3.59559">
        <ele>639</ele>
        <time>2017-04-27T08:21:28Z</time>
      </trkpt>
      <trkpt lat="43.82956" lon="3.59571">
        <ele>639</ele>
        <time>2017-04-27T08:21:40Z</time>
      </trkpt>
      <trkpt lat="43.82958" lon="3.59584">
        <ele>633</ele>
        <time>2017-04-27T08:21:54Z</time>
      </trkpt>
      <trkpt lat="43.82962" lon="3.59573">
        <ele>641</ele>
        <time>2017-04-27T08:22:56Z</time>
      </trkpt>
      <trkpt lat="43.82967" lon="3.59561">
        <ele>643</ele>
        <time>2017-04-27T08:23:14Z</time>
      </trkpt>
      <trkpt lat="43.82973" lon="3.5955">
        <ele>645</ele>
        <time>2017-04-27T08:23:34Z</time>
      </trkpt>
      <trkpt lat="43.82973" lon="3.59537">
        <ele>646</ele>
        <time>2017-04-27T08:23:50Z</time>
      </trkpt>
      <trkpt lat="43.82977" lon="3.59525">
        <ele>648</ele>
        <time>2017-04-27T08:24:02Z</time>
      </trkpt>
      <trkpt lat="43.82979" lon="3.5951">
        <ele>651</ele>
        <time>2017-04-27T08:24:28Z</time>
      </trkpt>
      <trkpt lat="43.8298" lon="3.59497">
        <ele>659</ele>
        <time>2017-04-27T08:24:38Z</time>
      </trkpt>
      <trkpt lat="43.82984" lon="3.59485">
        <ele>659</ele>
        <time>2017-04-27T08:24:50Z</time>
      </trkpt>
      <trkpt lat="43.82988" lon="3.59474">
        <ele>659</ele>
        <time>2017-04-27T08:25:22Z</time>
      </trkpt>
      <trkpt lat="43.82985" lon="3.59461">
        <ele>659</ele>
        <time>2017-04-27T08:25:32Z</time>
      </trkpt>
      <trkpt lat="43.82983" lon="3.59449">
        <ele>660</ele>
        <time>2017-04-27T08:25:42Z</time>
      </trkpt>
      <trkpt lat="43.82986" lon="3.59436">
        <ele>663</ele>
        <time>2017-04-27T08:25:58Z</time>
      </trkpt>
      <trkpt lat="43.82988" lon="3.59423">
        <ele>667</ele>
        <time>2017-04-27T08:26:10Z</time>
      </trkpt>
      <trkpt lat="43.82987" lon="3.5941">
        <ele>671</ele>
        <time>2017-04-27T08:26:24Z</time>
      </trkpt>
      <trkpt lat="43.82984" lon="3.59397">
        <ele>670</ele>
        <time>2017-04-27T08:26:42Z</time>
      </trkpt>
      <trkpt lat="43.82983" lon="3.59383">
        <ele>670</ele>
        <time>2017-04-27T08:26:54Z</time>
      </trkpt>
      <trkpt lat="43.82986" lon="3.59369">
        <ele>671</ele>
        <time>2017-04-27T08:27:04Z</time>
      </trkpt>
      <trkpt lat="43.82987" lon="3.59355">
        <ele>672</ele>
        <time>2017-04-27T08:27:14Z</time>
      </trkpt>
      <trkpt lat="43.82992" lon="3.59341">
        <ele>673</ele>
        <time>2017-04-27T08:27:24Z</time>
      </trkpt>
      <trkpt lat="43.82993" lon="3.59328">
        <ele>676</ele>
        <time>2017-04-27T08:27:36Z</time>
      </trkpt>
      <trkpt lat="43.82996" lon="3.59316">
        <ele>676</ele>
        <time>2017-04-27T08:27:46Z</time>
      </trkpt>
      <trkpt lat="43.83004" lon="3.59308">
        <ele>678</ele>
        <time>2017-04-27T08:27:56Z</time>
      </trkpt>
      <trkpt lat="43.83003" lon="3.59295">
        <ele>679</ele>
        <time>2017-04-27T08:28:06Z</time>
      </trkpt>
      <trkpt lat="43.83" lon="3.59282">
        <ele>677</ele>
        <time>2017-04-27T08:28:14Z</time>
      </trkpt>
      <trkpt lat="43.83" lon="3.59269">
        <ele>677</ele>
        <time>2017-04-27T08:28:22Z</time>
      </trkpt>
      <trkpt lat="43.83002" lon="3.59256">
        <ele>678</ele>
        <time>2017-04-27T08:28:32Z</time>
      </trkpt>
      <trkpt lat="43.83012" lon="3.59253">
        <ele>679</ele>
        <time>2017-04-27T08:28:42Z</time>
      </trkpt>
      <trkpt lat="43.83017" lon="3.59239">
        <ele>679</ele>
        <time>2017-04-27T08:28:52Z</time>
      </trkpt>
      <trkpt lat="43.83024" lon="3.59229">
        <ele>679</ele>
        <time>2017-04-27T08:29:00Z</time>
      </trkpt>
      <trkpt lat="43.83026" lon="3.59216">
        <ele>680</ele>
        <time>2017-04-27T08:29:10Z</time>
      </trkpt>
      <trkpt lat="43.83027" lon="3.59203">
        <ele>680</ele>
        <time>2017-04-27T08:29:20Z</time>
      </trkpt>
      <trkpt lat="43.8303" lon="3.59191">
        <ele>680</ele>
        <time>2017-04-27T08:29:32Z</time>
      </trkpt>
      <trkpt lat="43.83033" lon="3.59177">
        <ele>680</ele>
        <time>2017-04-27T08:29:44Z</time>
      </trkpt>
      <trkpt lat="43.83032" lon="3.59164">
        <ele>681</ele>
        <time>2017-04-27T08:29:54Z</time>
      </trkpt>
      <trkpt lat="43.83041" lon="3.59157">
        <ele>681</ele>
        <time>2017-04-27T08:30:06Z</time>
      </trkpt>
      <trkpt lat="43.83049" lon="3.59152">
        <ele>681</ele>
        <time>2017-04-27T08:30:14Z</time>
      </trkpt>
      <trkpt lat="43.83058" lon="3.5915">
        <ele>681</ele>
        <time>2017-04-27T08:30:22Z</time>
      </trkpt>
      <trkpt lat="43.83067" lon="3.5914">
        <ele>682</ele>
        <time>2017-04-27T08:30:30Z</time>
      </trkpt>
      <trkpt lat="43.83075" lon="3.5913">
        <ele>682</ele>
        <time>2017-04-27T08:30:40Z</time>
      </trkpt>
      <trkpt lat="43.83082" lon="3.59121">
        <ele>682</ele>
        <time>2017-04-27T08:30:50Z</time>
      </trkpt>
      <trkpt lat="43.83091" lon="3.59112">
        <ele>684</ele>
        <time>2017-04-27T08:30:58Z</time>
      </trkpt>
      <trkpt lat="43.83099" lon="3.591">
        <ele>684</ele>
        <time>2017-04-27T08:31:08Z</time>
      </trkpt>
      <trkpt lat="43.83109" lon="3.59093">
        <ele>684</ele>
        <time>2017-04-27T08:31:16Z</time>
      </trkpt>
      <trkpt lat="43.83116" lon="3.59083">
        <ele>686</ele>
        <time>2017-04-27T08:31:24Z</time>
      </trkpt>
      <trkpt lat="43.83123" lon="3.59073">
        <ele>686</ele>
        <time>2017-04-27T08:31:32Z</time>
      </trkpt>
      <trkpt lat="43.8313" lon="3.59061">
        <ele>687</ele>
        <time>2017-04-27T08:31:42Z</time>
      </trkpt>
      <trkpt lat="43.83135" lon="3.59049">
        <ele>687</ele>
        <time>2017-04-27T08:31:54Z</time>
      </trkpt>
      <trkpt lat="43.83141" lon="3.59038">
        <ele>687</ele>
        <time>2017-04-27T08:32:08Z</time>
      </trkpt>
      <trkpt lat="43.83132" lon="3.5904">
        <ele>687</ele>
        <time>2017-04-27T08:40:30Z</time>
      </trkpt>
      <trkpt lat="43.83137" lon="3.59029">
        <ele>688</ele>
        <time>2017-04-27T08:40:44Z</time>
      </trkpt>
      <trkpt lat="43.83139" lon="3.59043">
        <ele>687</ele>
        <time>2017-04-27T08:41:54Z</time>
      </trkpt>
      <trkpt lat="43.83132" lon="3.59052">
        <ele>687</ele>
        <time>2017-04-27T08:42:02Z</time>
      </trkpt>
      <trkpt lat="43.83126" lon="3.59062">
        <ele>687</ele>
        <time>2017-04-27T08:42:08Z</time>
      </trkpt>
      <trkpt lat="43.83119" lon="3.59073">
        <ele>686</ele>
        <time>2017-04-27T08:42:14Z</time>
      </trkpt>
      <trkpt lat="43.83113" lon="3.59086">
        <ele>684</ele>
        <time>2017-04-27T08:42:22Z</time>
      </trkpt>
      <trkpt lat="43.83104" lon="3.59097">
        <ele>684</ele>
        <time>2017-04-27T08:42:30Z</time>
      </trkpt>
      <trkpt lat="43.83096" lon="3.59108">
        <ele>684</ele>
        <time>2017-04-27T08:42:38Z</time>
      </trkpt>
      <trkpt lat="43.83087" lon="3.59117">
        <ele>684</ele>
        <time>2017-04-27T08:42:46Z</time>
      </trkpt>
      <trkpt lat="43.83078" lon="3.59128">
        <ele>682</ele>
        <time>2017-04-27T08:42:54Z</time>
      </trkpt>
      <trkpt lat="43.83069" lon="3.59137">
        <ele>682</ele>
        <time>2017-04-27T08:43:02Z</time>
      </trkpt>
      <trkpt lat="43.83059" lon="3.59146">
        <ele>681</ele>
        <time>2017-04-27T08:43:10Z</time>
      </trkpt>
      <trkpt lat="43.83049" lon="3.59151">
        <ele>681</ele>
        <time>2017-04-27T08:43:18Z</time>
      </trkpt>
      <trkpt lat="43.8304" lon="3.59154">
        <ele>681</ele>
        <time>2017-04-27T08:43:24Z</time>
      </trkpt>
      <trkpt lat="43.83031" lon="3.59163">
        <ele>681</ele>
        <time>2017-04-27T08:43:32Z</time>
      </trkpt>
      <trkpt lat="43.83031" lon="3.59177">
        <ele>680</ele>
        <time>2017-04-27T08:43:42Z</time>
      </trkpt>
      <trkpt lat="43.83032" lon="3.59162">
        <ele>681</ele>
        <time>2017-04-27T08:44:12Z</time>
      </trkpt>
      <trkpt lat="43.83039" lon="3.59153">
        <ele>681</ele>
        <time>2017-04-27T08:44:24Z</time>
      </trkpt>
      <trkpt lat="43.83048" lon="3.59144">
        <ele>681</ele>
        <time>2017-04-27T08:44:48Z</time>
      </trkpt>
      <trkpt lat="43.83057" lon="3.59137">
        <ele>682</ele>
        <time>2017-04-27T08:44:54Z</time>
      </trkpt>
      <trkpt lat="43.83067" lon="3.5913">
        <ele>682</ele>
        <time>2017-04-27T08:45:02Z</time>
      </trkpt>
      <trkpt lat="43.83074" lon="3.59121">
        <ele>682</ele>
        <time>2017-04-27T08:45:10Z</time>
      </trkpt>
      <trkpt lat="43.83084" lon="3.59114">
        <ele>684</ele>
        <time>2017-04-27T08:45:20Z</time>
      </trkpt>
      <trkpt lat="43.83092" lon="3.59105">
        <ele>684</ele>
        <time>2017-04-27T08:45:28Z</time>
      </trkpt>
      <trkpt lat="43.83101" lon="3.59096">
        <ele>684</ele>
        <time>2017-04-27T08:45:36Z</time>
      </trkpt>
      <trkpt lat="43.83107" lon="3.59086">
        <ele>684</ele>
        <time>2017-04-27T08:45:46Z</time>
      </trkpt>
      <trkpt lat="43.83116" lon="3.59077">
        <ele>686</ele>
        <time>2017-04-27T08:45:54Z</time>
      </trkpt>
      <trkpt lat="43.83124" lon="3.59067">
        <ele>686</ele>
        <time>2017-04-27T08:46:04Z</time>
      </trkpt>
      <trkpt lat="43.83135" lon="3.59058">
        <ele>687</ele>
        <time>2017-04-27T08:46:12Z</time>
      </trkpt>
      <trkpt lat="43.83144" lon="3.59047">
        <ele>687</ele>
        <time>2017-04-27T08:46:20Z</time>
      </trkpt>
      <trkpt lat="43.83139" lon="3.59035">
        <ele>687</ele>
        <time>2017-04-27T08:46:32Z</time>
      </trkpt>
      <trkpt lat="43.83131" lon="3.59028">
        <ele>687</ele>
        <time>2017-04-27T08:47:06Z</time>
      </trkpt>
      <trkpt lat="43.83124" lon="3.59018">
        <ele>688</ele>
        <time>2017-04-27T08:47:18Z</time>
      </trkpt>
      <trkpt lat="43.8312" lon="3.59005">
        <ele>688</ele>
        <time>2017-04-27T08:47:34Z</time>
      </trkpt>
      <trkpt lat="43.83119" lon="3.58991">
        <ele>690</ele>
        <time>2017-04-27T08:47:42Z</time>
      </trkpt>
      <trkpt lat="43.83118" lon="3.58977">
        <ele>690</ele>
        <time>2017-04-27T08:47:52Z</time>
      </trkpt>
      <trkpt lat="43.8311" lon="3.58966">
        <ele>691</ele>
        <time>2017-04-27T08:48:02Z</time>
      </trkpt>
      <trkpt lat="43.83104" lon="3.58955">
        <ele>691</ele>
        <time>2017-04-27T08:48:16Z</time>
      </trkpt>
      <trkpt lat="43.83094" lon="3.58951">
        <ele>692</ele>
        <time>2017-04-27T08:48:28Z</time>
      </trkpt>
      <trkpt lat="43.83085" lon="3.58947">
        <ele>692</ele>
        <time>2017-04-27T08:48:40Z</time>
      </trkpt>
      <trkpt lat="43.83077" lon="3.58941">
        <ele>694</ele>
        <time>2017-04-27T08:48:52Z</time>
      </trkpt>
      <trkpt lat="43.83069" lon="3.58932">
        <ele>695</ele>
        <time>2017-04-27T08:49:04Z</time>
      </trkpt>
      <trkpt lat="43.8306" lon="3.58925">
        <ele>695</ele>
        <time>2017-04-27T08:49:14Z</time>
      </trkpt>
      <trkpt lat="43.83059" lon="3.58912">
        <ele>701</ele>
        <time>2017-04-27T08:49:22Z</time>
      </trkpt>
      <trkpt lat="43.83059" lon="3.58897">
        <ele>701</ele>
        <time>2017-04-27T08:49:32Z</time>
      </trkpt>
      <trkpt lat="43.83061" lon="3.58884">
        <ele>702</ele>
        <time>2017-04-27T08:49:44Z</time>
      </trkpt>
      <trkpt lat="43.83063" lon="3.5887">
        <ele>703</ele>
        <time>2017-04-27T08:50:04Z</time>
      </trkpt>
      <trkpt lat="43.83063" lon="3.58856">
        <ele>703</ele>
        <time>2017-04-27T08:50:18Z</time>
      </trkpt>
      <trkpt lat="43.83064" lon="3.58843">
        <ele>703</ele>
        <time>2017-04-27T08:50:26Z</time>
      </trkpt>
      <trkpt lat="43.83059" lon="3.5883">
        <ele>708</ele>
        <time>2017-04-27T08:50:40Z</time>
      </trkpt>
      <trkpt lat="43.83057" lon="3.58818">
        <ele>708</ele>
        <time>2017-04-27T08:50:54Z</time>
      </trkpt>
      <trkpt lat="43.83052" lon="3.58807">
        <ele>710</ele>
        <time>2017-04-27T08:51:02Z</time>
      </trkpt>
      <trkpt lat="43.83043" lon="3.58805">
        <ele>711</ele>
        <time>2017-04-27T08:51:10Z</time>
      </trkpt>
      <trkpt lat="43.83035" lon="3.58796">
        <ele>712</ele>
        <time>2017-04-27T08:51:24Z</time>
      </trkpt>
      <trkpt lat="43.83028" lon="3.58787">
        <ele>713</ele>
        <time>2017-04-27T08:51:36Z</time>
      </trkpt>
      <trkpt lat="43.83025" lon="3.58775">
        <ele>715</ele>
        <time>2017-04-27T08:51:52Z</time>
      </trkpt>
      <trkpt lat="43.83022" lon="3.58761">
        <ele>716</ele>
        <time>2017-04-27T08:52:02Z</time>
      </trkpt>
      <trkpt lat="43.83014" lon="3.58754">
        <ele>719</ele>
        <time>2017-04-27T08:52:20Z</time>
      </trkpt>
      <trkpt lat="43.83005" lon="3.58751">
        <ele>723</ele>
        <time>2017-04-27T08:52:40Z</time>
      </trkpt>
      <trkpt lat="43.83" lon="3.5874">
        <ele>723</ele>
        <time>2017-04-27T08:52:56Z</time>
      </trkpt>
      <trkpt lat="43.82995" lon="3.5873">
        <ele>734</ele>
        <time>2017-04-27T08:53:12Z</time>
      </trkpt>
      <trkpt lat="43.82988" lon="3.58721">
        <ele>736</ele>
        <time>2017-04-27T08:53:26Z</time>
      </trkpt>
      <trkpt lat="43.82986" lon="3.58707">
        <ele>737</ele>
        <time>2017-04-27T08:54:24Z</time>
      </trkpt>
      <trkpt lat="43.82986" lon="3.58694">
        <ele>738</ele>
        <time>2017-04-27T08:54:34Z</time>
      </trkpt>
      <trkpt lat="43.82985" lon="3.58679">
        <ele>737</ele>
        <time>2017-04-27T08:54:46Z</time>
      </trkpt>
      <trkpt lat="43.8298" lon="3.58667">
        <ele>738</ele>
        <time>2017-04-27T08:54:58Z</time>
      </trkpt>
      <trkpt lat="43.82976" lon="3.58654">
        <ele>743</ele>
        <time>2017-04-27T08:55:10Z</time>
      </trkpt>
      <trkpt lat="43.82972" lon="3.58642">
        <ele>745</ele>
        <time>2017-04-27T08:55:24Z</time>
      </trkpt>
      <trkpt lat="43.82968" lon="3.58629">
        <ele>746</ele>
        <time>2017-04-27T08:55:42Z</time>
      </trkpt>
      <trkpt lat="43.82962" lon="3.58619">
        <ele>747</ele>
        <time>2017-04-27T08:56:00Z</time>
      </trkpt>
      <trkpt lat="43.82957" lon="3.58608">
        <ele>748</ele>
        <time>2017-04-27T08:56:12Z</time>
      </trkpt>
      <trkpt lat="43.82953" lon="3.58597">
        <ele>749</ele>
        <time>2017-04-27T08:56:24Z</time>
      </trkpt>
      <trkpt lat="43.82947" lon="3.58584">
        <ele>751</ele>
        <time>2017-04-27T08:56:36Z</time>
      </trkpt>
      <trkpt lat="43.82944" lon="3.58571">
        <ele>749</ele>
        <time>2017-04-27T08:56:46Z</time>
      </trkpt>
      <trkpt lat="43.82943" lon="3.58558">
        <ele>748</ele>
        <time>2017-04-27T08:57:34Z</time>
      </trkpt>
      <trkpt lat="43.82935" lon="3.58549">
        <ele>748</ele>
        <time>2017-04-27T08:57:56Z</time>
      </trkpt>
      <trkpt lat="43.82928" lon="3.58541">
        <ele>748</ele>
        <time>2017-04-27T08:58:04Z</time>
      </trkpt>
      <trkpt lat="43.8292" lon="3.58535">
        <ele>748</ele>
        <time>2017-04-27T08:58:18Z</time>
      </trkpt>
      <trkpt lat="43.82912" lon="3.58528">
        <ele>754</ele>
        <time>2017-04-27T08:58:28Z</time>
      </trkpt>
      <trkpt lat="43.82903" lon="3.58524">
        <ele>754</ele>
        <time>2017-04-27T08:58:38Z</time>
      </trkpt>
      <trkpt lat="43.82895" lon="3.58518">
        <ele>754</ele>
        <time>2017-04-27T08:58:46Z</time>
      </trkpt>
      <trkpt lat="43.82886" lon="3.58525">
        <ele>755</ele>
        <time>2017-04-27T08:58:58Z</time>
      </trkpt>
      <trkpt lat="43.82876" lon="3.58525">
        <ele>755</ele>
        <time>2017-04-27T08:59:08Z</time>
      </trkpt>
      <trkpt lat="43.82866" lon="3.58523">
        <ele>755</ele>
        <time>2017-04-27T08:59:16Z</time>
      </trkpt>
      <trkpt lat="43.82856" lon="3.58527">
        <ele>755</ele>
        <time>2017-04-27T08:59:26Z</time>
      </trkpt>
      <trkpt lat="43.82845" lon="3.58528">
        <ele>755</ele>
        <time>2017-04-27T08:59:36Z</time>
      </trkpt>
      <trkpt lat="43.82834" lon="3.58525">
        <ele>754</ele>
        <time>2017-04-27T08:59:46Z</time>
      </trkpt>
      <trkpt lat="43.82825" lon="3.58524">
        <ele>751</ele>
        <time>2017-04-27T08:59:56Z</time>
      </trkpt>
      <trkpt lat="43.82816" lon="3.58516">
        <ele>750</ele>
        <time>2017-04-27T09:00:08Z</time>
      </trkpt>
      <trkpt lat="43.82809" lon="3.58527">
        <ele>750</ele>
        <time>2017-04-27T09:00:18Z</time>
      </trkpt>
      <trkpt lat="43.82802" lon="3.58536">
        <ele>750</ele>
        <time>2017-04-27T09:00:30Z</time>
      </trkpt>
      <trkpt lat="43.82794" lon="3.58545">
        <ele>750</ele>
        <time>2017-04-27T09:00:38Z</time>
      </trkpt>
      <trkpt lat="43.82784" lon="3.58547">
        <ele>750</ele>
        <time>2017-04-27T09:00:46Z</time>
      </trkpt>
      <trkpt lat="43.82773" lon="3.58548">
        <ele>749</ele>
        <time>2017-04-27T09:00:56Z</time>
      </trkpt>
      <trkpt lat="43.82762" lon="3.58551">
        <ele>749</ele>
        <time>2017-04-27T09:01:04Z</time>
      </trkpt>
      <trkpt lat="43.82752" lon="3.58556">
        <ele>749</ele>
        <time>2017-04-27T09:01:18Z</time>
      </trkpt>
      <trkpt lat="43.82744" lon="3.58562">
        <ele>745</ele>
        <time>2017-04-27T09:01:28Z</time>
      </trkpt>
      <trkpt lat="43.82734" lon="3.58568">
        <ele>745</ele>
        <time>2017-04-27T09:01:38Z</time>
      </trkpt>
      <trkpt lat="43.82726" lon="3.58577">
        <ele>745</ele>
        <time>2017-04-27T09:01:50Z</time>
      </trkpt>
      <trkpt lat="43.82719" lon="3.58586">
        <ele>749</ele>
        <time>2017-04-27T09:02:00Z</time>
      </trkpt>
      <trkpt lat="43.82708" lon="3.58589">
        <ele>748</ele>
        <time>2017-04-27T09:02:10Z</time>
      </trkpt>
      <trkpt lat="43.827" lon="3.58583">
        <ele>744</ele>
        <time>2017-04-27T09:02:18Z</time>
      </trkpt>
      <trkpt lat="43.8269" lon="3.58576">
        <ele>744</ele>
        <time>2017-04-27T09:02:28Z</time>
      </trkpt>
      <trkpt lat="43.82682" lon="3.58568">
        <ele>743</ele>
        <time>2017-04-27T09:02:36Z</time>
      </trkpt>
      <trkpt lat="43.82673" lon="3.58565">
        <ele>743</ele>
        <time>2017-04-27T09:02:46Z</time>
      </trkpt>
      <trkpt lat="43.82663" lon="3.58562">
        <ele>744</ele>
        <time>2017-04-27T09:02:56Z</time>
      </trkpt>
      <trkpt lat="43.82654" lon="3.58564">
        <ele>744</ele>
        <time>2017-04-27T09:03:06Z</time>
      </trkpt>
      <trkpt lat="43.82644" lon="3.58569">
        <ele>744</ele>
        <time>2017-04-27T09:03:18Z</time>
      </trkpt>
      <trkpt lat="43.82642" lon="3.58556">
        <ele>744</ele>
        <time>2017-04-27T09:03:30Z</time>
      </trkpt>
      <trkpt lat="43.82638" lon="3.58545">
        <ele>745</ele>
        <time>2017-04-27T09:03:44Z</time>
      </trkpt>
      <trkpt lat="43.82635" lon="3.58532">
        <ele>745</ele>
        <time>2017-04-27T09:03:56Z</time>
      </trkpt>
      <trkpt lat="43.82633" lon="3.5852">
        <ele>745</ele>
        <time>2017-04-27T09:04:08Z</time>
      </trkpt>
      <trkpt lat="43.82627" lon="3.58509">
        <ele>745</ele>
        <time>2017-04-27T09:04:22Z</time>
      </trkpt>
      <trkpt lat="43.82625" lon="3.58494">
        <ele>746</ele>
        <time>2017-04-27T09:04:32Z</time>
      </trkpt>
      <trkpt lat="43.82623" lon="3.58481">
        <ele>747</ele>
        <time>2017-04-27T09:04:44Z</time>
      </trkpt>
      <trkpt lat="43.82617" lon="3.58469">
        <ele>747</ele>
        <time>2017-04-27T09:05:00Z</time>
      </trkpt>
      <trkpt lat="43.82614" lon="3.58458">
        <ele>748</ele>
        <time>2017-04-27T09:05:10Z</time>
      </trkpt>
      <trkpt lat="43.82611" lon="3.58444">
        <ele>748</ele>
        <time>2017-04-27T09:05:22Z</time>
      </trkpt>
      <trkpt lat="43.82609" lon="3.5843">
        <ele>750</ele>
        <time>2017-04-27T09:05:30Z</time>
      </trkpt>
      <trkpt lat="43.82607" lon="3.58418">
        <ele>751</ele>
        <time>2017-04-27T09:05:40Z</time>
      </trkpt>
      <trkpt lat="43.82608" lon="3.58403">
        <ele>750</ele>
        <time>2017-04-27T09:05:52Z</time>
      </trkpt>
      <trkpt lat="43.8261" lon="3.58389">
        <ele>749</ele>
        <time>2017-04-27T09:06:02Z</time>
      </trkpt>
      <trkpt lat="43.82608" lon="3.58376">
        <ele>749</ele>
        <time>2017-04-27T09:06:16Z</time>
      </trkpt>
      <trkpt lat="43.82599" lon="3.58376">
        <ele>750</ele>
        <time>2017-04-27T09:06:44Z</time>
      </trkpt>
      <trkpt lat="43.8259" lon="3.58381">
        <ele>751</ele>
        <time>2017-04-27T09:07:02Z</time>
      </trkpt>
      <trkpt lat="43.82582" lon="3.58373">
        <ele>762</ele>
        <time>2017-04-27T09:07:30Z</time>
      </trkpt>
      <trkpt lat="43.82574" lon="3.58365">
        <ele>762</ele>
        <time>2017-04-27T09:07:44Z</time>
      </trkpt>
      <trkpt lat="43.82567" lon="3.58355">
        <ele>762</ele>
        <time>2017-04-27T09:07:56Z</time>
      </trkpt>
      <trkpt lat="43.82557" lon="3.58352">
        <ele>763</ele>
        <time>2017-04-27T09:08:08Z</time>
      </trkpt>
      <trkpt lat="43.82548" lon="3.58347">
        <ele>763</ele>
        <time>2017-04-27T09:08:20Z</time>
      </trkpt>
      <trkpt lat="43.8254" lon="3.5834">
        <ele>764</ele>
        <time>2017-04-27T09:08:34Z</time>
      </trkpt>
      <trkpt lat="43.82532" lon="3.58333">
        <ele>761</ele>
        <time>2017-04-27T09:08:52Z</time>
      </trkpt>
      <trkpt lat="43.82528" lon="3.58322">
        <ele>761</ele>
        <time>2017-04-27T09:09:06Z</time>
      </trkpt>
      <trkpt lat="43.82519" lon="3.58319">
        <ele>762</ele>
        <time>2017-04-27T09:09:32Z</time>
      </trkpt>
      <trkpt lat="43.82511" lon="3.58323">
        <ele>763</ele>
        <time>2017-04-27T09:09:50Z</time>
      </trkpt>
      <trkpt lat="43.82507" lon="3.58334">
        <ele>766</ele>
        <time>2017-04-27T09:10:10Z</time>
      </trkpt>
      <trkpt lat="43.82504" lon="3.58348">
        <ele>765</ele>
        <time>2017-04-27T09:10:26Z</time>
      </trkpt>
      <trkpt lat="43.82499" lon="3.58361">
        <ele>756</ele>
        <time>2017-04-27T09:10:46Z</time>
      </trkpt>
      <trkpt lat="43.82493" lon="3.58372">
        <ele>755</ele>
        <time>2017-04-27T09:11:58Z</time>
      </trkpt>
      <trkpt lat="43.82489" lon="3.58384">
        <ele>755</ele>
        <time>2017-04-27T09:12:04Z</time>
      </trkpt>
      <trkpt lat="43.8248" lon="3.58388">
        <ele>754</ele>
        <time>2017-04-27T09:12:12Z</time>
      </trkpt>
      <trkpt lat="43.82471" lon="3.58395">
        <ele>752</ele>
        <time>2017-04-27T09:12:24Z</time>
      </trkpt>
      <trkpt lat="43.82461" lon="3.5839">
        <ele>749</ele>
        <time>2017-04-27T09:12:44Z</time>
      </trkpt>
      <trkpt lat="43.82452" lon="3.58391">
        <ele>747</ele>
        <time>2017-04-27T09:13:04Z</time>
      </trkpt>
      <trkpt lat="43.82442" lon="3.58391">
        <ele>744</ele>
        <time>2017-04-27T09:13:30Z</time>
      </trkpt>
      <trkpt lat="43.82451" lon="3.58389">
        <ele>746</ele>
        <time>2017-04-27T09:15:12Z</time>
      </trkpt>
      <trkpt lat="43.82461" lon="3.58388">
        <ele>749</ele>
        <time>2017-04-27T09:15:24Z</time>
      </trkpt>
      <trkpt lat="43.8247" lon="3.58394">
        <ele>752</ele>
        <time>2017-04-27T09:15:44Z</time>
      </trkpt>
      <trkpt lat="43.8248" lon="3.58393">
        <ele>755</ele>
        <time>2017-04-27T09:16:10Z</time>
      </trkpt>
      <trkpt lat="43.82488" lon="3.58386">
        <ele>755</ele>
        <time>2017-04-27T09:16:22Z</time>
      </trkpt>
      <trkpt lat="43.82495" lon="3.58377">
        <ele>755</ele>
        <time>2017-04-27T09:16:36Z</time>
      </trkpt>
      <trkpt lat="43.825" lon="3.58364">
        <ele>756</ele>
        <time>2017-04-27T09:16:50Z</time>
      </trkpt>
      <trkpt lat="43.82504" lon="3.58351">
        <ele>765</ele>
        <time>2017-04-27T09:17:14Z</time>
      </trkpt>
      <trkpt lat="43.82506" lon="3.58337">
        <ele>766</ele>
        <time>2017-04-27T09:17:50Z</time>
      </trkpt>
      <trkpt lat="43.82511" lon="3.58325">
        <ele>763</ele>
        <time>2017-04-27T09:17:56Z</time>
      </trkpt>
      <trkpt lat="43.8252" lon="3.58321">
        <ele>762</ele>
        <time>2017-04-27T09:18:06Z</time>
      </trkpt>
      <trkpt lat="43.8253" lon="3.5832">
        <ele>761</ele>
        <time>2017-04-27T09:18:18Z</time>
      </trkpt>
      <trkpt lat="43.82527" lon="3.58308">
        <ele>760</ele>
        <time>2017-04-27T09:21:16Z</time>
      </trkpt>
      <trkpt lat="43.82527" lon="3.58292">
        <ele>759</ele>
        <time>2017-04-27T09:21:26Z</time>
      </trkpt>
      <trkpt lat="43.82528" lon="3.58278">
        <ele>758</ele>
        <time>2017-04-27T09:21:34Z</time>
      </trkpt>
      <trkpt lat="43.82532" lon="3.58265">
        <ele>758</ele>
        <time>2017-04-27T09:21:44Z</time>
      </trkpt>
      <trkpt lat="43.82534" lon="3.58252">
        <ele>757</ele>
        <time>2017-04-27T09:21:54Z</time>
      </trkpt>
      <trkpt lat="43.82529" lon="3.58242">
        <ele>751</ele>
        <time>2017-04-27T09:22:06Z</time>
      </trkpt>
      <trkpt lat="43.82526" lon="3.58229">
        <ele>751</ele>
        <time>2017-04-27T09:22:24Z</time>
      </trkpt>
      <trkpt lat="43.82526" lon="3.58214">
        <ele>749</ele>
        <time>2017-04-27T09:22:36Z</time>
      </trkpt>
      <trkpt lat="43.8253" lon="3.582">
        <ele>748</ele>
        <time>2017-04-27T09:22:52Z</time>
      </trkpt>
      <trkpt lat="43.82528" lon="3.58188">
        <ele>747</ele>
        <time>2017-04-27T09:23:04Z</time>
      </trkpt>
      <trkpt lat="43.82529" lon="3.58173">
        <ele>746</ele>
        <time>2017-04-27T09:23:18Z</time>
      </trkpt>
      <trkpt lat="43.82537" lon="3.58162">
        <ele>738</ele>
        <time>2017-04-27T09:23:28Z</time>
      </trkpt>
      <trkpt lat="43.82536" lon="3.58149">
        <ele>737</ele>
        <time>2017-04-27T09:23:42Z</time>
      </trkpt>
      <trkpt lat="43.82526" lon="3.58148">
        <ele>737</ele>
        <time>2017-04-27T09:23:58Z</time>
      </trkpt>
      <trkpt lat="43.82516" lon="3.58145">
        <ele>736</ele>
        <time>2017-04-27T09:24:10Z</time>
      </trkpt>
      <trkpt lat="43.82511" lon="3.58133">
        <ele>735</ele>
        <time>2017-04-27T09:24:24Z</time>
      </trkpt>
      <trkpt lat="43.82506" lon="3.5812">
        <ele>733</ele>
        <time>2017-04-27T09:24:38Z</time>
      </trkpt>
      <trkpt lat="43.82504" lon="3.58106">
        <ele>730</ele>
        <time>2017-04-27T09:24:50Z</time>
      </trkpt>
      <trkpt lat="43.82501" lon="3.58093">
        <ele>726</ele>
        <time>2017-04-27T09:25:02Z</time>
      </trkpt>
      <trkpt lat="43.82495" lon="3.58083">
        <ele>718</ele>
        <time>2017-04-27T09:25:16Z</time>
      </trkpt>
      <trkpt lat="43.82494" lon="3.5807">
        <ele>712</ele>
        <time>2017-04-27T09:25:28Z</time>
      </trkpt>
      <trkpt lat="43.82492" lon="3.58055">
        <ele>708</ele>
        <time>2017-04-27T09:25:40Z</time>
      </trkpt>
      <trkpt lat="43.82489" lon="3.58041">
        <ele>706</ele>
        <time>2017-04-27T09:25:54Z</time>
      </trkpt>
      <trkpt lat="43.82485" lon="3.58028">
        <ele>705</ele>
        <time>2017-04-27T09:26:08Z</time>
      </trkpt>
      <trkpt lat="43.82482" lon="3.58013">
        <ele>705</ele>
        <time>2017-04-27T09:26:22Z</time>
      </trkpt>
      <trkpt lat="43.82477" lon="3.58001">
        <ele>704</ele>
        <time>2017-04-27T09:26:32Z</time>
      </trkpt>
      <trkpt lat="43.82479" lon="3.57987">
        <ele>702</ele>
        <time>2017-04-27T09:26:46Z</time>
      </trkpt>
      <trkpt lat="43.82479" lon="3.57973">
        <ele>700</ele>
        <time>2017-04-27T09:27:00Z</time>
      </trkpt>
      <trkpt lat="43.8248" lon="3.5796">
        <ele>699</ele>
        <time>2017-04-27T09:27:14Z</time>
      </trkpt>
      <trkpt lat="43.82475" lon="3.57948">
        <ele>699</ele>
        <time>2017-04-27T09:27:24Z</time>
      </trkpt>
      <trkpt lat="43.82469" lon="3.57936">
        <ele>698</ele>
        <time>2017-04-27T09:27:32Z</time>
      </trkpt>
      <trkpt lat="43.82464" lon="3.57925">
        <ele>697</ele>
        <time>2017-04-27T09:27:40Z</time>
      </trkpt>
      <trkpt lat="43.82455" lon="3.57919">
        <ele>695</ele>
        <time>2017-04-27T09:27:48Z</time>
      </trkpt>
      <trkpt lat="43.82452" lon="3.57907">
        <ele>693</ele>
        <time>2017-04-27T09:28:00Z</time>
      </trkpt>
      <trkpt lat="43.82451" lon="3.57893">
        <ele>693</ele>
        <time>2017-04-27T09:28:20Z</time>
      </trkpt>
      <trkpt lat="43.82446" lon="3.57882">
        <ele>692</ele>
        <time>2017-04-27T09:28:28Z</time>
      </trkpt>
      <trkpt lat="43.82439" lon="3.57871">
        <ele>692</ele>
        <time>2017-04-27T09:28:36Z</time>
      </trkpt>
      <trkpt lat="43.82431" lon="3.57863">
        <ele>691</ele>
        <time>2017-04-27T09:28:46Z</time>
      </trkpt>
      <trkpt lat="43.82421" lon="3.5786">
        <ele>690</ele>
        <time>2017-04-27T09:29:00Z</time>
      </trkpt>
      <trkpt lat="43.82421" lon="3.57847">
        <ele>689</ele>
        <time>2017-04-27T09:30:50Z</time>
      </trkpt>
      <trkpt lat="43.82424" lon="3.57835">
        <ele>688</ele>
        <time>2017-04-27T09:31:00Z</time>
      </trkpt>
      <trkpt lat="43.8242" lon="3.57823">
        <ele>687</ele>
        <time>2017-04-27T09:31:12Z</time>
      </trkpt>
      <trkpt lat="43.82418" lon="3.5781">
        <ele>688</ele>
        <time>2017-04-27T09:31:24Z</time>
      </trkpt>
      <trkpt lat="43.82415" lon="3.57798">
        <ele>674</ele>
        <time>2017-04-27T09:31:34Z</time>
      </trkpt>
      <trkpt lat="43.82413" lon="3.57785">
        <ele>674</ele>
        <time>2017-04-27T09:31:46Z</time>
      </trkpt>
      <trkpt lat="43.8241" lon="3.57773">
        <ele>676</ele>
        <time>2017-04-27T09:32:04Z</time>
      </trkpt>
      <trkpt lat="43.82409" lon="3.5776">
        <ele>681</ele>
        <time>2017-04-27T09:32:16Z</time>
      </trkpt>
      <trkpt lat="43.82404" lon="3.57749">
        <ele>682</ele>
        <time>2017-04-27T09:32:28Z</time>
      </trkpt>
      <trkpt lat="43.82406" lon="3.57736">
        <ele>680</ele>
        <time>2017-04-27T09:33:14Z</time>
      </trkpt>
      <trkpt lat="43.82413" lon="3.57726">
        <ele>679</ele>
        <time>2017-04-27T09:33:30Z</time>
      </trkpt>
      <trkpt lat="43.82412" lon="3.57712">
        <ele>677</ele>
        <time>2017-04-27T09:33:46Z</time>
      </trkpt>
      <trkpt lat="43.8241" lon="3.577">
        <ele>676</ele>
        <time>2017-04-27T09:33:54Z</time>
      </trkpt>
      <trkpt lat="43.82405" lon="3.57688">
        <ele>677</ele>
        <time>2017-04-27T09:34:04Z</time>
      </trkpt>
      <trkpt lat="43.82405" lon="3.57674">
        <ele>679</ele>
        <time>2017-04-27T09:34:12Z</time>
      </trkpt>
      <trkpt lat="43.824" lon="3.57662">
        <ele>677</ele>
        <time>2017-04-27T09:34:22Z</time>
      </trkpt>
      <trkpt lat="43.82409" lon="3.57653">
        <ele>677</ele>
        <time>2017-04-27T09:34:34Z</time>
      </trkpt>
      <trkpt lat="43.82405" lon="3.57641">
        <ele>674</ele>
        <time>2017-04-27T09:34:50Z</time>
      </trkpt>
      <trkpt lat="43.824" lon="3.57627">
        <ele>672</ele>
        <time>2017-04-27T09:35:08Z</time>
      </trkpt>
      <trkpt lat="43.82395" lon="3.57614">
        <ele>671</ele>
        <time>2017-04-27T09:35:18Z</time>
      </trkpt>
      <trkpt lat="43.82385" lon="3.57609">
        <ele>670</ele>
        <time>2017-04-27T09:35:28Z</time>
      </trkpt>
      <trkpt lat="43.82376" lon="3.57604">
        <ele>669</ele>
        <time>2017-04-27T09:35:40Z</time>
      </trkpt>
      <trkpt lat="43.82366" lon="3.57601">
        <ele>668</ele>
        <time>2017-04-27T09:35:50Z</time>
      </trkpt>
      <trkpt lat="43.82358" lon="3.57595">
        <ele>667</ele>
        <time>2017-04-27T09:35:58Z</time>
      </trkpt>
      <trkpt lat="43.82349" lon="3.57588">
        <ele>666</ele>
        <time>2017-04-27T09:36:06Z</time>
      </trkpt>
      <trkpt lat="43.82342" lon="3.57577">
        <ele>663</ele>
        <time>2017-04-27T09:36:14Z</time>
      </trkpt>
      <trkpt lat="43.82335" lon="3.57567">
        <ele>663</ele>
        <time>2017-04-27T09:36:24Z</time>
      </trkpt>
      <trkpt lat="43.82328" lon="3.57555">
        <ele>655</ele>
        <time>2017-04-27T09:36:34Z</time>
      </trkpt>
      <trkpt lat="43.8232" lon="3.57547">
        <ele>654</ele>
        <time>2017-04-27T09:36:44Z</time>
      </trkpt>
      <trkpt lat="43.82313" lon="3.57536">
        <ele>654</ele>
        <time>2017-04-27T09:36:54Z</time>
      </trkpt>
      <trkpt lat="43.82304" lon="3.5753">
        <ele>653</ele>
        <time>2017-04-27T09:37:04Z</time>
      </trkpt>
      <trkpt lat="43.82296" lon="3.57521">
        <ele>652</ele>
        <time>2017-04-27T09:37:14Z</time>
      </trkpt>
      <trkpt lat="43.82288" lon="3.57511">
        <ele>652</ele>
        <time>2017-04-27T09:37:26Z</time>
      </trkpt>
      <trkpt lat="43.82282" lon="3.57502">
        <ele>652</ele>
        <time>2017-04-27T09:37:36Z</time>
      </trkpt>
      <trkpt lat="43.82274" lon="3.57496">
        <ele>655</ele>
        <time>2017-04-27T09:37:46Z</time>
      </trkpt>
      <trkpt lat="43.82265" lon="3.57492">
        <ele>655</ele>
        <time>2017-04-27T09:37:56Z</time>
      </trkpt>
      <trkpt lat="43.82258" lon="3.57484">
        <ele>655</ele>
        <time>2017-04-27T09:38:04Z</time>
      </trkpt>
      <trkpt lat="43.82253" lon="3.57473">
        <ele>656</ele>
        <time>2017-04-27T09:38:12Z</time>
      </trkpt>
      <trkpt lat="43.82247" lon="3.57463">
        <ele>647</ele>
        <time>2017-04-27T09:38:20Z</time>
      </trkpt>
      <trkpt lat="43.8224" lon="3.57453">
        <ele>648</ele>
        <time>2017-04-27T09:38:28Z</time>
      </trkpt>
      <trkpt lat="43.82235" lon="3.5744">
        <ele>649</ele>
        <time>2017-04-27T09:38:38Z</time>
      </trkpt>
      <trkpt lat="43.82229" lon="3.57429">
        <ele>650</ele>
        <time>2017-04-27T09:38:48Z</time>
      </trkpt>
      <trkpt lat="43.82229" lon="3.57415">
        <ele>657</ele>
        <time>2017-04-27T09:39:02Z</time>
      </trkpt>
      <trkpt lat="43.82222" lon="3.57404">
        <ele>656</ele>
        <time>2017-04-27T09:39:12Z</time>
      </trkpt>
      <trkpt lat="43.8222" lon="3.57391">
        <ele>656</ele>
        <time>2017-04-27T09:39:20Z</time>
      </trkpt>
      <trkpt lat="43.82216" lon="3.57377">
        <ele>656</ele>
        <time>2017-04-27T09:39:30Z</time>
      </trkpt>
      <trkpt lat="43.82217" lon="3.57363">
        <ele>657</ele>
        <time>2017-04-27T09:41:26Z</time>
      </trkpt>
      <trkpt lat="43.82214" lon="3.57375">
        <ele>656</ele>
        <time>2017-04-27T09:47:12Z</time>
      </trkpt>
      <trkpt lat="43.82205" lon="3.57368">
        <ele>656</ele>
        <time>2017-04-27T09:47:28Z</time>
      </trkpt>
      <trkpt lat="43.82199" lon="3.57357">
        <ele>656</ele>
        <time>2017-04-27T09:47:40Z</time>
      </trkpt>
      <trkpt lat="43.8219" lon="3.57356">
        <ele>655</ele>
        <time>2017-04-27T09:48:00Z</time>
      </trkpt>
      <trkpt lat="43.82182" lon="3.57365">
        <ele>654</ele>
        <time>2017-04-27T09:48:16Z</time>
      </trkpt>
      <trkpt lat="43.82175" lon="3.57376">
        <ele>653</ele>
        <time>2017-04-27T09:48:30Z</time>
      </trkpt>
      <trkpt lat="43.82168" lon="3.57385">
        <ele>651</ele>
        <time>2017-04-27T09:48:42Z</time>
      </trkpt>
      <trkpt lat="43.82161" lon="3.57394">
        <ele>638</ele>
        <time>2017-04-27T09:48:52Z</time>
      </trkpt>
      <trkpt lat="43.82167" lon="3.57403">
        <ele>639</ele>
        <time>2017-04-27T09:49:04Z</time>
      </trkpt>
      <trkpt lat="43.8217" lon="3.57415">
        <ele>643</ele>
        <time>2017-04-27T09:49:16Z</time>
      </trkpt>
      <trkpt lat="43.82173" lon="3.57428">
        <ele>641</ele>
        <time>2017-04-27T09:49:26Z</time>
      </trkpt>
      <trkpt lat="43.82165" lon="3.57422">
        <ele>635</ele>
        <time>2017-04-27T09:49:36Z</time>
      </trkpt>
      <trkpt lat="43.82165" lon="3.57436">
        <ele>625</ele>
        <time>2017-04-27T09:50:00Z</time>
      </trkpt>
      <trkpt lat="43.82168" lon="3.5745">
        <ele>639</ele>
        <time>2017-04-27T09:50:14Z</time>
      </trkpt>
      <trkpt lat="43.82158" lon="3.57449">
        <ele>619</ele>
        <time>2017-04-27T09:50:32Z</time>
      </trkpt>
      <trkpt lat="43.82161" lon="3.57461">
        <ele>617</ele>
        <time>2017-04-27T09:50:46Z</time>
      </trkpt>
      <trkpt lat="43.82162" lon="3.57474">
        <ele>615</ele>
        <time>2017-04-27T09:50:54Z</time>
      </trkpt>
      <trkpt lat="43.82161" lon="3.57488">
        <ele>615</ele>
        <time>2017-04-27T09:51:02Z</time>
      </trkpt>
      <trkpt lat="43.82152" lon="3.57483">
        <ele>613</ele>
        <time>2017-04-27T09:51:14Z</time>
      </trkpt>
      <trkpt lat="43.82151" lon="3.57497">
        <ele>613</ele>
        <time>2017-04-27T09:51:46Z</time>
      </trkpt>
      <trkpt lat="43.82155" lon="3.57511">
        <ele>602</ele>
        <time>2017-04-27T09:51:54Z</time>
      </trkpt>
      <trkpt lat="43.82145" lon="3.57505">
        <ele>599</ele>
        <time>2017-04-27T09:52:10Z</time>
      </trkpt>
      <trkpt lat="43.82138" lon="3.57494">
        <ele>610</ele>
        <time>2017-04-27T09:52:16Z</time>
      </trkpt>
      <trkpt lat="43.82131" lon="3.57484">
        <ele>609</ele>
        <time>2017-04-27T09:52:24Z</time>
      </trkpt>
      <trkpt lat="43.82122" lon="3.57477">
        <ele>607</ele>
        <time>2017-04-27T09:52:34Z</time>
      </trkpt>
      <trkpt lat="43.82115" lon="3.57468">
        <ele>607</ele>
        <time>2017-04-27T09:52:42Z</time>
      </trkpt>
      <trkpt lat="43.82107" lon="3.5746">
        <ele>607</ele>
        <time>2017-04-27T09:52:50Z</time>
      </trkpt>
      <trkpt lat="43.82097" lon="3.57452">
        <ele>607</ele>
        <time>2017-04-27T09:53:00Z</time>
      </trkpt>
      <trkpt lat="43.82102" lon="3.57466">
        <ele>604</ele>
        <time>2017-04-27T09:53:14Z</time>
      </trkpt>
      <trkpt lat="43.82107" lon="3.57477">
        <ele>603</ele>
        <time>2017-04-27T09:53:24Z</time>
      </trkpt>
      <trkpt lat="43.82098" lon="3.57472">
        <ele>602</ele>
        <time>2017-04-27T09:53:38Z</time>
      </trkpt>
      <trkpt lat="43.8209" lon="3.57465">
        <ele>603</ele>
        <time>2017-04-27T09:53:48Z</time>
      </trkpt>
      <trkpt lat="43.8208" lon="3.57458">
        <ele>585</ele>
        <time>2017-04-27T09:53:56Z</time>
      </trkpt>
      <trkpt lat="43.82069" lon="3.57452">
        <ele>585</ele>
        <time>2017-04-27T09:54:04Z</time>
      </trkpt>
      <trkpt lat="43.8206" lon="3.57449">
        <ele>585</ele>
        <time>2017-04-27T09:54:10Z</time>
      </trkpt>
      <trkpt lat="43.82051" lon="3.57443">
        <ele>585</ele>
        <time>2017-04-27T09:54:18Z</time>
      </trkpt>
      <trkpt lat="43.82045" lon="3.57433">
        <ele>585</ele>
        <time>2017-04-27T09:54:24Z</time>
      </trkpt>
      <trkpt lat="43.82036" lon="3.57428">
        <ele>585</ele>
        <time>2017-04-27T09:54:36Z</time>
      </trkpt>
      <trkpt lat="43.82027" lon="3.57433">
        <ele>583</ele>
        <time>2017-04-27T09:54:58Z</time>
      </trkpt>
      <trkpt lat="43.82017" lon="3.57433">
        <ele>583</ele>
        <time>2017-04-27T09:55:12Z</time>
      </trkpt>
      <trkpt lat="43.82008" lon="3.57441">
        <ele>581</ele>
        <time>2017-04-27T09:55:24Z</time>
      </trkpt>
      <trkpt lat="43.81998" lon="3.57447">
        <ele>572</ele>
        <time>2017-04-27T09:55:32Z</time>
      </trkpt>
      <trkpt lat="43.81987" lon="3.57451">
        <ele>571</ele>
        <time>2017-04-27T09:55:42Z</time>
      </trkpt>
      <trkpt lat="43.81977" lon="3.57458">
        <ele>569</ele>
        <time>2017-04-27T09:55:52Z</time>
      </trkpt>
      <trkpt lat="43.81968" lon="3.57466">
        <ele>567</ele>
        <time>2017-04-27T09:56:06Z</time>
      </trkpt>
      <trkpt lat="43.81958" lon="3.5747">
        <ele>566</ele>
        <time>2017-04-27T09:56:16Z</time>
      </trkpt>
      <trkpt lat="43.81948" lon="3.57475">
        <ele>564</ele>
        <time>2017-04-27T09:56:24Z</time>
      </trkpt>
      <trkpt lat="43.8195" lon="3.57487">
        <ele>562</ele>
        <time>2017-04-27T09:56:46Z</time>
      </trkpt>
      <trkpt lat="43.81941" lon="3.57489">
        <ele>560</ele>
        <time>2017-04-27T09:56:56Z</time>
      </trkpt>
      <trkpt lat="43.81931" lon="3.57486">
        <ele>559</ele>
        <time>2017-04-27T09:57:06Z</time>
      </trkpt>
      <trkpt lat="43.81922" lon="3.57482">
        <ele>559</ele>
        <time>2017-04-27T09:57:14Z</time>
      </trkpt>
      <trkpt lat="43.81912" lon="3.57479">
        <ele>566</ele>
        <time>2017-04-27T09:57:24Z</time>
      </trkpt>
      <trkpt lat="43.81904" lon="3.57484">
        <ele>565</ele>
        <time>2017-04-27T09:57:42Z</time>
      </trkpt>
      <trkpt lat="43.81896" lon="3.57493">
        <ele>564</ele>
        <time>2017-04-27T09:57:54Z</time>
      </trkpt>
      <trkpt lat="43.81894" lon="3.57506">
        <ele>543</ele>
        <time>2017-04-27T09:58:04Z</time>
      </trkpt>
      <trkpt lat="43.8189" lon="3.5752">
        <ele>541</ele>
        <time>2017-04-27T09:58:14Z</time>
      </trkpt>
      <trkpt lat="43.81887" lon="3.57532">
        <ele>539</ele>
        <time>2017-04-27T09:58:22Z</time>
      </trkpt>
      <trkpt lat="43.81882" lon="3.57546">
        <ele>536</ele>
        <time>2017-04-27T09:58:32Z</time>
      </trkpt>
      <trkpt lat="43.81877" lon="3.57557">
        <ele>535</ele>
        <time>2017-04-27T09:58:42Z</time>
      </trkpt>
      <trkpt lat="43.8187" lon="3.57569">
        <ele>533</ele>
        <time>2017-04-27T09:58:52Z</time>
      </trkpt>
      <trkpt lat="43.81863" lon="3.57578">
        <ele>532</ele>
        <time>2017-04-27T09:59:02Z</time>
      </trkpt>
      <trkpt lat="43.81853" lon="3.5758">
        <ele>531</ele>
        <time>2017-04-27T09:59:12Z</time>
      </trkpt>
      <trkpt lat="43.81844" lon="3.57585">
        <ele>519</ele>
        <time>2017-04-27T09:59:20Z</time>
      </trkpt>
      <trkpt lat="43.81833" lon="3.57589">
        <ele>525</ele>
        <time>2017-04-27T09:59:32Z</time>
      </trkpt>
      <trkpt lat="43.81824" lon="3.57594">
        <ele>524</ele>
        <time>2017-04-27T09:59:42Z</time>
      </trkpt>
      <trkpt lat="43.81835" lon="3.57595">
        <ele>519</ele>
        <time>2017-04-27T10:00:00Z</time>
      </trkpt>
      <trkpt lat="43.81843" lon="3.576">
        <ele>516</ele>
        <time>2017-04-27T10:00:10Z</time>
      </trkpt>
      <trkpt lat="43.81852" lon="3.57605">
        <ele>513</ele>
        <time>2017-04-27T10:00:22Z</time>
      </trkpt>
      <trkpt lat="43.81862" lon="3.57608">
        <ele>511</ele>
        <time>2017-04-27T10:00:32Z</time>
      </trkpt>
      <trkpt lat="43.81871" lon="3.57612">
        <ele>509</ele>
        <time>2017-04-27T10:00:40Z</time>
      </trkpt>
      <trkpt lat="43.81866" lon="3.57623">
        <ele>508</ele>
        <time>2017-04-27T10:01:08Z</time>
      </trkpt>
      <trkpt lat="43.81857" lon="3.57629">
        <ele>507</ele>
        <time>2017-04-27T10:01:18Z</time>
      </trkpt>
      <trkpt lat="43.81862" lon="3.5764">
        <ele>505</ele>
        <time>2017-04-27T10:01:44Z</time>
      </trkpt>
      <trkpt lat="43.8187" lon="3.57649">
        <ele>503</ele>
        <time>2017-04-27T10:01:54Z</time>
      </trkpt>
      <trkpt lat="43.8188" lon="3.57648">
        <ele>503</ele>
        <time>2017-04-27T10:02:06Z</time>
      </trkpt>
      <trkpt lat="43.81881" lon="3.5766">
        <ele>501</ele>
        <time>2017-04-27T10:02:26Z</time>
      </trkpt>
      <trkpt lat="43.81875" lon="3.5767">
        <ele>485</ele>
        <time>2017-04-27T10:02:36Z</time>
      </trkpt>
      <trkpt lat="43.81884" lon="3.57672">
        <ele>485</ele>
        <time>2017-04-27T10:02:46Z</time>
      </trkpt>
      <trkpt lat="43.8188" lon="3.57685">
        <ele>484</ele>
        <time>2017-04-27T10:03:06Z</time>
      </trkpt>
      <trkpt lat="43.81872" lon="3.57691">
        <ele>483</ele>
        <time>2017-04-27T10:03:18Z</time>
      </trkpt>
      <trkpt lat="43.81862" lon="3.57696">
        <ele>483</ele>
        <time>2017-04-27T10:03:28Z</time>
      </trkpt>
      <trkpt lat="43.81852" lon="3.57699">
        <ele>483</ele>
        <time>2017-04-27T10:03:36Z</time>
      </trkpt>
      <trkpt lat="43.81842" lon="3.57698">
        <ele>484</ele>
        <time>2017-04-27T10:03:46Z</time>
      </trkpt>
      <trkpt lat="43.81832" lon="3.57698">
        <ele>492</ele>
        <time>2017-04-27T10:03:56Z</time>
      </trkpt>
      <trkpt lat="43.8184" lon="3.57706">
        <ele>482</ele>
        <time>2017-04-27T10:04:10Z</time>
      </trkpt>
      <trkpt lat="43.81834" lon="3.57719">
        <ele>480</ele>
        <time>2017-04-27T10:04:20Z</time>
      </trkpt>
      <trkpt lat="43.81833" lon="3.57732">
        <ele>482</ele>
        <time>2017-04-27T10:04:38Z</time>
      </trkpt>
      <trkpt lat="43.81831" lon="3.57746">
        <ele>475</ele>
        <time>2017-04-27T10:04:56Z</time>
      </trkpt>
      <trkpt lat="43.81834" lon="3.57758">
        <ele>467</ele>
        <time>2017-04-27T10:05:08Z</time>
      </trkpt>
      <trkpt lat="43.81843" lon="3.57761">
        <ele>464</ele>
        <time>2017-04-27T10:05:22Z</time>
      </trkpt>
      <trkpt lat="43.81853" lon="3.57763">
        <ele>462</ele>
        <time>2017-04-27T10:05:32Z</time>
      </trkpt>
      <trkpt lat="43.81862" lon="3.57769">
        <ele>460</ele>
        <time>2017-04-27T10:05:40Z</time>
      </trkpt>
      <trkpt lat="43.81872" lon="3.57771">
        <ele>459</ele>
        <time>2017-04-27T10:05:52Z</time>
      </trkpt>
      <trkpt lat="43.81864" lon="3.57782">
        <ele>458</ele>
        <time>2017-04-27T10:07:32Z</time>
      </trkpt>
      <trkpt lat="43.81855" lon="3.57794">
        <ele>456</ele>
        <time>2017-04-27T10:07:40Z</time>
      </trkpt>
      <trkpt lat="43.81849" lon="3.57803">
        <ele>454</ele>
        <time>2017-04-27T10:07:48Z</time>
      </trkpt>
      <trkpt lat="43.81843" lon="3.57814">
        <ele>452</ele>
        <time>2017-04-27T10:07:56Z</time>
      </trkpt>
      <trkpt lat="43.81841" lon="3.57827">
        <ele>449</ele>
        <time>2017-04-27T10:08:04Z</time>
      </trkpt>
      <trkpt lat="43.81835" lon="3.57839">
        <ele>442</ele>
        <time>2017-04-27T10:08:14Z</time>
      </trkpt>
      <trkpt lat="43.81841" lon="3.5785">
        <ele>438</ele>
        <time>2017-04-27T10:08:28Z</time>
      </trkpt>
      <trkpt lat="43.81839" lon="3.57865">
        <ele>435</ele>
        <time>2017-04-27T10:08:40Z</time>
      </trkpt>
      <trkpt lat="43.81834" lon="3.57877">
        <ele>432</ele>
        <time>2017-04-27T10:08:52Z</time>
      </trkpt>
      <trkpt lat="43.81828" lon="3.57888">
        <ele>435</ele>
        <time>2017-04-27T10:09:04Z</time>
      </trkpt>
      <trkpt lat="43.81823" lon="3.57899">
        <ele>432</ele>
        <time>2017-04-27T10:09:14Z</time>
      </trkpt>
      <trkpt lat="43.81815" lon="3.57906">
        <ele>432</ele>
        <time>2017-04-27T10:09:22Z</time>
      </trkpt>
      <trkpt lat="43.81807" lon="3.57915">
        <ele>433</ele>
        <time>2017-04-27T10:09:30Z</time>
      </trkpt>
      <trkpt lat="43.81798" lon="3.57921">
        <ele>418</ele>
        <time>2017-04-27T10:09:38Z</time>
      </trkpt>
      <trkpt lat="43.81802" lon="3.57933">
        <ele>417</ele>
        <time>2017-04-27T10:09:48Z</time>
      </trkpt>
      <trkpt lat="43.81811" lon="3.57935">
        <ele>416</ele>
        <time>2017-04-27T10:09:58Z</time>
      </trkpt>
      <trkpt lat="43.81822" lon="3.57939">
        <ele>416</ele>
        <time>2017-04-27T10:10:08Z</time>
      </trkpt>
      <trkpt lat="43.81819" lon="3.57952">
        <ele>413</ele>
        <time>2017-04-27T10:10:20Z</time>
      </trkpt>
      <trkpt lat="43.81811" lon="3.57963">
        <ele>411</ele>
        <time>2017-04-27T10:10:30Z</time>
      </trkpt>
      <trkpt lat="43.81802" lon="3.5797">
        <ele>411</ele>
        <time>2017-04-27T10:10:40Z</time>
      </trkpt>
      <trkpt lat="43.8179" lon="3.57971">
        <ele>412</ele>
        <time>2017-04-27T10:10:50Z</time>
      </trkpt>
      <trkpt lat="43.8178" lon="3.57973">
        <ele>412</ele>
        <time>2017-04-27T10:10:58Z</time>
      </trkpt>
      <trkpt lat="43.81773" lon="3.57982">
        <ele>411</ele>
        <time>2017-04-27T10:11:14Z</time>
      </trkpt>
      <trkpt lat="43.81772" lon="3.57996">
        <ele>409</ele>
        <time>2017-04-27T10:11:22Z</time>
      </trkpt>
      <trkpt lat="43.81782" lon="3.58001">
        <ele>395</ele>
        <time>2017-04-27T10:12:16Z</time>
      </trkpt>
      <trkpt lat="43.8179" lon="3.58009">
        <ele>393</ele>
        <time>2017-04-27T10:12:24Z</time>
      </trkpt>
      <trkpt lat="43.81783" lon="3.58021">
        <ele>393</ele>
        <time>2017-04-27T10:12:36Z</time>
      </trkpt>
      <trkpt lat="43.81778" lon="3.58032">
        <ele>392</ele>
        <time>2017-04-27T10:12:44Z</time>
      </trkpt>
      <trkpt lat="43.81773" lon="3.58043">
        <ele>391</ele>
        <time>2017-04-27T10:12:52Z</time>
      </trkpt>
      <trkpt lat="43.81767" lon="3.58056">
        <ele>390</ele>
        <time>2017-04-27T10:13:04Z</time>
      </trkpt>
      <trkpt lat="43.81774" lon="3.58064">
        <ele>389</ele>
        <time>2017-04-27T10:13:22Z</time>
      </trkpt>
      <trkpt lat="43.81784" lon="3.58064">
        <ele>389</ele>
        <time>2017-04-27T10:13:32Z</time>
      </trkpt>
      <trkpt lat="43.81794" lon="3.58067">
        <ele>387</ele>
        <time>2017-04-27T10:13:40Z</time>
      </trkpt>
      <trkpt lat="43.81804" lon="3.58067">
        <ele>385</ele>
        <time>2017-04-27T10:13:48Z</time>
      </trkpt>
      <trkpt lat="43.81813" lon="3.58069">
        <ele>383</ele>
        <time>2017-04-27T10:13:56Z</time>
      </trkpt>
      <trkpt lat="43.81807" lon="3.58081">
        <ele>383</ele>
        <time>2017-04-27T10:14:12Z</time>
      </trkpt>
      <trkpt lat="43.81801" lon="3.58091">
        <ele>374</ele>
        <time>2017-04-27T10:14:22Z</time>
      </trkpt>
      <trkpt lat="43.81797" lon="3.58103">
        <ele>373</ele>
        <time>2017-04-27T10:14:38Z</time>
      </trkpt>
      <trkpt lat="43.8179" lon="3.58113">
        <ele>373</ele>
        <time>2017-04-27T10:14:48Z</time>
      </trkpt>
      <trkpt lat="43.81785" lon="3.58124">
        <ele>372</ele>
        <time>2017-04-27T10:14:58Z</time>
      </trkpt>
      <trkpt lat="43.8178" lon="3.58136">
        <ele>371</ele>
        <time>2017-04-27T10:15:10Z</time>
      </trkpt>
      <trkpt lat="43.81774" lon="3.58147">
        <ele>370</ele>
        <time>2017-04-27T10:15:20Z</time>
      </trkpt>
      <trkpt lat="43.81768" lon="3.58158">
        <ele>368</ele>
        <time>2017-04-27T10:15:30Z</time>
      </trkpt>
      <trkpt lat="43.81762" lon="3.58169">
        <ele>360</ele>
        <time>2017-04-27T10:15:40Z</time>
      </trkpt>
      <trkpt lat="43.81756" lon="3.5818">
        <ele>359</ele>
        <time>2017-04-27T10:15:50Z</time>
      </trkpt>
      <trkpt lat="43.81752" lon="3.58193">
        <ele>356</ele>
        <time>2017-04-27T10:16:00Z</time>
      </trkpt>
      <trkpt lat="43.81745" lon="3.58203">
        <ele>359</ele>
        <time>2017-04-27T10:16:10Z</time>
      </trkpt>
      <trkpt lat="43.81737" lon="3.58213">
        <ele>357</ele>
        <time>2017-04-27T10:16:18Z</time>
      </trkpt>
      <trkpt lat="43.81731" lon="3.58223">
        <ele>355</ele>
        <time>2017-04-27T10:16:26Z</time>
      </trkpt>
      <trkpt lat="43.81727" lon="3.58235">
        <ele>354</ele>
        <time>2017-04-27T10:16:36Z</time>
      </trkpt>
      <trkpt lat="43.8172" lon="3.58246">
        <ele>354</ele>
        <time>2017-04-27T10:16:46Z</time>
      </trkpt>
      <trkpt lat="43.81714" lon="3.58258">
        <ele>339</ele>
        <time>2017-04-27T10:17:00Z</time>
      </trkpt>
      <trkpt lat="43.81706" lon="3.58268">
        <ele>339</ele>
        <time>2017-04-27T10:17:08Z</time>
      </trkpt>
      <trkpt lat="43.81702" lon="3.5828">
        <ele>338</ele>
        <time>2017-04-27T10:17:18Z</time>
      </trkpt>
      <trkpt lat="43.81695" lon="3.58291">
        <ele>337</ele>
        <time>2017-04-27T10:17:30Z</time>
      </trkpt>
      <trkpt lat="43.81687" lon="3.58297">
        <ele>336</ele>
        <time>2017-04-27T10:27:06Z</time>
      </trkpt>
      <trkpt lat="43.81679" lon="3.58306">
        <ele>334</ele>
        <time>2017-04-27T10:27:16Z</time>
      </trkpt>
      <trkpt lat="43.81672" lon="3.58315">
        <ele>333</ele>
        <time>2017-04-27T10:27:26Z</time>
      </trkpt>
      <trkpt lat="43.81666" lon="3.58324">
        <ele>332</ele>
        <time>2017-04-27T10:27:36Z</time>
      </trkpt>
      <trkpt lat="43.81664" lon="3.58337">
        <ele>326</ele>
        <time>2017-04-27T10:27:50Z</time>
      </trkpt>
      <trkpt lat="43.81657" lon="3.58349">
        <ele>321</ele>
        <time>2017-04-27T10:28:02Z</time>
      </trkpt>
      <trkpt lat="43.8165" lon="3.58357">
        <ele>319</ele>
        <time>2017-04-27T10:28:16Z</time>
      </trkpt>
      <trkpt lat="43.8165" lon="3.58371">
        <ele>316</ele>
        <time>2017-04-27T10:28:38Z</time>
      </trkpt>
      <trkpt lat="43.81651" lon="3.58385">
        <ele>313</ele>
        <time>2017-04-27T10:28:52Z</time>
      </trkpt>
      <trkpt lat="43.81654" lon="3.58397">
        <ele>310</ele>
        <time>2017-04-27T10:29:00Z</time>
      </trkpt>
      <trkpt lat="43.81662" lon="3.58406">
        <ele>306</ele>
        <time>2017-04-27T10:29:10Z</time>
      </trkpt>
      <trkpt lat="43.81669" lon="3.58415">
        <ele>303</ele>
        <time>2017-04-27T10:29:20Z</time>
      </trkpt>
      <trkpt lat="43.81665" lon="3.58426">
        <ele>299</ele>
        <time>2017-04-27T10:29:40Z</time>
      </trkpt>
      <trkpt lat="43.81659" lon="3.58438">
        <ele>296</ele>
        <time>2017-04-27T10:29:52Z</time>
      </trkpt>
      <trkpt lat="43.81654" lon="3.58449">
        <ele>295</ele>
        <time>2017-04-27T10:30:06Z</time>
      </trkpt>
      <trkpt lat="43.81648" lon="3.58459">
        <ele>294</ele>
        <time>2017-04-27T10:30:16Z</time>
      </trkpt>
      <trkpt lat="43.81642" lon="3.58468">
        <ele>293</ele>
        <time>2017-04-27T10:30:28Z</time>
      </trkpt>
      <trkpt lat="43.81635" lon="3.5848">
        <ele>292</ele>
        <time>2017-04-27T10:30:38Z</time>
      </trkpt>
      <trkpt lat="43.81627" lon="3.58489">
        <ele>291</ele>
        <time>2017-04-27T10:30:44Z</time>
      </trkpt>
      <trkpt lat="43.81621" lon="3.585">
        <ele>290</ele>
        <time>2017-04-27T10:30:58Z</time>
      </trkpt>
      <trkpt lat="43.81613" lon="3.58508">
        <ele>281</ele>
        <time>2017-04-27T10:31:18Z</time>
      </trkpt>
      <trkpt lat="43.81605" lon="3.58517">
        <ele>280</ele>
        <time>2017-04-27T10:31:28Z</time>
      </trkpt>
      <trkpt lat="43.81598" lon="3.58526">
        <ele>280</ele>
        <time>2017-04-27T10:31:46Z</time>
      </trkpt>
      <trkpt lat="43.8159" lon="3.58534">
        <ele>279</ele>
        <time>2017-04-27T10:32:06Z</time>
      </trkpt>
      <trkpt lat="43.8158" lon="3.58543">
        <ele>271</ele>
        <time>2017-04-27T10:32:18Z</time>
      </trkpt>
      <trkpt lat="43.81573" lon="3.58554">
        <ele>270</ele>
        <time>2017-04-27T10:32:28Z</time>
      </trkpt>
      <trkpt lat="43.81566" lon="3.58564">
        <ele>269</ele>
        <time>2017-04-27T10:32:44Z</time>
      </trkpt>
      <trkpt lat="43.81557" lon="3.5857">
        <ele>268</ele>
        <time>2017-04-27T10:32:54Z</time>
      </trkpt>
      <trkpt lat="43.81547" lon="3.58574">
        <ele>268</ele>
        <time>2017-04-27T10:33:02Z</time>
      </trkpt>
      <trkpt lat="43.81538" lon="3.58582">
        <ele>267</ele>
        <time>2017-04-27T10:33:24Z</time>
      </trkpt>
      <trkpt lat="43.81533" lon="3.58592">
        <ele>259</ele>
        <time>2017-04-27T10:33:40Z</time>
      </trkpt>
      <trkpt lat="43.81524" lon="3.58598">
        <ele>258</ele>
        <time>2017-04-27T10:33:54Z</time>
      </trkpt>
      <trkpt lat="43.81515" lon="3.58602">
        <ele>257</ele>
        <time>2017-04-27T10:34:04Z</time>
      </trkpt>
      <trkpt lat="43.81504" lon="3.58603">
        <ele>257</ele>
        <time>2017-04-27T10:34:14Z</time>
      </trkpt>
      <trkpt lat="43.81495" lon="3.58604">
        <ele>250</ele>
        <time>2017-04-27T10:34:20Z</time>
      </trkpt>
      <trkpt lat="43.81486" lon="3.58613">
        <ele>248</ele>
        <time>2017-04-27T10:34:32Z</time>
      </trkpt>
      <trkpt lat="43.81476" lon="3.58617">
        <ele>246</ele>
        <time>2017-04-27T10:34:40Z</time>
      </trkpt>
      <trkpt lat="43.81466" lon="3.58624">
        <ele>245</ele>
        <time>2017-04-27T10:34:52Z</time>
      </trkpt>
      <trkpt lat="43.81456" lon="3.58627">
        <ele>244</ele>
        <time>2017-04-27T10:35:00Z</time>
      </trkpt>
      <trkpt lat="43.81446" lon="3.58629">
        <ele>243</ele>
        <time>2017-04-27T10:35:08Z</time>
      </trkpt>
      <trkpt lat="43.81436" lon="3.58633">
        <ele>242</ele>
        <time>2017-04-27T10:35:16Z</time>
      </trkpt>
      <trkpt lat="43.81425" lon="3.58637">
        <ele>240</ele>
        <time>2017-04-27T10:35:24Z</time>
      </trkpt>
      <trkpt lat="43.81416" lon="3.58641">
        <ele>232</ele>
        <time>2017-04-27T10:36:18Z</time>
      </trkpt>
      <trkpt lat="43.81408" lon="3.58646">
        <ele>232</ele>
        <time>2017-04-27T10:36:24Z</time>
      </trkpt>
      <trkpt lat="43.81401" lon="3.58655">
        <ele>231</ele>
        <time>2017-04-27T10:36:30Z</time>
      </trkpt>
      <trkpt lat="43.81395" lon="3.58665">
        <ele>230</ele>
        <time>2017-04-27T10:36:38Z</time>
      </trkpt>
      <trkpt lat="43.81387" lon="3.58671">
        <ele>226</ele>
        <time>2017-04-27T10:36:48Z</time>
      </trkpt>
      <trkpt lat="43.81379" lon="3.58678">
        <ele>225</ele>
        <time>2017-04-27T10:36:56Z</time>
      </trkpt>
      <trkpt lat="43.81371" lon="3.58687">
        <ele>224</ele>
        <time>2017-04-27T10:37:06Z</time>
      </trkpt>
      <trkpt lat="43.81363" lon="3.58694">
        <ele>223</ele>
        <time>2017-04-27T10:37:14Z</time>
      </trkpt>
      <trkpt lat="43.81355" lon="3.58702">
        <ele>223</ele>
        <time>2017-04-27T10:37:22Z</time>
      </trkpt>
      <trkpt lat="43.81345" lon="3.58709">
        <ele>222</ele>
        <time>2017-04-27T10:37:30Z</time>
      </trkpt>
      <trkpt lat="43.81335" lon="3.58712">
        <ele>221</ele>
        <time>2017-04-27T10:37:36Z</time>
      </trkpt>
      <trkpt lat="43.81326" lon="3.58718">
        <ele>214</ele>
        <time>2017-04-27T10:37:42Z</time>
      </trkpt>
      <trkpt lat="43.81319" lon="3.58729">
        <ele>214</ele>
        <time>2017-04-27T10:37:50Z</time>
      </trkpt>
      <trkpt lat="43.8131" lon="3.58736">
        <ele>214</ele>
        <time>2017-04-27T10:37:58Z</time>
      </trkpt>
      <trkpt lat="43.81302" lon="3.58743">
        <ele>213</ele>
        <time>2017-04-27T10:38:06Z</time>
      </trkpt>
      <trkpt lat="43.81293" lon="3.58753">
        <ele>212</ele>
        <time>2017-04-27T10:38:16Z</time>
      </trkpt>
      <trkpt lat="43.81287" lon="3.58765">
        <ele>211</ele>
        <time>2017-04-27T10:38:24Z</time>
      </trkpt>
      <trkpt lat="43.81282" lon="3.58778">
        <ele>211</ele>
        <time>2017-04-27T10:38:32Z</time>
      </trkpt>
      <trkpt lat="43.81274" lon="3.58786">
        <ele>210</ele>
        <time>2017-04-27T10:38:52Z</time>
      </trkpt>
      <trkpt lat="43.81267" lon="3.58799">
        <ele>209</ele>
        <time>2017-04-27T10:39:00Z</time>
      </trkpt>
      <trkpt lat="43.81266" lon="3.58811">
        <ele>209</ele>
        <time>2017-04-27T10:39:08Z</time>
      </trkpt>
      <trkpt lat="43.81274" lon="3.58818">
        <ele>209</ele>
        <time>2017-04-27T10:39:16Z</time>
      </trkpt>
      <trkpt lat="43.81273" lon="3.58831">
        <ele>208</ele>
        <time>2017-04-27T10:39:32Z</time>
      </trkpt>
      <trkpt lat="43.81269" lon="3.58843">
        <ele>203</ele>
        <time>2017-04-27T10:39:44Z</time>
      </trkpt>
      <trkpt lat="43.81263" lon="3.58854">
        <ele>203</ele>
        <time>2017-04-27T10:39:58Z</time>
      </trkpt>
      <trkpt lat="43.81262" lon="3.58866">
        <ele>202</ele>
        <time>2017-04-27T10:40:14Z</time>
      </trkpt>
      <trkpt lat="43.81267" lon="3.58878">
        <ele>201</ele>
        <time>2017-04-27T10:40:32Z</time>
      </trkpt>
      <trkpt lat="43.81264" lon="3.58891">
        <ele>199</ele>
        <time>2017-04-27T10:40:42Z</time>
      </trkpt>
      <trkpt lat="43.81269" lon="3.58905">
        <ele>197</ele>
        <time>2017-04-27T10:40:54Z</time>
      </trkpt>
      <trkpt lat="43.81273" lon="3.58917">
        <ele>191</ele>
        <time>2017-04-27T10:41:02Z</time>
      </trkpt>
      <trkpt lat="43.81277" lon="3.5893">
        <ele>191</ele>
        <time>2017-04-27T10:41:12Z</time>
      </trkpt>
      <trkpt lat="43.81274" lon="3.58942">
        <ele>191</ele>
        <time>2017-04-27T10:41:22Z</time>
      </trkpt>
      <trkpt lat="43.81275" lon="3.58958">
        <ele>190</ele>
        <time>2017-04-27T10:41:32Z</time>
      </trkpt>
      <trkpt lat="43.81275" lon="3.58973">
        <ele>189</ele>
        <time>2017-04-27T10:41:40Z</time>
      </trkpt>
      <trkpt lat="43.81277" lon="3.58985">
        <ele>188</ele>
        <time>2017-04-27T10:41:48Z</time>
      </trkpt>
      <trkpt lat="43.81275" lon="3.59001">
        <ele>181</ele>
        <time>2017-04-27T10:41:56Z</time>
      </trkpt>
      <trkpt lat="43.81271" lon="3.59014">
        <ele>181</ele>
        <time>2017-04-27T10:42:04Z</time>
      </trkpt>
      <trkpt lat="43.81264" lon="3.59027">
        <ele>181</ele>
        <time>2017-04-27T10:42:12Z</time>
      </trkpt>
      <trkpt lat="43.81263" lon="3.5904">
        <ele>180</ele>
        <time>2017-04-27T10:42:20Z</time>
      </trkpt>
      <trkpt lat="43.81269" lon="3.5905">
        <ele>180</ele>
        <time>2017-04-27T10:42:32Z</time>
      </trkpt>
      <trkpt lat="43.81278" lon="3.59058">
        <ele>180</ele>
        <time>2017-04-27T10:42:40Z</time>
      </trkpt>
      <trkpt lat="43.81281" lon="3.5907">
        <ele>180</ele>
        <time>2017-04-27T10:42:56Z</time>
      </trkpt>
      <trkpt lat="43.81272" lon="3.59097">
        <ele>175</ele>
        <time>2017-04-27T11:45:48Z</time>
      </trkpt>
      <trkpt lat="43.81278" lon="3.59088">
        <ele>175</ele>
        <time>2017-04-27T11:46:20Z</time>
      </trkpt>
      <trkpt lat="43.81269" lon="3.59091">
        <ele>175</ele>
        <time>2017-04-27T11:48:40Z</time>
      </trkpt>
      <trkpt lat="43.81261" lon="3.591">
        <ele>175</ele>
        <time>2017-04-27T11:48:56Z</time>
      </trkpt>
      <trkpt lat="43.81252" lon="3.59106">
        <ele>175</ele>
        <time>2017-04-27T11:49:06Z</time>
      </trkpt>
      <trkpt lat="43.81243" lon="3.59109">
        <ele>174</ele>
        <time>2017-04-27T11:49:20Z</time>
      </trkpt>
      <trkpt lat="43.81253" lon="3.59104">
        <ele>175</ele>
        <time>2017-04-27T11:50:00Z</time>
      </trkpt>
      <trkpt lat="43.81261" lon="3.59097">
        <ele>175</ele>
        <time>2017-04-27T11:50:08Z</time>
      </trkpt>
      <trkpt lat="43.81268" lon="3.59087">
        <ele>175</ele>
        <time>2017-04-27T11:50:18Z</time>
      </trkpt>
      <trkpt lat="43.81261" lon="3.59096">
        <ele>175</ele>
        <time>2017-04-27T11:50:52Z</time>
      </trkpt>
      <trkpt lat="43.81252" lon="3.59102">
        <ele>175</ele>
        <time>2017-04-27T11:51:00Z</time>
      </trkpt>
      <trkpt lat="43.81246" lon="3.59112">
        <ele>174</ele>
        <time>2017-04-27T11:51:08Z</time>
      </trkpt>
      <trkpt lat="43.81235" lon="3.59116">
        <ele>174</ele>
        <time>2017-04-27T11:51:18Z</time>
      </trkpt>
      <trkpt lat="43.81226" lon="3.59119">
        <ele>174</ele>
        <time>2017-04-27T11:51:28Z</time>
      </trkpt>
      <trkpt lat="43.81217" lon="3.59124">
        <ele>174</ele>
        <time>2017-04-27T11:51:38Z</time>
      </trkpt>
      <trkpt lat="43.81207" lon="3.5913">
        <ele>174</ele>
        <time>2017-04-27T11:51:48Z</time>
      </trkpt>
      <trkpt lat="43.81197" lon="3.59134">
        <ele>174</ele>
        <time>2017-04-27T11:51:58Z</time>
      </trkpt>
      <trkpt lat="43.81188" lon="3.5914">
        <ele>174</ele>
        <time>2017-04-27T11:52:06Z</time>
      </trkpt>
      <trkpt lat="43.81179" lon="3.59143">
        <ele>174</ele>
        <time>2017-04-27T11:52:14Z</time>
      </trkpt>
      <trkpt lat="43.81171" lon="3.59151">
        <ele>174</ele>
        <time>2017-04-27T11:52:24Z</time>
      </trkpt>
      <trkpt lat="43.81161" lon="3.59155">
        <ele>175</ele>
        <time>2017-04-27T11:52:32Z</time>
      </trkpt>
      <trkpt lat="43.81151" lon="3.59157">
        <ele>175</ele>
        <time>2017-04-27T11:52:40Z</time>
      </trkpt>
      <trkpt lat="43.81142" lon="3.5916">
        <ele>175</ele>
        <time>2017-04-27T11:52:48Z</time>
      </trkpt>
      <trkpt lat="43.81133" lon="3.59165">
        <ele>175</ele>
        <time>2017-04-27T11:52:56Z</time>
      </trkpt>
      <trkpt lat="43.81124" lon="3.59168">
        <ele>176</ele>
        <time>2017-04-27T11:53:04Z</time>
      </trkpt>
      <trkpt lat="43.81115" lon="3.59176">
        <ele>176</ele>
        <time>2017-04-27T11:53:12Z</time>
      </trkpt>
      <trkpt lat="43.81111" lon="3.59187">
        <ele>176</ele>
        <time>2017-04-27T11:53:20Z</time>
      </trkpt>
      <trkpt lat="43.81107" lon="3.59202">
        <ele>177</ele>
        <time>2017-04-27T11:53:30Z</time>
      </trkpt>
      <trkpt lat="43.81098" lon="3.592">
        <ele>177</ele>
        <time>2017-04-27T11:53:38Z</time>
      </trkpt>
      <trkpt lat="43.81088" lon="3.59202">
        <ele>177</ele>
        <time>2017-04-27T11:53:46Z</time>
      </trkpt>
      <trkpt lat="43.81078" lon="3.59202">
        <ele>177</ele>
        <time>2017-04-27T11:53:54Z</time>
      </trkpt>
      <trkpt lat="43.81069" lon="3.59204">
        <ele>177</ele>
        <time>2017-04-27T11:54:02Z</time>
      </trkpt>
      <trkpt lat="43.81059" lon="3.59208">
        <ele>178</ele>
        <time>2017-04-27T11:54:10Z</time>
      </trkpt>
      <trkpt lat="43.81051" lon="3.59214">
        <ele>178</ele>
        <time>2017-04-27T11:54:18Z</time>
      </trkpt>
      <trkpt lat="43.81051" lon="3.59227">
        <ele>178</ele>
        <time>2017-04-27T11:54:30Z</time>
      </trkpt>
      <trkpt lat="43.81051" lon="3.5924">
        <ele>178</ele>
        <time>2017-04-27T11:54:40Z</time>
      </trkpt>
      <trkpt lat="43.81055" lon="3.59251">
        <ele>181</ele>
        <time>2017-04-27T11:54:50Z</time>
      </trkpt>
      <trkpt lat="43.81053" lon="3.59266">
        <ele>181</ele>
        <time>2017-04-27T11:55:04Z</time>
      </trkpt>
      <trkpt lat="43.81047" lon="3.59276">
        <ele>182</ele>
        <time>2017-04-27T11:55:14Z</time>
      </trkpt>
      <trkpt lat="43.8104" lon="3.59287">
        <ele>182</ele>
        <time>2017-04-27T11:55:28Z</time>
      </trkpt>
      <trkpt lat="43.8103" lon="3.59288">
        <ele>183</ele>
        <time>2017-04-27T11:55:42Z</time>
      </trkpt>
      <trkpt lat="43.81039" lon="3.59287">
        <ele>182</ele>
        <time>2017-04-27T11:56:52Z</time>
      </trkpt>
      <trkpt lat="43.81046" lon="3.59277">
        <ele>182</ele>
        <time>2017-04-27T11:57:04Z</time>
      </trkpt>
      <trkpt lat="43.81052" lon="3.59267">
        <ele>181</ele>
        <time>2017-04-27T11:57:28Z</time>
      </trkpt>
      <trkpt lat="43.81059" lon="3.59258">
        <ele>181</ele>
        <time>2017-04-27T11:57:38Z</time>
      </trkpt>
      <trkpt lat="43.8107" lon="3.59256">
        <ele>180</ele>
        <time>2017-04-27T11:58:26Z</time>
      </trkpt>
      <trkpt lat="43.8108" lon="3.59257">
        <ele>180</ele>
        <time>2017-04-27T11:59:28Z</time>
      </trkpt>
      <trkpt lat="43.81071" lon="3.59257">
        <ele>180</ele>
        <time>2017-04-27T11:59:44Z</time>
      </trkpt>
      <trkpt lat="43.81062" lon="3.59252">
        <ele>181</ele>
        <time>2017-04-27T12:00:02Z</time>
      </trkpt>
      <trkpt lat="43.81053" lon="3.59248">
        <ele>178</ele>
        <time>2017-04-27T12:00:46Z</time>
      </trkpt>
      <trkpt lat="43.81051" lon="3.59235">
        <ele>178</ele>
        <time>2017-04-27T12:01:10Z</time>
      </trkpt>
      <trkpt lat="43.8105" lon="3.59222">
        <ele>178</ele>
        <time>2017-04-27T12:01:18Z</time>
      </trkpt>
      <trkpt lat="43.81054" lon="3.59211">
        <ele>178</ele>
        <time>2017-04-27T12:02:42Z</time>
      </trkpt>
      <trkpt lat="43.81051" lon="3.59225">
        <ele>178</ele>
        <time>2017-04-27T12:04:52Z</time>
      </trkpt>
      <trkpt lat="43.81053" lon="3.59237">
        <ele>178</ele>
        <time>2017-04-27T12:05:02Z</time>
      </trkpt>
      <trkpt lat="43.81057" lon="3.59249">
        <ele>178</ele>
        <time>2017-04-27T12:05:10Z</time>
      </trkpt>
      <trkpt lat="43.81052" lon="3.59261">
        <ele>181</ele>
        <time>2017-04-27T12:05:26Z</time>
      </trkpt>
      <trkpt lat="43.81047" lon="3.59273">
        <ele>182</ele>
        <time>2017-04-27T12:05:36Z</time>
      </trkpt>
      <trkpt lat="43.8104" lon="3.59284">
        <ele>182</ele>
        <time>2017-04-27T12:05:48Z</time>
      </trkpt>
      <trkpt lat="43.81031" lon="3.5929">
        <ele>183</ele>
        <time>2017-04-27T12:05:58Z</time>
      </trkpt>
      <trkpt lat="43.81037" lon="3.59299">
        <ele>183</ele>
        <time>2017-04-27T12:06:18Z</time>
      </trkpt>
      <trkpt lat="43.81046" lon="3.59306">
        <ele>183</ele>
        <time>2017-04-27T12:06:28Z</time>
      </trkpt>
      <trkpt lat="43.81055" lon="3.59312">
        <ele>183</ele>
        <time>2017-04-27T12:06:38Z</time>
      </trkpt>
      <trkpt lat="43.81064" lon="3.5932">
        <ele>183</ele>
        <time>2017-04-27T12:06:48Z</time>
      </trkpt>
      <trkpt lat="43.81066" lon="3.59333">
        <ele>183</ele>
        <time>2017-04-27T12:06:56Z</time>
      </trkpt>
      <trkpt lat="43.81066" lon="3.59345">
        <ele>186</ele>
        <time>2017-04-27T12:07:14Z</time>
      </trkpt>
      <trkpt lat="43.81061" lon="3.59357">
        <ele>187</ele>
        <time>2017-04-27T12:07:24Z</time>
      </trkpt>
      <trkpt lat="43.81055" lon="3.59368">
        <ele>188</ele>
        <time>2017-04-27T12:07:32Z</time>
      </trkpt>
      <trkpt lat="43.81047" lon="3.59376">
        <ele>189</ele>
        <time>2017-04-27T12:07:44Z</time>
      </trkpt>
      <trkpt lat="43.81041" lon="3.59385">
        <ele>189</ele>
        <time>2017-04-27T12:07:54Z</time>
      </trkpt>
      <trkpt lat="43.81036" lon="3.59398">
        <ele>190</ele>
        <time>2017-04-27T12:08:04Z</time>
      </trkpt>
      <trkpt lat="43.81031" lon="3.5941">
        <ele>191</ele>
        <time>2017-04-27T12:08:16Z</time>
      </trkpt>
      <trkpt lat="43.81026" lon="3.59421">
        <ele>193</ele>
        <time>2017-04-27T12:08:26Z</time>
      </trkpt>
      <trkpt lat="43.81021" lon="3.59433">
        <ele>193</ele>
        <time>2017-04-27T12:08:34Z</time>
      </trkpt>
      <trkpt lat="43.8102" lon="3.59446">
        <ele>193</ele>
        <time>2017-04-27T12:08:44Z</time>
      </trkpt>
      <trkpt lat="43.81015" lon="3.5946">
        <ele>193</ele>
        <time>2017-04-27T12:08:52Z</time>
      </trkpt>
      <trkpt lat="43.81008" lon="3.5947">
        <ele>194</ele>
        <time>2017-04-27T12:09:00Z</time>
      </trkpt>
      <trkpt lat="43.81003" lon="3.59482">
        <ele>195</ele>
        <time>2017-04-27T12:09:12Z</time>
      </trkpt>
      <trkpt lat="43.80999" lon="3.59495">
        <ele>197</ele>
        <time>2017-04-27T12:09:44Z</time>
      </trkpt>
      <trkpt lat="43.80991" lon="3.59501">
        <ele>197</ele>
        <time>2017-04-27T12:10:00Z</time>
      </trkpt>
      <trkpt lat="43.80986" lon="3.59514">
        <ele>198</ele>
        <time>2017-04-27T12:10:10Z</time>
      </trkpt>
      <trkpt lat="43.80976" lon="3.59514">
        <ele>198</ele>
        <time>2017-04-27T12:10:22Z</time>
      </trkpt>
      <trkpt lat="43.80969" lon="3.59522">
        <ele>198</ele>
        <time>2017-04-27T12:10:40Z</time>
      </trkpt>
      <trkpt lat="43.80962" lon="3.59532">
        <ele>198</ele>
        <time>2017-04-27T12:10:52Z</time>
      </trkpt>
      <trkpt lat="43.80956" lon="3.5954">
        <ele>198</ele>
        <time>2017-04-27T12:11:20Z</time>
      </trkpt>
      <trkpt lat="43.80957" lon="3.59554">
        <ele>198</ele>
        <time>2017-04-27T12:11:40Z</time>
      </trkpt>
      <trkpt lat="43.80955" lon="3.59541">
        <ele>198</ele>
        <time>2017-04-27T12:12:00Z</time>
      </trkpt>
      <trkpt lat="43.80947" lon="3.59532">
        <ele>199</ele>
        <time>2017-04-27T12:12:12Z</time>
      </trkpt>
      <trkpt lat="43.80939" lon="3.59525">
        <ele>200</ele>
        <time>2017-04-27T12:12:24Z</time>
      </trkpt>
      <trkpt lat="43.8093" lon="3.5952">
        <ele>200</ele>
        <time>2017-04-27T12:12:38Z</time>
      </trkpt>
      <trkpt lat="43.80921" lon="3.59525">
        <ele>200</ele>
        <time>2017-04-27T12:12:56Z</time>
      </trkpt>
      <trkpt lat="43.80912" lon="3.59521">
        <ele>208</ele>
        <time>2017-04-27T12:13:18Z</time>
      </trkpt>
      <trkpt lat="43.80904" lon="3.59514">
        <ele>208</ele>
        <time>2017-04-27T12:14:16Z</time>
      </trkpt>
      <trkpt lat="43.80895" lon="3.59509">
        <ele>209</ele>
        <time>2017-04-27T12:14:36Z</time>
      </trkpt>
      <trkpt lat="43.80887" lon="3.59517">
        <ele>211</ele>
        <time>2017-04-27T12:14:44Z</time>
      </trkpt>
      <trkpt lat="43.80878" lon="3.59523">
        <ele>212</ele>
        <time>2017-04-27T12:14:54Z</time>
      </trkpt>
      <trkpt lat="43.80883" lon="3.59536">
        <ele>212</ele>
        <time>2017-04-27T12:15:06Z</time>
      </trkpt>
      <trkpt lat="43.80889" lon="3.59547">
        <ele>211</ele>
        <time>2017-04-27T12:15:18Z</time>
      </trkpt>
      <trkpt lat="43.8088" lon="3.59542">
        <ele>213</ele>
        <time>2017-04-27T12:16:50Z</time>
      </trkpt>
      <trkpt lat="43.80875" lon="3.59552">
        <ele>214</ele>
        <time>2017-04-27T12:17:06Z</time>
      </trkpt>
      <trkpt lat="43.80874" lon="3.59566">
        <ele>214</ele>
        <time>2017-04-27T12:17:14Z</time>
      </trkpt>
      <trkpt lat="43.80865" lon="3.59566">
        <ele>216</ele>
        <time>2017-04-27T12:17:44Z</time>
      </trkpt>
      <trkpt lat="43.80857" lon="3.59558">
        <ele>217</ele>
        <time>2017-04-27T12:17:58Z</time>
      </trkpt>
      <trkpt lat="43.80847" lon="3.59555">
        <ele>218</ele>
        <time>2017-04-27T12:18:14Z</time>
      </trkpt>
      <trkpt lat="43.80838" lon="3.59551">
        <ele>218</ele>
        <time>2017-04-27T12:18:24Z</time>
      </trkpt>
      <trkpt lat="43.80836" lon="3.59563">
        <ele>220</ele>
        <time>2017-04-27T12:18:44Z</time>
      </trkpt>
      <trkpt lat="43.8084" lon="3.59576">
        <ele>223</ele>
        <time>2017-04-27T12:18:56Z</time>
      </trkpt>
      <trkpt lat="43.80844" lon="3.59589">
        <ele>221</ele>
        <time>2017-04-27T12:19:08Z</time>
      </trkpt>
      <trkpt lat="43.80841" lon="3.596">
        <ele>219</ele>
        <time>2017-04-27T12:19:20Z</time>
      </trkpt>
      <trkpt lat="43.80834" lon="3.59591">
        <ele>223</ele>
        <time>2017-04-27T12:19:32Z</time>
      </trkpt>
      <trkpt lat="43.80826" lon="3.59586">
        <ele>230</ele>
        <time>2017-04-27T12:19:44Z</time>
      </trkpt>
      <trkpt lat="43.80817" lon="3.59591">
        <ele>233</ele>
        <time>2017-04-27T12:20:10Z</time>
      </trkpt>
      <trkpt lat="43.80808" lon="3.59596">
        <ele>234</ele>
        <time>2017-04-27T12:20:24Z</time>
      </trkpt>
      <trkpt lat="43.80798" lon="3.59594">
        <ele>237</ele>
        <time>2017-04-27T12:20:36Z</time>
      </trkpt>
      <trkpt lat="43.80789" lon="3.59595">
        <ele>239</ele>
        <time>2017-04-27T12:20:48Z</time>
      </trkpt>
      <trkpt lat="43.80779" lon="3.59595">
        <ele>241</ele>
        <time>2017-04-27T12:21:00Z</time>
      </trkpt>
      <trkpt lat="43.8077" lon="3.59592">
        <ele>245</ele>
        <time>2017-04-27T12:21:10Z</time>
      </trkpt>
      <trkpt lat="43.80759" lon="3.59595">
        <ele>248</ele>
        <time>2017-04-27T12:21:20Z</time>
      </trkpt>
      <trkpt lat="43.8075" lon="3.59598">
        <ele>261</ele>
        <time>2017-04-27T12:21:28Z</time>
      </trkpt>
      <trkpt lat="43.80739" lon="3.596">
        <ele>262</ele>
        <time>2017-04-27T12:21:36Z</time>
      </trkpt>
      <trkpt lat="43.80731" lon="3.59608">
        <ele>263</ele>
        <time>2017-04-27T12:21:44Z</time>
      </trkpt>
      <trkpt lat="43.80723" lon="3.59617">
        <ele>265</ele>
        <time>2017-04-27T12:21:54Z</time>
      </trkpt>
      <trkpt lat="43.80717" lon="3.59628">
        <ele>265</ele>
        <time>2017-04-27T12:22:06Z</time>
      </trkpt>
      <trkpt lat="43.80715" lon="3.59643">
        <ele>264</ele>
        <time>2017-04-27T12:22:16Z</time>
      </trkpt>
      <trkpt lat="43.80715" lon="3.59657">
        <ele>263</ele>
        <time>2017-04-27T12:22:26Z</time>
      </trkpt>
      <trkpt lat="43.80718" lon="3.5967">
        <ele>258</ele>
        <time>2017-04-27T12:22:36Z</time>
      </trkpt>
      <trkpt lat="43.8072" lon="3.59683">
        <ele>257</ele>
        <time>2017-04-27T12:22:48Z</time>
      </trkpt>
      <trkpt lat="43.80721" lon="3.59697">
        <ele>257</ele>
        <time>2017-04-27T12:22:58Z</time>
      </trkpt>
      <trkpt lat="43.80719" lon="3.5971">
        <ele>258</ele>
        <time>2017-04-27T12:23:08Z</time>
      </trkpt>
      <trkpt lat="43.80718" lon="3.59724">
        <ele>257</ele>
        <time>2017-04-27T12:23:20Z</time>
      </trkpt>
      <trkpt lat="43.80714" lon="3.59737">
        <ele>257</ele>
        <time>2017-04-27T12:23:30Z</time>
      </trkpt>
      <trkpt lat="43.80707" lon="3.59747">
        <ele>259</ele>
        <time>2017-04-27T12:23:40Z</time>
      </trkpt>
      <trkpt lat="43.807" lon="3.59757">
        <ele>255</ele>
        <time>2017-04-27T12:23:48Z</time>
      </trkpt>
      <trkpt lat="43.80692" lon="3.59764">
        <ele>257</ele>
        <time>2017-04-27T12:23:56Z</time>
      </trkpt>
      <trkpt lat="43.80682" lon="3.5977">
        <ele>259</ele>
        <time>2017-04-27T12:24:14Z</time>
      </trkpt>
      <trkpt lat="43.8067" lon="3.59773">
        <ele>261</ele>
        <time>2017-04-27T12:24:22Z</time>
      </trkpt>
      <trkpt lat="43.80676" lon="3.59761">
        <ele>265</ele>
        <time>2017-04-27T12:24:32Z</time>
      </trkpt>
      <trkpt lat="43.80666" lon="3.59755">
        <ele>277</ele>
        <time>2017-04-27T12:24:50Z</time>
      </trkpt>
      <trkpt lat="43.80657" lon="3.59758">
        <ele>276</ele>
        <time>2017-04-27T12:25:04Z</time>
      </trkpt>
      <trkpt lat="43.80649" lon="3.59767">
        <ele>276</ele>
        <time>2017-04-27T12:25:18Z</time>
      </trkpt>
      <trkpt lat="43.8064" lon="3.59768">
        <ele>276</ele>
        <time>2017-04-27T12:25:26Z</time>
      </trkpt>
      <trkpt lat="43.80631" lon="3.59772">
        <ele>277</ele>
        <time>2017-04-27T12:25:34Z</time>
      </trkpt>
      <trkpt lat="43.80622" lon="3.59778">
        <ele>277</ele>
        <time>2017-04-27T12:25:46Z</time>
      </trkpt>
      <trkpt lat="43.80613" lon="3.59782">
        <ele>277</ele>
        <time>2017-04-27T12:25:54Z</time>
      </trkpt>
      <trkpt lat="43.80604" lon="3.59784">
        <ele>278</ele>
        <time>2017-04-27T12:26:02Z</time>
      </trkpt>
      <trkpt lat="43.80594" lon="3.5979">
        <ele>278</ele>
        <time>2017-04-27T12:26:10Z</time>
      </trkpt>
      <trkpt lat="43.80584" lon="3.59796">
        <ele>277</ele>
        <time>2017-04-27T12:26:20Z</time>
      </trkpt>
      <trkpt lat="43.80575" lon="3.598">
        <ele>284</ele>
        <time>2017-04-27T12:26:30Z</time>
      </trkpt>
      <trkpt lat="43.80564" lon="3.59804">
        <ele>285</ele>
        <time>2017-04-27T12:26:38Z</time>
      </trkpt>
      <trkpt lat="43.80553" lon="3.59802">
        <ele>286</ele>
        <time>2017-04-27T12:26:58Z</time>
      </trkpt>
      <trkpt lat="43.80543" lon="3.59797">
        <ele>287</ele>
        <time>2017-04-27T12:27:04Z</time>
      </trkpt>
      <trkpt lat="43.80534" lon="3.59794">
        <ele>288</ele>
        <time>2017-04-27T12:27:10Z</time>
      </trkpt>
      <trkpt lat="43.80525" lon="3.59789">
        <ele>289</ele>
        <time>2017-04-27T12:27:20Z</time>
      </trkpt>
      <trkpt lat="43.80516" lon="3.59789">
        <ele>290</ele>
        <time>2017-04-27T12:27:30Z</time>
      </trkpt>
      <trkpt lat="43.80504" lon="3.59788">
        <ele>290</ele>
        <time>2017-04-27T12:27:38Z</time>
      </trkpt>
      <trkpt lat="43.80496" lon="3.59784">
        <ele>301</ele>
        <time>2017-04-27T12:27:54Z</time>
      </trkpt>
      <trkpt lat="43.80487" lon="3.59785">
        <ele>301</ele>
        <time>2017-04-27T12:28:06Z</time>
      </trkpt>
      <trkpt lat="43.80477" lon="3.59784">
        <ele>302</ele>
        <time>2017-04-27T12:28:16Z</time>
      </trkpt>
      <trkpt lat="43.8047" lon="3.59792">
        <ele>302</ele>
        <time>2017-04-27T12:28:28Z</time>
      </trkpt>
      <trkpt lat="43.80466" lon="3.59806">
        <ele>302</ele>
        <time>2017-04-27T12:28:40Z</time>
      </trkpt>
      <trkpt lat="43.80469" lon="3.59818">
        <ele>300</ele>
        <time>2017-04-27T12:28:50Z</time>
      </trkpt>
      <trkpt lat="43.80467" lon="3.59832">
        <ele>300</ele>
        <time>2017-04-27T12:29:00Z</time>
      </trkpt>
      <trkpt lat="43.80463" lon="3.59844">
        <ele>300</ele>
        <time>2017-04-27T12:29:10Z</time>
      </trkpt>
      <trkpt lat="43.80459" lon="3.59856">
        <ele>301</ele>
        <time>2017-04-27T12:29:26Z</time>
      </trkpt>
      <trkpt lat="43.80457" lon="3.59869">
        <ele>302</ele>
        <time>2017-04-27T12:29:38Z</time>
      </trkpt>
      <trkpt lat="43.80456" lon="3.59883">
        <ele>303</ele>
        <time>2017-04-27T12:29:50Z</time>
      </trkpt>
      <trkpt lat="43.80454" lon="3.59897">
        <ele>304</ele>
        <time>2017-04-27T12:30:02Z</time>
      </trkpt>
      <trkpt lat="43.80456" lon="3.59911">
        <ele>305</ele>
        <time>2017-04-27T12:30:14Z</time>
      </trkpt>
      <trkpt lat="43.80446" lon="3.59915">
        <ele>307</ele>
        <time>2017-04-27T12:31:00Z</time>
      </trkpt>
      <trkpt lat="43.80446" lon="3.59927">
        <ele>313</ele>
        <time>2017-04-27T12:31:16Z</time>
      </trkpt>
      <trkpt lat="43.80446" lon="3.5994">
        <ele>313</ele>
        <time>2017-04-27T12:31:26Z</time>
      </trkpt>
      <trkpt lat="43.80451" lon="3.59953">
        <ele>313</ele>
        <time>2017-04-27T12:31:38Z</time>
      </trkpt>
      <trkpt lat="43.80455" lon="3.59965">
        <ele>313</ele>
        <time>2017-04-27T12:31:48Z</time>
      </trkpt>
      <trkpt lat="43.8046" lon="3.59977">
        <ele>313</ele>
        <time>2017-04-27T12:31:58Z</time>
      </trkpt>
      <trkpt lat="43.80462" lon="3.5999">
        <ele>313</ele>
        <time>2017-04-27T12:32:06Z</time>
      </trkpt>
      <trkpt lat="43.80453" lon="3.59992">
        <ele>316</ele>
        <time>2017-04-27T12:32:24Z</time>
      </trkpt>
      <trkpt lat="43.80446" lon="3.59982">
        <ele>317</ele>
        <time>2017-04-27T12:32:34Z</time>
      </trkpt>
      <trkpt lat="43.80438" lon="3.59973">
        <ele>317</ele>
        <time>2017-04-27T12:32:46Z</time>
      </trkpt>
      <trkpt lat="43.8043" lon="3.59964">
        <ele>317</ele>
        <time>2017-04-27T12:33:00Z</time>
      </trkpt>
      <trkpt lat="43.80425" lon="3.59975">
        <ele>320</ele>
        <time>2017-04-27T12:33:14Z</time>
      </trkpt>
      <trkpt lat="43.8043" lon="3.59987">
        <ele>322</ele>
        <time>2017-04-27T12:33:28Z</time>
      </trkpt>
      <trkpt lat="43.80434" lon="3.59999">
        <ele>323</ele>
        <time>2017-04-27T12:33:40Z</time>
      </trkpt>
      <trkpt lat="43.80436" lon="3.60012">
        <ele>327</ele>
        <time>2017-04-27T12:34:00Z</time>
      </trkpt>
      <trkpt lat="43.8044" lon="3.60023">
        <ele>325</ele>
        <time>2017-04-27T12:34:10Z</time>
      </trkpt>
      <trkpt lat="43.80444" lon="3.60035">
        <ele>325</ele>
        <time>2017-04-27T12:34:28Z</time>
      </trkpt>
      <trkpt lat="43.80448" lon="3.60048">
        <ele>325</ele>
        <time>2017-04-27T12:34:40Z</time>
      </trkpt>
      <trkpt lat="43.8045" lon="3.60061">
        <ele>326</ele>
        <time>2017-04-27T12:34:52Z</time>
      </trkpt>
      <trkpt lat="43.80452" lon="3.60076">
        <ele>326</ele>
        <time>2017-04-27T12:35:22Z</time>
      </trkpt>
      <trkpt lat="43.80455" lon="3.6009">
        <ele>327</ele>
        <time>2017-04-27T12:35:32Z</time>
      </trkpt>
      <trkpt lat="43.80452" lon="3.60102">
        <ele>327</ele>
        <time>2017-04-27T12:35:54Z</time>
      </trkpt>
      <trkpt lat="43.80444" lon="3.60108">
        <ele>328</ele>
        <time>2017-04-27T12:36:16Z</time>
      </trkpt>
      <trkpt lat="43.80435" lon="3.6011">
        <ele>330</ele>
        <time>2017-04-27T12:36:30Z</time>
      </trkpt>
      <trkpt lat="43.80425" lon="3.6011">
        <ele>331</ele>
        <time>2017-04-27T12:36:54Z</time>
      </trkpt>
      <trkpt lat="43.80413" lon="3.6011">
        <ele>347</ele>
        <time>2017-04-27T12:37:16Z</time>
      </trkpt>
      <trkpt lat="43.80404" lon="3.60114">
        <ele>348</ele>
        <time>2017-04-27T12:37:22Z</time>
      </trkpt>
      <trkpt lat="43.80395" lon="3.60115">
        <ele>350</ele>
        <time>2017-04-27T12:37:30Z</time>
      </trkpt>
      <trkpt lat="43.80386" lon="3.6011">
        <ele>352</ele>
        <time>2017-04-27T12:37:42Z</time>
      </trkpt>
      <trkpt lat="43.80387" lon="3.60097">
        <ele>351</ele>
        <time>2017-04-27T12:38:12Z</time>
      </trkpt>
      <trkpt lat="43.80379" lon="3.60089">
        <ele>354</ele>
        <time>2017-04-27T12:38:26Z</time>
      </trkpt>
      <trkpt lat="43.8037" lon="3.60086">
        <ele>356</ele>
        <time>2017-04-27T12:38:44Z</time>
      </trkpt>
      <trkpt lat="43.8036" lon="3.60087">
        <ele>359</ele>
        <time>2017-04-27T12:39:22Z</time>
      </trkpt>
      <trkpt lat="43.8035" lon="3.60092">
        <ele>362</ele>
        <time>2017-04-27T12:39:26Z</time>
      </trkpt>
      <trkpt lat="43.80341" lon="3.60088">
        <ele>367</ele>
        <time>2017-04-27T12:39:48Z</time>
      </trkpt>
      <trkpt lat="43.80332" lon="3.6008">
        <ele>375</ele>
        <time>2017-04-27T12:40:08Z</time>
      </trkpt>
      <trkpt lat="43.80329" lon="3.60068">
        <ele>382</ele>
        <time>2017-04-27T12:40:30Z</time>
      </trkpt>
      <trkpt lat="43.80319" lon="3.60067">
        <ele>384</ele>
        <time>2017-04-27T12:40:40Z</time>
      </trkpt>
      <trkpt lat="43.80311" lon="3.60063">
        <ele>387</ele>
        <time>2017-04-27T12:41:06Z</time>
      </trkpt>
      <trkpt lat="43.80303" lon="3.60072">
        <ele>388</ele>
        <time>2017-04-27T12:41:28Z</time>
      </trkpt>
      <trkpt lat="43.80297" lon="3.60085">
        <ele>386</ele>
        <time>2017-04-27T12:41:42Z</time>
      </trkpt>
      <trkpt lat="43.80293" lon="3.60098">
        <ele>387</ele>
        <time>2017-04-27T12:42:00Z</time>
      </trkpt>
      <trkpt lat="43.80291" lon="3.6011">
        <ele>387</ele>
        <time>2017-04-27T12:42:12Z</time>
      </trkpt>
      <trkpt lat="43.80291" lon="3.60123">
        <ele>387</ele>
        <time>2017-04-27T12:42:32Z</time>
      </trkpt>
      <trkpt lat="43.80289" lon="3.60137">
        <ele>387</ele>
        <time>2017-04-27T12:44:00Z</time>
      </trkpt>
      <trkpt lat="43.80281" lon="3.60145">
        <ele>389</ele>
        <time>2017-04-27T12:44:12Z</time>
      </trkpt>
      <trkpt lat="43.80272" lon="3.6015">
        <ele>391</ele>
        <time>2017-04-27T12:44:52Z</time>
      </trkpt>
      <trkpt lat="43.80263" lon="3.60156">
        <ele>393</ele>
        <time>2017-04-27T12:45:06Z</time>
      </trkpt>
      <trkpt lat="43.80254" lon="3.60157">
        <ele>396</ele>
        <time>2017-04-27T12:45:40Z</time>
      </trkpt>
      <trkpt lat="43.80244" lon="3.6015">
        <ele>402</ele>
        <time>2017-04-27T12:45:56Z</time>
      </trkpt>
      <trkpt lat="43.80232" lon="3.60146">
        <ele>402</ele>
        <time>2017-04-27T12:47:58Z</time>
      </trkpt>
      <trkpt lat="43.80223" lon="3.60142">
        <ele>403</ele>
        <time>2017-04-27T12:48:06Z</time>
      </trkpt>
      <trkpt lat="43.80214" lon="3.60136">
        <ele>403</ele>
        <time>2017-04-27T12:48:14Z</time>
      </trkpt>
      <trkpt lat="43.80205" lon="3.60136">
        <ele>403</ele>
        <time>2017-04-27T12:48:28Z</time>
      </trkpt>
      <trkpt lat="43.80196" lon="3.6014">
        <ele>403</ele>
        <time>2017-04-27T12:48:38Z</time>
      </trkpt>
      <trkpt lat="43.80186" lon="3.60144">
        <ele>402</ele>
        <time>2017-04-27T12:48:50Z</time>
      </trkpt>
      <trkpt lat="43.80176" lon="3.60147">
        <ele>402</ele>
        <time>2017-04-27T12:49:00Z</time>
      </trkpt>
      <trkpt lat="43.80169" lon="3.60156">
        <ele>401</ele>
        <time>2017-04-27T12:52:00Z</time>
      </trkpt>
      <trkpt lat="43.80169" lon="3.60169">
        <ele>400</ele>
        <time>2017-04-27T12:52:12Z</time>
      </trkpt>
      <trkpt lat="43.80167" lon="3.60183">
        <ele>399</ele>
        <time>2017-04-27T12:52:22Z</time>
      </trkpt>
      <trkpt lat="43.80162" lon="3.60194">
        <ele>399</ele>
        <time>2017-04-27T12:52:32Z</time>
      </trkpt>
      <trkpt lat="43.8016" lon="3.60209">
        <ele>399</ele>
        <time>2017-04-27T12:52:42Z</time>
      </trkpt>
      <trkpt lat="43.80156" lon="3.60222">
        <ele>399</ele>
        <time>2017-04-27T12:52:52Z</time>
      </trkpt>
      <trkpt lat="43.80151" lon="3.60235">
        <ele>398</ele>
        <time>2017-04-27T12:53:04Z</time>
      </trkpt>
      <trkpt lat="43.80149" lon="3.60247">
        <ele>398</ele>
        <time>2017-04-27T12:53:14Z</time>
      </trkpt>
      <trkpt lat="43.8015" lon="3.60261">
        <ele>398</ele>
        <time>2017-04-27T12:53:30Z</time>
      </trkpt>
      <trkpt lat="43.80152" lon="3.60276">
        <ele>398</ele>
        <time>2017-04-27T12:53:42Z</time>
      </trkpt>
      <trkpt lat="43.80159" lon="3.60285">
        <ele>398</ele>
        <time>2017-04-27T12:53:54Z</time>
      </trkpt>
      <trkpt lat="43.80167" lon="3.60295">
        <ele>397</ele>
        <time>2017-04-27T12:54:06Z</time>
      </trkpt>
      <trkpt lat="43.80175" lon="3.60304">
        <ele>397</ele>
        <time>2017-04-27T12:54:16Z</time>
      </trkpt>
      <trkpt lat="43.80181" lon="3.60315">
        <ele>398</ele>
        <time>2017-04-27T12:54:28Z</time>
      </trkpt>
      <trkpt lat="43.80187" lon="3.60327">
        <ele>398</ele>
        <time>2017-04-27T12:54:44Z</time>
      </trkpt>
      <trkpt lat="43.80192" lon="3.60337">
        <ele>401</ele>
        <time>2017-04-27T12:54:58Z</time>
      </trkpt>
      <trkpt lat="43.80201" lon="3.60345">
        <ele>400</ele>
        <time>2017-04-27T12:55:10Z</time>
      </trkpt>
      <trkpt lat="43.80206" lon="3.60356">
        <ele>400</ele>
        <time>2017-04-27T12:55:18Z</time>
      </trkpt>
      <trkpt lat="43.80214" lon="3.60366">
        <ele>401</ele>
        <time>2017-04-27T12:55:32Z</time>
      </trkpt>
      <trkpt lat="43.8022" lon="3.60377">
        <ele>401</ele>
        <time>2017-04-27T12:55:48Z</time>
      </trkpt>
      <trkpt lat="43.80226" lon="3.60387">
        <ele>401</ele>
        <time>2017-04-27T12:55:56Z</time>
      </trkpt>
      <trkpt lat="43.80234" lon="3.60396">
        <ele>402</ele>
        <time>2017-04-27T12:56:06Z</time>
      </trkpt>
      <trkpt lat="43.80243" lon="3.60406">
        <ele>403</ele>
        <time>2017-04-27T12:56:14Z</time>
      </trkpt>
      <trkpt lat="43.8025" lon="3.60417">
        <ele>404</ele>
        <time>2017-04-27T12:56:22Z</time>
      </trkpt>
      <trkpt lat="43.80252" lon="3.60429">
        <ele>402</ele>
        <time>2017-04-27T12:56:30Z</time>
      </trkpt>
      <trkpt lat="43.80258" lon="3.60439">
        <ele>400</ele>
        <time>2017-04-27T12:56:44Z</time>
      </trkpt>
      <trkpt lat="43.80268" lon="3.60444">
        <ele>399</ele>
        <time>2017-04-27T12:56:56Z</time>
      </trkpt>
      <trkpt lat="43.80274" lon="3.60457">
        <ele>398</ele>
        <time>2017-04-27T12:57:06Z</time>
      </trkpt>
      <trkpt lat="43.80279" lon="3.60469">
        <ele>398</ele>
        <time>2017-04-27T12:57:14Z</time>
      </trkpt>
      <trkpt lat="43.80287" lon="3.60476">
        <ele>397</ele>
        <time>2017-04-27T12:57:24Z</time>
      </trkpt>
      <trkpt lat="43.80297" lon="3.60484">
        <ele>396</ele>
        <time>2017-04-27T12:57:36Z</time>
      </trkpt>
      <trkpt lat="43.80302" lon="3.60495">
        <ele>396</ele>
        <time>2017-04-27T12:57:44Z</time>
      </trkpt>
      <trkpt lat="43.80309" lon="3.60503">
        <ele>391</ele>
        <time>2017-04-27T12:58:20Z</time>
      </trkpt>
      <trkpt lat="43.80313" lon="3.60492">
        <ele>394</ele>
        <time>2017-04-27T12:59:30Z</time>
      </trkpt>
      <trkpt lat="43.80312" lon="3.60479">
        <ele>395</ele>
        <time>2017-04-27T12:59:40Z</time>
      </trkpt>
      <trkpt lat="43.80314" lon="3.60465">
        <ele>396</ele>
        <time>2017-04-27T12:59:50Z</time>
      </trkpt>
      <trkpt lat="43.80314" lon="3.60452">
        <ele>397</ele>
        <time>2017-04-27T13:00:00Z</time>
      </trkpt>
      <trkpt lat="43.80315" lon="3.60439">
        <ele>397</ele>
        <time>2017-04-27T13:00:12Z</time>
      </trkpt>
      <trkpt lat="43.8032" lon="3.60427">
        <ele>397</ele>
        <time>2017-04-27T13:00:20Z</time>
      </trkpt>
      <trkpt lat="43.80329" lon="3.6042">
        <ele>396</ele>
        <time>2017-04-27T13:00:30Z</time>
      </trkpt>
      <trkpt lat="43.80341" lon="3.60416">
        <ele>392</ele>
        <time>2017-04-27T13:00:40Z</time>
      </trkpt>
      <trkpt lat="43.80349" lon="3.60412">
        <ele>388</ele>
        <time>2017-04-27T13:00:48Z</time>
      </trkpt>
      <trkpt lat="43.80358" lon="3.60406">
        <ele>385</ele>
        <time>2017-04-27T13:00:58Z</time>
      </trkpt>
      <trkpt lat="43.80369" lon="3.60405">
        <ele>383</ele>
        <time>2017-04-27T13:01:10Z</time>
      </trkpt>
      <trkpt lat="43.80379" lon="3.60407">
        <ele>382</ele>
        <time>2017-04-27T13:01:20Z</time>
      </trkpt>
      <trkpt lat="43.80391" lon="3.60407">
        <ele>382</ele>
        <time>2017-04-27T13:01:30Z</time>
      </trkpt>
      <trkpt lat="43.804" lon="3.60408">
        <ele>382</ele>
        <time>2017-04-27T13:01:38Z</time>
      </trkpt>
      <trkpt lat="43.80409" lon="3.60412">
        <ele>383</ele>
        <time>2017-04-27T13:01:46Z</time>
      </trkpt>
      <trkpt lat="43.80417" lon="3.60417">
        <ele>385</ele>
        <time>2017-04-27T13:01:54Z</time>
      </trkpt>
      <trkpt lat="43.80426" lon="3.60423">
        <ele>383</ele>
        <time>2017-04-27T13:02:02Z</time>
      </trkpt>
      <trkpt lat="43.80434" lon="3.60432">
        <ele>382</ele>
        <time>2017-04-27T13:02:12Z</time>
      </trkpt>
      <trkpt lat="43.80442" lon="3.60439">
        <ele>382</ele>
        <time>2017-04-27T13:02:22Z</time>
      </trkpt>
      <trkpt lat="43.8045" lon="3.60447">
        <ele>381</ele>
        <time>2017-04-27T13:02:34Z</time>
      </trkpt>
      <trkpt lat="43.80457" lon="3.60458">
        <ele>382</ele>
        <time>2017-04-27T13:02:46Z</time>
      </trkpt>
      <trkpt lat="43.80465" lon="3.60466">
        <ele>382</ele>
        <time>2017-04-27T13:02:56Z</time>
      </trkpt>
      <trkpt lat="43.80473" lon="3.60474">
        <ele>382</ele>
        <time>2017-04-27T13:03:06Z</time>
      </trkpt>
      <trkpt lat="43.80481" lon="3.60481">
        <ele>383</ele>
        <time>2017-04-27T13:03:16Z</time>
      </trkpt>
      <trkpt lat="43.80492" lon="3.60481">
        <ele>384</ele>
        <time>2017-04-27T13:03:26Z</time>
      </trkpt>
      <trkpt lat="43.80502" lon="3.60484">
        <ele>382</ele>
        <time>2017-04-27T13:03:36Z</time>
      </trkpt>
      <trkpt lat="43.80511" lon="3.60491">
        <ele>382</ele>
        <time>2017-04-27T13:03:44Z</time>
      </trkpt>
      <trkpt lat="43.80519" lon="3.60499">
        <ele>381</ele>
        <time>2017-04-27T13:03:52Z</time>
      </trkpt>
      <trkpt lat="43.80527" lon="3.60506">
        <ele>383</ele>
        <time>2017-04-27T13:04:00Z</time>
      </trkpt>
      <trkpt lat="43.80538" lon="3.60512">
        <ele>382</ele>
        <time>2017-04-27T13:04:10Z</time>
      </trkpt>
      <trkpt lat="43.80547" lon="3.60515">
        <ele>381</ele>
        <time>2017-04-27T13:04:16Z</time>
      </trkpt>
      <trkpt lat="43.80557" lon="3.60522">
        <ele>381</ele>
        <time>2017-04-27T13:04:24Z</time>
      </trkpt>
      <trkpt lat="43.80567" lon="3.60524">
        <ele>380</ele>
        <time>2017-04-27T13:04:32Z</time>
      </trkpt>
      <trkpt lat="43.80576" lon="3.6052">
        <ele>381</ele>
        <time>2017-04-27T13:04:40Z</time>
      </trkpt>
      <trkpt lat="43.80587" lon="3.60523">
        <ele>382</ele>
        <time>2017-04-27T13:04:50Z</time>
      </trkpt>
      <trkpt lat="43.80597" lon="3.60526">
        <ele>382</ele>
        <time>2017-04-27T13:04:58Z</time>
      </trkpt>
      <trkpt lat="43.80607" lon="3.60527">
        <ele>383</ele>
        <time>2017-04-27T13:05:06Z</time>
      </trkpt>
      <trkpt lat="43.80618" lon="3.60524">
        <ele>383</ele>
        <time>2017-04-27T13:05:16Z</time>
      </trkpt>
      <trkpt lat="43.80629" lon="3.60525">
        <ele>384</ele>
        <time>2017-04-27T13:05:26Z</time>
      </trkpt>
      <trkpt lat="43.80639" lon="3.60523">
        <ele>384</ele>
        <time>2017-04-27T13:05:36Z</time>
      </trkpt>
      <trkpt lat="43.8065" lon="3.60519">
        <ele>385</ele>
        <time>2017-04-27T13:05:52Z</time>
      </trkpt>
      <trkpt lat="43.8066" lon="3.60522">
        <ele>385</ele>
        <time>2017-04-27T13:06:02Z</time>
      </trkpt>
      <trkpt lat="43.8067" lon="3.60524">
        <ele>390</ele>
        <time>2017-04-27T13:06:10Z</time>
      </trkpt>
      <trkpt lat="43.80679" lon="3.60522">
        <ele>391</ele>
        <time>2017-04-27T13:06:18Z</time>
      </trkpt>
      <trkpt lat="43.80689" lon="3.60522">
        <ele>392</ele>
        <time>2017-04-27T13:06:26Z</time>
      </trkpt>
      <trkpt lat="43.80698" lon="3.60528">
        <ele>392</ele>
        <time>2017-04-27T13:06:36Z</time>
      </trkpt>
      <trkpt lat="43.80707" lon="3.60534">
        <ele>393</ele>
        <time>2017-04-27T13:06:46Z</time>
      </trkpt>
      <trkpt lat="43.80716" lon="3.6054">
        <ele>394</ele>
        <time>2017-04-27T13:06:56Z</time>
      </trkpt>
      <trkpt lat="43.80725" lon="3.60546">
        <ele>394</ele>
        <time>2017-04-27T13:07:04Z</time>
      </trkpt>
      <trkpt lat="43.80734" lon="3.60551">
        <ele>395</ele>
        <time>2017-04-27T13:07:12Z</time>
      </trkpt>
      <trkpt lat="43.80743" lon="3.60555">
        <ele>396</ele>
        <time>2017-04-27T13:07:20Z</time>
      </trkpt>
      <trkpt lat="43.80753" lon="3.60559">
        <ele>394</ele>
        <time>2017-04-27T13:07:30Z</time>
      </trkpt>
      <trkpt lat="43.80762" lon="3.60566">
        <ele>394</ele>
        <time>2017-04-27T13:07:40Z</time>
      </trkpt>
      <trkpt lat="43.80768" lon="3.60579">
        <ele>395</ele>
        <time>2017-04-27T13:07:50Z</time>
      </trkpt>
      <trkpt lat="43.80774" lon="3.6059">
        <ele>394</ele>
        <time>2017-04-27T13:08:00Z</time>
      </trkpt>
      <trkpt lat="43.8078" lon="3.60603">
        <ele>393</ele>
        <time>2017-04-27T13:08:08Z</time>
      </trkpt>
      <trkpt lat="43.80785" lon="3.60614">
        <ele>392</ele>
        <time>2017-04-27T13:08:16Z</time>
      </trkpt>
      <trkpt lat="43.80793" lon="3.60625">
        <ele>391</ele>
        <time>2017-04-27T13:08:24Z</time>
      </trkpt>
      <trkpt lat="43.80796" lon="3.60638">
        <ele>391</ele>
        <time>2017-04-27T13:08:32Z</time>
      </trkpt>
      <trkpt lat="43.80802" lon="3.60647">
        <ele>390</ele>
        <time>2017-04-27T13:08:40Z</time>
      </trkpt>
      <trkpt lat="43.8081" lon="3.60655">
        <ele>389</ele>
        <time>2017-04-27T13:08:50Z</time>
      </trkpt>
      <trkpt lat="43.80818" lon="3.60661">
        <ele>388</ele>
        <time>2017-04-27T13:09:02Z</time>
      </trkpt>
      <trkpt lat="43.80827" lon="3.60666">
        <ele>386</ele>
        <time>2017-04-27T13:09:26Z</time>
      </trkpt>
      <trkpt lat="43.80836" lon="3.60672">
        <ele>382</ele>
        <time>2017-04-27T13:09:52Z</time>
      </trkpt>
      <trkpt lat="43.80843" lon="3.60681">
        <ele>378</ele>
        <time>2017-04-27T13:10:02Z</time>
      </trkpt>
      <trkpt lat="43.80835" lon="3.6069">
        <ele>377</ele>
        <time>2017-04-27T13:10:24Z</time>
      </trkpt>
      <trkpt lat="43.80829" lon="3.60703">
        <ele>387</ele>
        <time>2017-04-27T13:10:32Z</time>
      </trkpt>
      <trkpt lat="43.80833" lon="3.60716">
        <ele>386</ele>
        <time>2017-04-27T13:10:48Z</time>
      </trkpt>
      <trkpt lat="43.8084" lon="3.60726">
        <ele>375</ele>
        <time>2017-04-27T13:11:00Z</time>
      </trkpt>
      <trkpt lat="43.80849" lon="3.60731">
        <ele>374</ele>
        <time>2017-04-27T13:11:18Z</time>
      </trkpt>
      <trkpt lat="43.80858" lon="3.60735">
        <ele>373</ele>
        <time>2017-04-27T13:11:26Z</time>
      </trkpt>
      <trkpt lat="43.80868" lon="3.60735">
        <ele>372</ele>
        <time>2017-04-27T13:11:36Z</time>
      </trkpt>
      <trkpt lat="43.8088" lon="3.60735">
        <ele>370</ele>
        <time>2017-04-27T13:11:46Z</time>
      </trkpt>
      <trkpt lat="43.8089" lon="3.60733">
        <ele>368</ele>
        <time>2017-04-27T13:11:56Z</time>
      </trkpt>
      <trkpt lat="43.80899" lon="3.60736">
        <ele>366</ele>
        <time>2017-04-27T13:12:10Z</time>
      </trkpt>
      <trkpt lat="43.80908" lon="3.60739">
        <ele>364</ele>
        <time>2017-04-27T13:12:22Z</time>
      </trkpt>
      <trkpt lat="43.80918" lon="3.60739">
        <ele>355</ele>
        <time>2017-04-27T13:12:36Z</time>
      </trkpt>
      <trkpt lat="43.80927" lon="3.60743">
        <ele>354</ele>
        <time>2017-04-27T13:12:54Z</time>
      </trkpt>
      <trkpt lat="43.80935" lon="3.60748">
        <ele>352</ele>
        <time>2017-04-27T13:13:10Z</time>
      </trkpt>
      <trkpt lat="43.80945" lon="3.60749">
        <ele>349</ele>
        <time>2017-04-27T13:13:22Z</time>
      </trkpt>
      <trkpt lat="43.80955" lon="3.60753">
        <ele>349</ele>
        <time>2017-04-27T13:13:32Z</time>
      </trkpt>
      <trkpt lat="43.8096" lon="3.60767">
        <ele>349</ele>
        <time>2017-04-27T13:13:44Z</time>
      </trkpt>
      <trkpt lat="43.80959" lon="3.60782">
        <ele>349</ele>
        <time>2017-04-27T13:13:54Z</time>
      </trkpt>
      <trkpt lat="43.80959" lon="3.60795">
        <ele>349</ele>
        <time>2017-04-27T13:14:04Z</time>
      </trkpt>
      <trkpt lat="43.80957" lon="3.6081">
        <ele>349</ele>
        <time>2017-04-27T13:14:14Z</time>
      </trkpt>
      <trkpt lat="43.80968" lon="3.60819">
        <ele>348</ele>
        <time>2017-04-27T13:14:40Z</time>
      </trkpt>
      <trkpt lat="43.80979" lon="3.6082">
        <ele>347</ele>
        <time>2017-04-27T13:14:46Z</time>
      </trkpt>
      <trkpt lat="43.80988" lon="3.6082">
        <ele>346</ele>
        <time>2017-04-27T13:14:52Z</time>
      </trkpt>
      <trkpt lat="43.80998" lon="3.60813">
        <ele>346</ele>
        <time>2017-04-27T13:15:02Z</time>
      </trkpt>
      <trkpt lat="43.81007" lon="3.60807">
        <ele>342</ele>
        <time>2017-04-27T13:15:20Z</time>
      </trkpt>
      <trkpt lat="43.81017" lon="3.60805">
        <ele>342</ele>
        <time>2017-04-27T13:15:32Z</time>
      </trkpt>
      <trkpt lat="43.81026" lon="3.60809">
        <ele>342</ele>
        <time>2017-04-27T13:15:42Z</time>
      </trkpt>
      <trkpt lat="43.81032" lon="3.60819">
        <ele>343</ele>
        <time>2017-04-27T13:15:52Z</time>
      </trkpt>
      <trkpt lat="43.81038" lon="3.6083">
        <ele>344</ele>
        <time>2017-04-27T13:16:04Z</time>
      </trkpt>
      <trkpt lat="43.81041" lon="3.60843">
        <ele>349</ele>
        <time>2017-04-27T13:16:16Z</time>
      </trkpt>
      <trkpt lat="43.81045" lon="3.60854">
        <ele>349</ele>
        <time>2017-04-27T13:16:24Z</time>
      </trkpt>
      <trkpt lat="43.81049" lon="3.60866">
        <ele>350</ele>
        <time>2017-04-27T13:16:32Z</time>
      </trkpt>
      <trkpt lat="43.81046" lon="3.6088">
        <ele>350</ele>
        <time>2017-04-27T13:16:42Z</time>
      </trkpt>
      <trkpt lat="43.81047" lon="3.60893">
        <ele>351</ele>
        <time>2017-04-27T13:16:52Z</time>
      </trkpt>
      <trkpt lat="43.81046" lon="3.60909">
        <ele>351</ele>
        <time>2017-04-27T13:17:00Z</time>
      </trkpt>
      <trkpt lat="43.81045" lon="3.60925">
        <ele>352</ele>
        <time>2017-04-27T13:17:08Z</time>
      </trkpt>
      <trkpt lat="43.81043" lon="3.60938">
        <ele>352</ele>
        <time>2017-04-27T13:17:16Z</time>
      </trkpt>
      <trkpt lat="43.8104" lon="3.60952">
        <ele>352</ele>
        <time>2017-04-27T13:17:26Z</time>
      </trkpt>
      <trkpt lat="43.81044" lon="3.60966">
        <ele>352</ele>
        <time>2017-04-27T13:17:36Z</time>
      </trkpt>
      <trkpt lat="43.8105" lon="3.60978">
        <ele>352</ele>
        <time>2017-04-27T13:17:46Z</time>
      </trkpt>
      <trkpt lat="43.81056" lon="3.60988">
        <ele>353</ele>
        <time>2017-04-27T13:17:54Z</time>
      </trkpt>
      <trkpt lat="43.81061" lon="3.61">
        <ele>353</ele>
        <time>2017-04-27T13:18:02Z</time>
      </trkpt>
      <trkpt lat="43.81054" lon="3.61012">
        <ele>351</ele>
        <time>2017-04-27T13:18:12Z</time>
      </trkpt>
      <trkpt lat="43.81046" lon="3.61019">
        <ele>350</ele>
        <time>2017-04-27T13:18:20Z</time>
      </trkpt>
      <trkpt lat="43.81039" lon="3.61029">
        <ele>350</ele>
        <time>2017-04-27T13:18:30Z</time>
      </trkpt>
      <trkpt lat="43.81033" lon="3.6104">
        <ele>349</ele>
        <time>2017-04-27T13:18:40Z</time>
      </trkpt>
      <trkpt lat="43.81037" lon="3.61054">
        <ele>349</ele>
        <time>2017-04-27T13:18:48Z</time>
      </trkpt>
      <trkpt lat="43.8104" lon="3.61069">
        <ele>349</ele>
        <time>2017-04-27T13:18:56Z</time>
      </trkpt>
      <trkpt lat="43.81039" lon="3.61081">
        <ele>349</ele>
        <time>2017-04-27T13:19:24Z</time>
      </trkpt>
      <trkpt lat="43.81047" lon="3.61087">
        <ele>344</ele>
        <time>2017-04-27T13:20:34Z</time>
      </trkpt>
      <trkpt lat="43.81056" lon="3.61092">
        <ele>344</ele>
        <time>2017-04-27T13:23:08Z</time>
      </trkpt>
      <trkpt lat="43.81066" lon="3.61097">
        <ele>344</ele>
        <time>2017-04-27T13:23:18Z</time>
      </trkpt>
      <trkpt lat="43.81077" lon="3.61101">
        <ele>344</ele>
        <time>2017-04-27T13:23:28Z</time>
      </trkpt>
      <trkpt lat="43.81086" lon="3.61105">
        <ele>342</ele>
        <time>2017-04-27T13:23:36Z</time>
      </trkpt>
      <trkpt lat="43.81096" lon="3.61099">
        <ele>342</ele>
        <time>2017-04-27T13:23:44Z</time>
      </trkpt>
      <trkpt lat="43.81106" lon="3.61096">
        <ele>342</ele>
        <time>2017-04-27T13:23:54Z</time>
      </trkpt>
      <trkpt lat="43.81116" lon="3.61093">
        <ele>342</ele>
        <time>2017-04-27T13:24:02Z</time>
      </trkpt>
      <trkpt lat="43.81126" lon="3.61089">
        <ele>342</ele>
        <time>2017-04-27T13:24:10Z</time>
      </trkpt>
      <trkpt lat="43.81135" lon="3.61086">
        <ele>342</ele>
        <time>2017-04-27T13:24:18Z</time>
      </trkpt>
      <trkpt lat="43.81145" lon="3.61081">
        <ele>348</ele>
        <time>2017-04-27T13:24:26Z</time>
      </trkpt>
      <trkpt lat="43.81155" lon="3.61077">
        <ele>348</ele>
        <time>2017-04-27T13:24:34Z</time>
      </trkpt>
      <trkpt lat="43.81166" lon="3.61073">
        <ele>347</ele>
        <time>2017-04-27T13:24:44Z</time>
      </trkpt>
      <trkpt lat="43.81176" lon="3.61074">
        <ele>348</ele>
        <time>2017-04-27T13:24:52Z</time>
      </trkpt>
      <trkpt lat="43.81181" lon="3.61085">
        <ele>345</ele>
        <time>2017-04-27T13:24:58Z</time>
      </trkpt>
      <trkpt lat="43.81188" lon="3.61098">
        <ele>344</ele>
        <time>2017-04-27T13:25:06Z</time>
      </trkpt>
      <trkpt lat="43.81195" lon="3.61109">
        <ele>344</ele>
        <time>2017-04-27T13:25:14Z</time>
      </trkpt>
      <trkpt lat="43.81201" lon="3.61121">
        <ele>343</ele>
        <time>2017-04-27T13:25:24Z</time>
      </trkpt>
      <trkpt lat="43.81205" lon="3.61132">
        <ele>343</ele>
        <time>2017-04-27T13:25:32Z</time>
      </trkpt>
      <trkpt lat="43.81211" lon="3.61146">
        <ele>342</ele>
        <time>2017-04-27T13:25:38Z</time>
      </trkpt>
      <trkpt lat="43.81219" lon="3.61153">
        <ele>342</ele>
        <time>2017-04-27T13:25:46Z</time>
      </trkpt>
      <trkpt lat="43.81227" lon="3.61164">
        <ele>342</ele>
        <time>2017-04-27T13:25:56Z</time>
      </trkpt>
      <trkpt lat="43.81236" lon="3.61169">
        <ele>338</ele>
        <time>2017-04-27T13:26:04Z</time>
      </trkpt>
      <trkpt lat="43.81244" lon="3.61173">
        <ele>340</ele>
        <time>2017-04-27T13:26:12Z</time>
      </trkpt>
      <trkpt lat="43.81251" lon="3.61183">
        <ele>341</ele>
        <time>2017-04-27T13:26:20Z</time>
      </trkpt>
      <trkpt lat="43.81259" lon="3.61191">
        <ele>340</ele>
        <time>2017-04-27T13:26:28Z</time>
      </trkpt>
      <trkpt lat="43.81262" lon="3.61205">
        <ele>339</ele>
        <time>2017-04-27T13:26:36Z</time>
      </trkpt>
      <trkpt lat="43.81267" lon="3.61218">
        <ele>339</ele>
        <time>2017-04-27T13:26:44Z</time>
      </trkpt>
      <trkpt lat="43.81271" lon="3.6123">
        <ele>338</ele>
        <time>2017-04-27T13:26:52Z</time>
      </trkpt>
      <trkpt lat="43.81277" lon="3.61242">
        <ele>338</ele>
        <time>2017-04-27T13:27:00Z</time>
      </trkpt>
      <trkpt lat="43.81283" lon="3.61254">
        <ele>335</ele>
        <time>2017-04-27T13:27:08Z</time>
      </trkpt>
      <trkpt lat="43.81286" lon="3.61268">
        <ele>335</ele>
        <time>2017-04-27T13:27:16Z</time>
      </trkpt>
      <trkpt lat="43.8129" lon="3.61281">
        <ele>335</ele>
        <time>2017-04-27T13:27:24Z</time>
      </trkpt>
      <trkpt lat="43.81295" lon="3.61293">
        <ele>335</ele>
        <time>2017-04-27T13:27:32Z</time>
      </trkpt>
      <trkpt lat="43.81302" lon="3.61304">
        <ele>335</ele>
        <time>2017-04-27T13:27:40Z</time>
      </trkpt>
      <trkpt lat="43.81309" lon="3.61314">
        <ele>336</ele>
        <time>2017-04-27T13:27:48Z</time>
      </trkpt>
      <trkpt lat="43.81316" lon="3.61322">
        <ele>336</ele>
        <time>2017-04-27T13:27:56Z</time>
      </trkpt>
      <trkpt lat="43.8132" lon="3.61335">
        <ele>334</ele>
        <time>2017-04-27T13:28:04Z</time>
      </trkpt>
      <trkpt lat="43.81327" lon="3.61348">
        <ele>334</ele>
        <time>2017-04-27T13:28:12Z</time>
      </trkpt>
      <trkpt lat="43.81332" lon="3.61359">
        <ele>332</ele>
        <time>2017-04-27T13:28:20Z</time>
      </trkpt>
      <trkpt lat="43.81337" lon="3.61371">
        <ele>337</ele>
        <time>2017-04-27T13:28:28Z</time>
      </trkpt>
      <trkpt lat="43.81343" lon="3.61384">
        <ele>336</ele>
        <time>2017-04-27T13:28:38Z</time>
      </trkpt>
      <trkpt lat="43.81348" lon="3.61396">
        <ele>335</ele>
        <time>2017-04-27T13:28:46Z</time>
      </trkpt>
      <trkpt lat="43.81352" lon="3.61409">
        <ele>334</ele>
        <time>2017-04-27T13:28:54Z</time>
      </trkpt>
      <trkpt lat="43.81355" lon="3.61421">
        <ele>333</ele>
        <time>2017-04-27T13:29:02Z</time>
      </trkpt>
      <trkpt lat="43.81358" lon="3.61436">
        <ele>333</ele>
        <time>2017-04-27T13:29:12Z</time>
      </trkpt>
      <trkpt lat="43.81356" lon="3.61452">
        <ele>333</ele>
        <time>2017-04-27T13:29:20Z</time>
      </trkpt>
      <trkpt lat="43.81352" lon="3.61467">
        <ele>333</ele>
        <time>2017-04-27T13:29:28Z</time>
      </trkpt>
      <trkpt lat="43.8135" lon="3.61479">
        <ele>332</ele>
        <time>2017-04-27T13:29:36Z</time>
      </trkpt>
      <trkpt lat="43.81341" lon="3.61485">
        <ele>330</ele>
        <time>2017-04-27T13:29:52Z</time>
      </trkpt>
      <trkpt lat="43.81332" lon="3.61491">
        <ele>326</ele>
        <time>2017-04-27T13:30:00Z</time>
      </trkpt>
      <trkpt lat="43.81319" lon="3.61495">
        <ele>325</ele>
        <time>2017-04-27T13:30:08Z</time>
      </trkpt>
      <trkpt lat="43.81308" lon="3.61492">
        <ele>325</ele>
        <time>2017-04-27T13:30:18Z</time>
      </trkpt>
      <trkpt lat="43.81298" lon="3.61489">
        <ele>325</ele>
        <time>2017-04-27T13:30:26Z</time>
      </trkpt>
      <trkpt lat="43.8129" lon="3.61483">
        <ele>324</ele>
        <time>2017-04-27T13:30:34Z</time>
      </trkpt>
      <trkpt lat="43.81281" lon="3.61476">
        <ele>324</ele>
        <time>2017-04-27T13:30:40Z</time>
      </trkpt>
      <trkpt lat="43.81273" lon="3.61473">
        <ele>324</ele>
        <time>2017-04-27T13:30:48Z</time>
      </trkpt>
      <trkpt lat="43.81262" lon="3.61473">
        <ele>323</ele>
        <time>2017-04-27T13:31:02Z</time>
      </trkpt>
      <trkpt lat="43.81254" lon="3.61481">
        <ele>323</ele>
        <time>2017-04-27T13:31:10Z</time>
      </trkpt>
      <trkpt lat="43.81249" lon="3.61493">
        <ele>320</ele>
        <time>2017-04-27T13:31:18Z</time>
      </trkpt>
      <trkpt lat="43.81242" lon="3.61504">
        <ele>320</ele>
        <time>2017-04-27T13:31:32Z</time>
      </trkpt>
      <trkpt lat="43.8124" lon="3.61519">
        <ele>319</ele>
        <time>2017-04-27T13:31:40Z</time>
      </trkpt>
      <trkpt lat="43.81236" lon="3.61531">
        <ele>319</ele>
        <time>2017-04-27T13:31:48Z</time>
      </trkpt>
      <trkpt lat="43.81236" lon="3.61547">
        <ele>319</ele>
        <time>2017-04-27T13:31:56Z</time>
      </trkpt>
      <trkpt lat="43.81237" lon="3.61561">
        <ele>319</ele>
        <time>2017-04-27T13:32:04Z</time>
      </trkpt>
      <trkpt lat="43.81238" lon="3.61574">
        <ele>319</ele>
        <time>2017-04-27T13:32:12Z</time>
      </trkpt>
      <trkpt lat="43.81239" lon="3.61587">
        <ele>319</ele>
        <time>2017-04-27T13:32:20Z</time>
      </trkpt>
      <trkpt lat="43.81242" lon="3.61601">
        <ele>318</ele>
        <time>2017-04-27T13:32:28Z</time>
      </trkpt>
      <trkpt lat="43.81249" lon="3.61611">
        <ele>318</ele>
        <time>2017-04-27T13:32:36Z</time>
      </trkpt>
      <trkpt lat="43.81257" lon="3.61622">
        <ele>322</ele>
        <time>2017-04-27T13:32:44Z</time>
      </trkpt>
      <trkpt lat="43.81264" lon="3.61633">
        <ele>322</ele>
        <time>2017-04-27T13:32:52Z</time>
      </trkpt>
      <trkpt lat="43.81269" lon="3.61647">
        <ele>322</ele>
        <time>2017-04-27T13:33:00Z</time>
      </trkpt>
      <trkpt lat="43.81274" lon="3.6166">
        <ele>322</ele>
        <time>2017-04-27T13:33:08Z</time>
      </trkpt>
      <trkpt lat="43.81278" lon="3.61674">
        <ele>321</ele>
        <time>2017-04-27T13:33:16Z</time>
      </trkpt>
      <trkpt lat="43.81282" lon="3.61685">
        <ele>321</ele>
        <time>2017-04-27T13:33:22Z</time>
      </trkpt>
      <trkpt lat="43.81282" lon="3.617">
        <ele>321</ele>
        <time>2017-04-27T13:33:30Z</time>
      </trkpt>
      <trkpt lat="43.81282" lon="3.61715">
        <ele>321</ele>
        <time>2017-04-27T13:33:38Z</time>
      </trkpt>
      <trkpt lat="43.81285" lon="3.6173">
        <ele>320</ele>
        <time>2017-04-27T13:33:46Z</time>
      </trkpt>
      <trkpt lat="43.81287" lon="3.61744">
        <ele>320</ele>
        <time>2017-04-27T13:33:54Z</time>
      </trkpt>
      <trkpt lat="43.81289" lon="3.61758">
        <ele>318</ele>
        <time>2017-04-27T13:34:02Z</time>
      </trkpt>
      <trkpt lat="43.81291" lon="3.61772">
        <ele>318</ele>
        <time>2017-04-27T13:34:10Z</time>
      </trkpt>
      <trkpt lat="43.81296" lon="3.61785">
        <ele>318</ele>
        <time>2017-04-27T13:34:18Z</time>
      </trkpt>
      <trkpt lat="43.81299" lon="3.61799">
        <ele>318</ele>
        <time>2017-04-27T13:34:26Z</time>
      </trkpt>
      <trkpt lat="43.81298" lon="3.61815">
        <ele>317</ele>
        <time>2017-04-27T13:34:34Z</time>
      </trkpt>
      <trkpt lat="43.813" lon="3.6183">
        <ele>317</ele>
        <time>2017-04-27T13:34:42Z</time>
      </trkpt>
      <trkpt lat="43.81303" lon="3.61845">
        <ele>316</ele>
        <time>2017-04-27T13:34:50Z</time>
      </trkpt>
      <trkpt lat="43.81305" lon="3.6186">
        <ele>316</ele>
        <time>2017-04-27T13:34:58Z</time>
      </trkpt>
      <trkpt lat="43.81308" lon="3.61874">
        <ele>316</ele>
        <time>2017-04-27T13:35:06Z</time>
      </trkpt>
      <trkpt lat="43.81313" lon="3.61885">
        <ele>316</ele>
        <time>2017-04-27T13:35:14Z</time>
      </trkpt>
      <trkpt lat="43.81318" lon="3.61897">
        <ele>316</ele>
        <time>2017-04-27T13:35:22Z</time>
      </trkpt>
      <trkpt lat="43.81322" lon="3.6191">
        <ele>316</ele>
        <time>2017-04-27T13:35:30Z</time>
      </trkpt>
      <trkpt lat="43.81327" lon="3.6192">
        <ele>317</ele>
        <time>2017-04-27T13:35:38Z</time>
      </trkpt>
      <trkpt lat="43.81332" lon="3.61932">
        <ele>316</ele>
        <time>2017-04-27T13:35:48Z</time>
      </trkpt>
      <trkpt lat="43.81337" lon="3.61945">
        <ele>319</ele>
        <time>2017-04-27T13:35:58Z</time>
      </trkpt>
      <trkpt lat="43.81343" lon="3.61955">
        <ele>320</ele>
        <time>2017-04-27T13:36:08Z</time>
      </trkpt>
      <trkpt lat="43.81349" lon="3.61968">
        <ele>320</ele>
        <time>2017-04-27T13:36:18Z</time>
      </trkpt>
      <trkpt lat="43.81356" lon="3.61979">
        <ele>320</ele>
        <time>2017-04-27T13:36:28Z</time>
      </trkpt>
      <trkpt lat="43.81362" lon="3.6199">
        <ele>320</ele>
        <time>2017-04-27T13:36:36Z</time>
      </trkpt>
      <trkpt lat="43.8137" lon="3.62">
        <ele>320</ele>
        <time>2017-04-27T13:36:46Z</time>
      </trkpt>
      <trkpt lat="43.81379" lon="3.62005">
        <ele>320</ele>
        <time>2017-04-27T13:36:54Z</time>
      </trkpt>
      <trkpt lat="43.81389" lon="3.62009">
        <ele>320</ele>
        <time>2017-04-27T13:37:02Z</time>
      </trkpt>
      <trkpt lat="43.814" lon="3.62014">
        <ele>321</ele>
        <time>2017-04-27T13:37:10Z</time>
      </trkpt>
      <trkpt lat="43.81408" lon="3.62019">
        <ele>321</ele>
        <time>2017-04-27T13:37:18Z</time>
      </trkpt>
      <trkpt lat="43.81418" lon="3.62024">
        <ele>323</ele>
        <time>2017-04-27T13:37:26Z</time>
      </trkpt>
      <trkpt lat="43.81429" lon="3.62029">
        <ele>323</ele>
        <time>2017-04-27T13:37:34Z</time>
      </trkpt>
      <trkpt lat="43.8144" lon="3.62029">
        <ele>323</ele>
        <time>2017-04-27T13:37:42Z</time>
      </trkpt>
      <trkpt lat="43.81451" lon="3.62031">
        <ele>323</ele>
        <time>2017-04-27T13:37:50Z</time>
      </trkpt>
      <trkpt lat="43.81462" lon="3.62034">
        <ele>323</ele>
        <time>2017-04-27T13:37:58Z</time>
      </trkpt>
      <trkpt lat="43.81472" lon="3.62038">
        <ele>323</ele>
        <time>2017-04-27T13:38:06Z</time>
      </trkpt>
      <trkpt lat="43.81482" lon="3.62043">
        <ele>323</ele>
        <time>2017-04-27T13:38:14Z</time>
      </trkpt>
      <trkpt lat="43.81491" lon="3.62049">
        <ele>323</ele>
        <time>2017-04-27T13:38:22Z</time>
      </trkpt>
      <trkpt lat="43.81501" lon="3.62054">
        <ele>323</ele>
        <time>2017-04-27T13:38:30Z</time>
      </trkpt>
      <trkpt lat="43.8151" lon="3.6206">
        <ele>322</ele>
        <time>2017-04-27T13:38:38Z</time>
      </trkpt>
      <trkpt lat="43.8152" lon="3.62067">
        <ele>322</ele>
        <time>2017-04-27T13:38:46Z</time>
      </trkpt>
      <trkpt lat="43.81527" lon="3.62075">
        <ele>322</ele>
        <time>2017-04-27T13:38:54Z</time>
      </trkpt>
      <trkpt lat="43.81536" lon="3.62084">
        <ele>322</ele>
        <time>2017-04-27T13:39:04Z</time>
      </trkpt>
      <trkpt lat="43.81542" lon="3.62093">
        <ele>322</ele>
        <time>2017-04-27T13:39:12Z</time>
      </trkpt>
      <trkpt lat="43.81549" lon="3.62105">
        <ele>322</ele>
        <time>2017-04-27T13:39:28Z</time>
      </trkpt>
      <trkpt lat="43.81556" lon="3.62117">
        <ele>322</ele>
        <time>2017-04-27T13:39:36Z</time>
      </trkpt>
      <trkpt lat="43.81562" lon="3.62127">
        <ele>322</ele>
        <time>2017-04-27T13:39:42Z</time>
      </trkpt>
      <trkpt lat="43.81566" lon="3.6214">
        <ele>323</ele>
        <time>2017-04-27T13:39:50Z</time>
      </trkpt>
      <trkpt lat="43.81573" lon="3.62149">
        <ele>323</ele>
        <time>2017-04-27T13:40:00Z</time>
      </trkpt>
      <trkpt lat="43.81583" lon="3.62151">
        <ele>323</ele>
        <time>2017-04-27T13:41:32Z</time>
      </trkpt>
      <trkpt lat="43.81591" lon="3.62147">
        <ele>323</ele>
        <time>2017-04-27T13:42:20Z</time>
      </trkpt>
      <trkpt lat="43.81598" lon="3.62135">
        <ele>322</ele>
        <time>2017-04-27T13:42:30Z</time>
      </trkpt>
      <trkpt lat="43.81602" lon="3.62123">
        <ele>322</ele>
        <time>2017-04-27T13:42:38Z</time>
      </trkpt>
      <trkpt lat="43.81608" lon="3.62112">
        <ele>321</ele>
        <time>2017-04-27T13:42:46Z</time>
      </trkpt>
      <trkpt lat="43.81615" lon="3.621">
        <ele>321</ele>
        <time>2017-04-27T13:42:54Z</time>
      </trkpt>
      <trkpt lat="43.81622" lon="3.6209">
        <ele>321</ele>
        <time>2017-04-27T13:43:02Z</time>
      </trkpt>
      <trkpt lat="43.8163" lon="3.62082">
        <ele>317</ele>
        <time>2017-04-27T13:43:10Z</time>
      </trkpt>
      <trkpt lat="43.81638" lon="3.62073">
        <ele>317</ele>
        <time>2017-04-27T13:43:20Z</time>
      </trkpt>
      <trkpt lat="43.81644" lon="3.62063">
        <ele>316</ele>
        <time>2017-04-27T13:43:44Z</time>
      </trkpt>
      <trkpt lat="43.81653" lon="3.62062">
        <ele>316</ele>
        <time>2017-04-27T13:43:54Z</time>
      </trkpt>
      <trkpt lat="43.8166" lon="3.62071">
        <ele>317</ele>
        <time>2017-04-27T13:44:04Z</time>
      </trkpt>
      <trkpt lat="43.81668" lon="3.6208">
        <ele>314</ele>
        <time>2017-04-27T13:44:16Z</time>
      </trkpt>
      <trkpt lat="43.81675" lon="3.62088">
        <ele>313</ele>
        <time>2017-04-27T13:44:26Z</time>
      </trkpt>
      <trkpt lat="43.81683" lon="3.62092">
        <ele>311</ele>
        <time>2017-04-27T13:44:34Z</time>
      </trkpt>
      <trkpt lat="43.81688" lon="3.62081">
        <ele>304</ele>
        <time>2017-04-27T13:44:42Z</time>
      </trkpt>
      <trkpt lat="43.81697" lon="3.62082">
        <ele>301</ele>
        <time>2017-04-27T13:44:52Z</time>
      </trkpt>
      <trkpt lat="43.81704" lon="3.6209">
        <ele>305</ele>
        <time>2017-04-27T13:45:02Z</time>
      </trkpt>
      <trkpt lat="43.81713" lon="3.62095">
        <ele>303</ele>
        <time>2017-04-27T13:45:16Z</time>
      </trkpt>
      <trkpt lat="43.8172" lon="3.62085">
        <ele>300</ele>
        <time>2017-04-27T13:45:34Z</time>
      </trkpt>
      <trkpt lat="43.8173" lon="3.62084">
        <ele>296</ele>
        <time>2017-04-27T13:45:46Z</time>
      </trkpt>
      <trkpt lat="43.81735" lon="3.62097">
        <ele>296</ele>
        <time>2017-04-27T13:45:56Z</time>
      </trkpt>
      <trkpt lat="43.81739" lon="3.62111">
        <ele>299</ele>
        <time>2017-04-27T13:46:06Z</time>
      </trkpt>
      <trkpt lat="43.81747" lon="3.62122">
        <ele>301</ele>
        <time>2017-04-27T13:46:18Z</time>
      </trkpt>
      <trkpt lat="43.81753" lon="3.62134">
        <ele>288</ele>
        <time>2017-04-27T13:46:28Z</time>
      </trkpt>
      <trkpt lat="43.81759" lon="3.62146">
        <ele>290</ele>
        <time>2017-04-27T13:46:40Z</time>
      </trkpt>
      <trkpt lat="43.81764" lon="3.62157">
        <ele>292</ele>
        <time>2017-04-27T13:46:48Z</time>
      </trkpt>
      <trkpt lat="43.81767" lon="3.62145">
        <ele>289</ele>
        <time>2017-04-27T13:47:20Z</time>
      </trkpt>
      <trkpt lat="43.81767" lon="3.62129">
        <ele>286</ele>
        <time>2017-04-27T13:47:32Z</time>
      </trkpt>
      <trkpt lat="43.81771" lon="3.62117">
        <ele>284</ele>
        <time>2017-04-27T13:47:40Z</time>
      </trkpt>
      <trkpt lat="43.81774" lon="3.62104">
        <ele>283</ele>
        <time>2017-04-27T13:47:50Z</time>
      </trkpt>
      <trkpt lat="43.81771" lon="3.62091">
        <ele>282</ele>
        <time>2017-04-27T13:48:00Z</time>
      </trkpt>
      <trkpt lat="43.81768" lon="3.62078">
        <ele>272</ele>
        <time>2017-04-27T13:48:10Z</time>
      </trkpt>
      <trkpt lat="43.81764" lon="3.62065">
        <ele>271</ele>
        <time>2017-04-27T13:48:24Z</time>
      </trkpt>
      <trkpt lat="43.81773" lon="3.62064">
        <ele>268</ele>
        <time>2017-04-27T13:49:02Z</time>
      </trkpt>
      <trkpt lat="43.81779" lon="3.62074">
        <ele>268</ele>
        <time>2017-04-27T13:49:10Z</time>
      </trkpt>
      <trkpt lat="43.81782" lon="3.62087">
        <ele>281</ele>
        <time>2017-04-27T13:49:26Z</time>
      </trkpt>
      <trkpt lat="43.81791" lon="3.62098">
        <ele>280</ele>
        <time>2017-04-27T13:49:36Z</time>
      </trkpt>
      <trkpt lat="43.81799" lon="3.62107">
        <ele>280</ele>
        <time>2017-04-27T13:49:46Z</time>
      </trkpt>
      <trkpt lat="43.81808" lon="3.62104">
        <ele>277</ele>
        <time>2017-04-27T13:50:14Z</time>
      </trkpt>
      <trkpt lat="43.81813" lon="3.62092">
        <ele>274</ele>
        <time>2017-04-27T13:50:24Z</time>
      </trkpt>
      <trkpt lat="43.8182" lon="3.62081">
        <ele>262</ele>
        <time>2017-04-27T13:50:48Z</time>
      </trkpt>
      <trkpt lat="43.81826" lon="3.62069">
        <ele>261</ele>
        <time>2017-04-27T13:51:00Z</time>
      </trkpt>
      <trkpt lat="43.81831" lon="3.62058">
        <ele>260</ele>
        <time>2017-04-27T13:51:10Z</time>
      </trkpt>
      <trkpt lat="43.81839" lon="3.62048">
        <ele>250</ele>
        <time>2017-04-27T13:51:20Z</time>
      </trkpt>
      <trkpt lat="43.81849" lon="3.62043">
        <ele>249</ele>
        <time>2017-04-27T13:51:32Z</time>
      </trkpt>
      <trkpt lat="43.81857" lon="3.62048">
        <ele>250</ele>
        <time>2017-04-27T13:51:44Z</time>
      </trkpt>
      <trkpt lat="43.81866" lon="3.62041">
        <ele>248</ele>
        <time>2017-04-27T13:51:52Z</time>
      </trkpt>
      <trkpt lat="43.81876" lon="3.62035">
        <ele>247</ele>
        <time>2017-04-27T13:52:02Z</time>
      </trkpt>
      <trkpt lat="43.81887" lon="3.6203">
        <ele>246</ele>
        <time>2017-04-27T13:52:18Z</time>
      </trkpt>
      <trkpt lat="43.81897" lon="3.62026">
        <ele>245</ele>
        <time>2017-04-27T13:52:30Z</time>
      </trkpt>
      <trkpt lat="43.81907" lon="3.62023">
        <ele>243</ele>
        <time>2017-04-27T13:52:42Z</time>
      </trkpt>
      <trkpt lat="43.81916" lon="3.62018">
        <ele>241</ele>
        <time>2017-04-27T13:52:50Z</time>
      </trkpt>
      <trkpt lat="43.81926" lon="3.62017">
        <ele>242</ele>
        <time>2017-04-27T13:53:02Z</time>
      </trkpt>
      <trkpt lat="43.81934" lon="3.62011">
        <ele>242</ele>
        <time>2017-04-27T13:53:16Z</time>
      </trkpt>
      <trkpt lat="43.81942" lon="3.62002">
        <ele>242</ele>
        <time>2017-04-27T13:53:26Z</time>
      </trkpt>
      <trkpt lat="43.81949" lon="3.61991">
        <ele>221</ele>
        <time>2017-04-27T13:53:36Z</time>
      </trkpt>
      <trkpt lat="43.81957" lon="3.61986">
        <ele>220</ele>
        <time>2017-04-27T13:53:44Z</time>
      </trkpt>
      <trkpt lat="43.81966" lon="3.61982">
        <ele>219</ele>
        <time>2017-04-27T13:53:54Z</time>
      </trkpt>
      <trkpt lat="43.81976" lon="3.6198">
        <ele>220</ele>
        <time>2017-04-27T13:54:08Z</time>
      </trkpt>
      <trkpt lat="43.81986" lon="3.61979">
        <ele>220</ele>
        <time>2017-04-27T13:54:18Z</time>
      </trkpt>
      <trkpt lat="43.81996" lon="3.61977">
        <ele>220</ele>
        <time>2017-04-27T13:54:36Z</time>
      </trkpt>
      <trkpt lat="43.82005" lon="3.61975">
        <ele>219</ele>
        <time>2017-04-27T13:54:44Z</time>
      </trkpt>
      <trkpt lat="43.82015" lon="3.61975">
        <ele>219</ele>
        <time>2017-04-27T13:54:58Z</time>
      </trkpt>
      <trkpt lat="43.82025" lon="3.61972">
        <ele>218</ele>
        <time>2017-04-27T13:55:18Z</time>
      </trkpt>
      <trkpt lat="43.82034" lon="3.6197">
        <ele>217</ele>
        <time>2017-04-27T13:55:36Z</time>
      </trkpt>
      <trkpt lat="43.82041" lon="3.61963">
        <ele>216</ele>
        <time>2017-04-27T13:55:42Z</time>
      </trkpt>
      <trkpt lat="43.8205" lon="3.61958">
        <ele>215</ele>
        <time>2017-04-27T13:55:48Z</time>
      </trkpt>
      <trkpt lat="43.82058" lon="3.61947">
        <ele>212</ele>
        <time>2017-04-27T13:55:54Z</time>
      </trkpt>
      <trkpt lat="43.82064" lon="3.61938">
        <ele>210</ele>
        <time>2017-04-27T13:56:00Z</time>
      </trkpt>
      <trkpt lat="43.82069" lon="3.61925">
        <ele>206</ele>
        <time>2017-04-27T13:56:08Z</time>
      </trkpt>
      <trkpt lat="43.82077" lon="3.61917">
        <ele>203</ele>
        <time>2017-04-27T13:56:18Z</time>
      </trkpt>
      <trkpt lat="43.82081" lon="3.61906">
        <ele>195</ele>
        <time>2017-04-27T13:56:42Z</time>
      </trkpt>
      <trkpt lat="43.82084" lon="3.61893">
        <ele>192</ele>
        <time>2017-04-27T13:57:32Z</time>
      </trkpt>
      <trkpt lat="43.82091" lon="3.61882">
        <ele>190</ele>
        <time>2017-04-27T13:57:44Z</time>
      </trkpt>
      <trkpt lat="43.821" lon="3.61875">
        <ele>189</ele>
        <time>2017-04-27T13:58:20Z</time>
      </trkpt>
      <trkpt lat="43.82107" lon="3.61865">
        <ele>188</ele>
        <time>2017-04-27T13:58:48Z</time>
      </trkpt>
      <trkpt lat="43.82114" lon="3.61857">
        <ele>187</ele>
        <time>2017-04-27T13:59:06Z</time>
      </trkpt>
      <trkpt lat="43.82125" lon="3.61857">
        <ele>187</ele>
        <time>2017-04-27T13:59:18Z</time>
      </trkpt>
      <trkpt lat="43.82135" lon="3.61858">
        <ele>187</ele>
        <time>2017-04-27T13:59:34Z</time>
      </trkpt>
      <trkpt lat="43.82145" lon="3.61858">
        <ele>186</ele>
        <time>2017-04-27T13:59:46Z</time>
      </trkpt>
      <trkpt lat="43.82156" lon="3.61858">
        <ele>186</ele>
        <time>2017-04-27T13:59:58Z</time>
      </trkpt>
      <trkpt lat="43.82166" lon="3.61859">
        <ele>185</ele>
        <time>2017-04-27T14:00:06Z</time>
      </trkpt>
      <trkpt lat="43.82175" lon="3.61863">
        <ele>179</ele>
        <time>2017-04-27T14:00:14Z</time>
      </trkpt>
      <trkpt lat="43.82182" lon="3.61871">
        <ele>179</ele>
        <time>2017-04-27T14:00:28Z</time>
      </trkpt>
      <trkpt lat="43.82193" lon="3.61872">
        <ele>178</ele>
        <time>2017-04-27T14:00:46Z</time>
      </trkpt>
      <trkpt lat="43.82205" lon="3.61872">
        <ele>176</ele>
        <time>2017-04-27T14:00:56Z</time>
      </trkpt>
      <trkpt lat="43.82215" lon="3.6187">
        <ele>175</ele>
        <time>2017-04-27T14:01:04Z</time>
      </trkpt>
      <trkpt lat="43.82225" lon="3.61869">
        <ele>174</ele>
        <time>2017-04-27T14:01:12Z</time>
      </trkpt>
      <trkpt lat="43.82234" lon="3.61873">
        <ele>174</ele>
        <time>2017-04-27T14:01:22Z</time>
      </trkpt>
      <trkpt lat="43.82243" lon="3.61877">
        <ele>173</ele>
        <time>2017-04-27T14:01:30Z</time>
      </trkpt>
      <trkpt lat="43.82253" lon="3.61879">
        <ele>168</ele>
        <time>2017-04-27T14:02:02Z</time>
      </trkpt>
      <trkpt lat="43.82263" lon="3.61882">
        <ele>168</ele>
        <time>2017-04-27T14:02:10Z</time>
      </trkpt>
      <trkpt lat="43.82271" lon="3.61888">
        <ele>169</ele>
        <time>2017-04-27T14:02:16Z</time>
      </trkpt>
      <trkpt lat="43.8228" lon="3.61887">
        <ele>168</ele>
        <time>2017-04-27T14:02:24Z</time>
      </trkpt>
      <trkpt lat="43.82291" lon="3.61894">
        <ele>169</ele>
        <time>2017-04-27T14:02:32Z</time>
      </trkpt>
      <trkpt lat="43.82295" lon="3.61907">
        <ele>170</ele>
        <time>2017-04-27T14:02:40Z</time>
      </trkpt>
      <trkpt lat="43.82304" lon="3.61907">
        <ele>170</ele>
        <time>2017-04-27T14:03:34Z</time>
      </trkpt>
      <trkpt lat="43.82316" lon="3.61906">
        <ele>171</ele>
        <time>2017-04-27T14:03:42Z</time>
      </trkpt>
      <trkpt lat="43.82328" lon="3.61908">
        <ele>173</ele>
        <time>2017-04-27T14:03:46Z</time>
      </trkpt>
      <trkpt lat="43.82338" lon="3.61907">
        <ele>174</ele>
        <time>2017-04-27T14:03:54Z</time>
      </trkpt>
      <trkpt lat="43.82347" lon="3.61905">
        <ele>174</ele>
        <time>2017-04-27T14:04:00Z</time>
      </trkpt>
      <trkpt lat="43.82356" lon="3.619">
        <ele>173</ele>
        <time>2017-04-27T14:04:08Z</time>
      </trkpt>
      <trkpt lat="43.82366" lon="3.61898">
        <ele>173</ele>
        <time>2017-04-27T14:04:14Z</time>
      </trkpt>
      <trkpt lat="43.82377" lon="3.61895">
        <ele>173</ele>
        <time>2017-04-27T14:04:22Z</time>
      </trkpt>
      <trkpt lat="43.82386" lon="3.61892">
        <ele>174</ele>
        <time>2017-04-27T14:04:30Z</time>
      </trkpt>
      <trkpt lat="43.82397" lon="3.6189">
        <ele>174</ele>
        <time>2017-04-27T14:04:46Z</time>
      </trkpt>
      <trkpt lat="43.82407" lon="3.61887">
        <ele>174</ele>
        <time>2017-04-27T14:04:56Z</time>
      </trkpt>
      <trkpt lat="43.82416" lon="3.61881">
        <ele>173</ele>
        <time>2017-04-27T14:05:02Z</time>
      </trkpt>
      <trkpt lat="43.82425" lon="3.61877">
        <ele>178</ele>
        <time>2017-04-27T14:05:06Z</time>
      </trkpt>
      <trkpt lat="43.82435" lon="3.61869">
        <ele>177</ele>
        <time>2017-04-27T14:05:12Z</time>
      </trkpt>
      <trkpt lat="43.82446" lon="3.61863">
        <ele>177</ele>
        <time>2017-04-27T14:05:20Z</time>
      </trkpt>
      <trkpt lat="43.82455" lon="3.61859">
        <ele>177</ele>
        <time>2017-04-27T14:05:26Z</time>
      </trkpt>
      <trkpt lat="43.82465" lon="3.61852">
        <ele>177</ele>
        <time>2017-04-27T14:05:34Z</time>
      </trkpt>
      <trkpt lat="43.82476" lon="3.61847">
        <ele>176</ele>
        <time>2017-04-27T14:05:42Z</time>
      </trkpt>
      <trkpt lat="43.82486" lon="3.61841">
        <ele>175</ele>
        <time>2017-04-27T14:05:50Z</time>
      </trkpt>
      <trkpt lat="43.82495" lon="3.6184">
        <ele>174</ele>
        <time>2017-04-27T14:05:56Z</time>
      </trkpt>
      <trkpt lat="43.82505" lon="3.61838">
        <ele>174</ele>
        <time>2017-04-27T14:06:02Z</time>
      </trkpt>
      <trkpt lat="43.82515" lon="3.61834">
        <ele>176</ele>
        <time>2017-04-27T14:06:10Z</time>
      </trkpt>
      <trkpt lat="43.82525" lon="3.61831">
        <ele>166</ele>
        <time>2017-04-27T14:06:16Z</time>
      </trkpt>
      <trkpt lat="43.82533" lon="3.61824">
        <ele>165</ele>
        <time>2017-04-27T14:06:24Z</time>
      </trkpt>
      <trkpt lat="43.82543" lon="3.61823">
        <ele>165</ele>
        <time>2017-04-27T14:06:30Z</time>
      </trkpt>
      <trkpt lat="43.82551" lon="3.61818">
        <ele>164</ele>
        <time>2017-04-27T14:06:42Z</time>
      </trkpt>
      <trkpt lat="43.82563" lon="3.61815">
        <ele>164</ele>
        <time>2017-04-27T14:06:50Z</time>
      </trkpt>
      <trkpt lat="43.82572" lon="3.61811">
        <ele>164</ele>
        <time>2017-04-27T14:06:58Z</time>
      </trkpt>
      <trkpt lat="43.82578" lon="3.618">
        <ele>163</ele>
        <time>2017-04-27T14:07:08Z</time>
      </trkpt>
      <trkpt lat="43.82581" lon="3.61787">
        <ele>162</ele>
        <time>2017-04-27T14:07:16Z</time>
      </trkpt>
      <trkpt lat="43.82584" lon="3.61774">
        <ele>160</ele>
        <time>2017-04-27T14:07:24Z</time>
      </trkpt>
      <trkpt lat="43.82589" lon="3.61761">
        <ele>159</ele>
        <time>2017-04-27T14:07:34Z</time>
      </trkpt>
      <trkpt lat="43.82598" lon="3.6176">
        <ele>160</ele>
        <time>2017-04-27T14:07:40Z</time>
      </trkpt>
      <trkpt lat="43.82607" lon="3.61763">
        <ele>160</ele>
        <time>2017-04-27T14:07:46Z</time>
      </trkpt>
      <trkpt lat="43.82618" lon="3.61767">
        <ele>160</ele>
        <time>2017-04-27T14:07:54Z</time>
      </trkpt>
      <trkpt lat="43.82628" lon="3.61777">
        <ele>160</ele>
        <time>2017-04-27T14:08:06Z</time>
      </trkpt>
      <trkpt lat="43.82636" lon="3.61784">
        <ele>160</ele>
        <time>2017-04-27T14:08:12Z</time>
      </trkpt>
      <trkpt lat="43.82645" lon="3.61791">
        <ele>160</ele>
        <time>2017-04-27T14:08:20Z</time>
      </trkpt>
      <trkpt lat="43.82654" lon="3.61797">
        <ele>160</ele>
        <time>2017-04-27T14:08:28Z</time>
      </trkpt>
      <trkpt lat="43.82663" lon="3.61803">
        <ele>160</ele>
        <time>2017-04-27T14:08:38Z</time>
      </trkpt>
      <trkpt lat="43.82675" lon="3.61804">
        <ele>161</ele>
        <time>2017-04-27T14:08:46Z</time>
      </trkpt>
      <trkpt lat="43.82685" lon="3.61804">
        <ele>161</ele>
        <time>2017-04-27T14:08:54Z</time>
      </trkpt>
      <trkpt lat="43.82695" lon="3.618">
        <ele>161</ele>
        <time>2017-04-27T14:09:04Z</time>
      </trkpt>
      <trkpt lat="43.82704" lon="3.61797">
        <ele>161</ele>
        <time>2017-04-27T14:09:10Z</time>
      </trkpt>
      <trkpt lat="43.82715" lon="3.61794">
        <ele>162</ele>
        <time>2017-04-27T14:09:16Z</time>
      </trkpt>
      <trkpt lat="43.82724" lon="3.61788">
        <ele>162</ele>
        <time>2017-04-27T14:09:24Z</time>
      </trkpt>
      <trkpt lat="43.82731" lon="3.61779">
        <ele>162</ele>
        <time>2017-04-27T14:09:32Z</time>
      </trkpt>
      <trkpt lat="43.8274" lon="3.61771">
        <ele>162</ele>
        <time>2017-04-27T14:09:40Z</time>
      </trkpt>
      <trkpt lat="43.82749" lon="3.6176">
        <ele>162</ele>
        <time>2017-04-27T14:09:48Z</time>
      </trkpt>
      <trkpt lat="43.8276" lon="3.61759">
        <ele>165</ele>
        <time>2017-04-27T14:09:56Z</time>
      </trkpt>
      <trkpt lat="43.82771" lon="3.61761">
        <ele>166</ele>
        <time>2017-04-27T14:10:04Z</time>
      </trkpt>
      <trkpt lat="43.82779" lon="3.61753">
        <ele>167</ele>
        <time>2017-04-27T14:10:12Z</time>
      </trkpt>
      <trkpt lat="43.82778" lon="3.6174">
        <ele>165</ele>
        <time>2017-04-27T14:10:26Z</time>
      </trkpt>
      <trkpt lat="43.82782" lon="3.61727">
        <ele>165</ele>
        <time>2017-04-27T14:10:32Z</time>
      </trkpt>
      <trkpt lat="43.82777" lon="3.61714">
        <ele>165</ele>
        <time>2017-04-27T14:10:40Z</time>
      </trkpt>
      <trkpt lat="43.82781" lon="3.61702">
        <ele>165</ele>
        <time>2017-04-27T14:10:48Z</time>
      </trkpt>
      <trkpt lat="43.82784" lon="3.6169">
        <ele>165</ele>
        <time>2017-04-27T14:10:56Z</time>
      </trkpt>
      <trkpt lat="43.8279" lon="3.61677">
        <ele>166</ele>
        <time>2017-04-27T14:11:04Z</time>
      </trkpt>
      <trkpt lat="43.82784" lon="3.61666">
        <ele>166</ele>
        <time>2017-04-27T14:11:16Z</time>
      </trkpt>
      <trkpt lat="43.82779" lon="3.61654">
        <ele>166</ele>
        <time>2017-04-27T14:11:24Z</time>
      </trkpt>
      <trkpt lat="43.82781" lon="3.61642">
        <ele>167</ele>
        <time>2017-04-27T14:11:34Z</time>
      </trkpt>
      <trkpt lat="43.82791" lon="3.6164">
        <ele>167</ele>
        <time>2017-04-27T14:11:42Z</time>
      </trkpt>
      <trkpt lat="43.828" lon="3.61636">
        <ele>167</ele>
        <time>2017-04-27T14:11:52Z</time>
      </trkpt>
      <trkpt lat="43.82811" lon="3.61633">
        <ele>167</ele>
        <time>2017-04-27T14:12:02Z</time>
      </trkpt>
      <trkpt lat="43.82819" lon="3.61623">
        <ele>167</ele>
        <time>2017-04-27T14:12:12Z</time>
      </trkpt>
      <trkpt lat="43.82828" lon="3.61623">
        <ele>167</ele>
        <time>2017-04-27T14:12:18Z</time>
      </trkpt>
      <trkpt lat="43.82839" lon="3.61622">
        <ele>169</ele>
        <time>2017-04-27T14:12:26Z</time>
      </trkpt>
      <trkpt lat="43.82843" lon="3.6161">
        <ele>169</ele>
        <time>2017-04-27T14:12:38Z</time>
      </trkpt>
      <trkpt lat="43.82845" lon="3.61595">
        <ele>169</ele>
        <time>2017-04-27T14:12:56Z</time>
      </trkpt>
    </trkseg>
  </trk>
</gpx>